<?xml version="1.0" encoding="UTF-8" standalone="no" ?>
<gpx xmlns="http://www.topografix.com/GPX/1/1" xmlns:xsi="http://www.w3.org/2001/XMLSchema-instance" xsi:schemaLocation="http://www.topografix.com/GPX/1/1 http://www.topografix.com/GPX/1/1/gpx.xsd" version="1.1" creator="VisuGPX - https://www.visugpx.com">
  <metadata>
    <name>Pas de la Louve</name>
    <desc><![CDATA[Distance: 9,5Km
Dénivelé: 700m
Durée: 4H 15]]></desc>
  </metadata>
  <trk>
    <name><![CDATA[Tracé actuel: 05 MAI 2011 09:06]]></name>
    <trkseg>
      <trkpt lat="44.42846" lon="5.71799">
        <ele>664.89</ele>
        <time>2011-05-05T07:07:59Z</time>
      </trkpt>
      <trkpt lat="44.42843" lon="5.71795">
        <ele>666.33</ele>
        <time>2011-05-05T07:08:04Z</time>
      </trkpt>
      <trkpt lat="44.42841" lon="5.71796">
        <ele>667.77</ele>
        <time>2011-05-05T07:08:07Z</time>
      </trkpt>
      <trkpt lat="44.42839" lon="5.71796">
        <ele>671.62</ele>
        <time>2011-05-05T07:08:10Z</time>
      </trkpt>
      <trkpt lat="44.42838" lon="5.71797">
        <ele>668.25</ele>
        <time>2011-05-05T07:08:11Z</time>
      </trkpt>
      <trkpt lat="44.42837" lon="5.71799">
        <ele>672.58</ele>
        <time>2011-05-05T07:08:13Z</time>
      </trkpt>
      <trkpt lat="44.42834" lon="5.71805">
        <ele>675.94</ele>
        <time>2011-05-05T07:08:20Z</time>
      </trkpt>
      <trkpt lat="44.42832" lon="5.71814">
        <ele>679.31</ele>
        <time>2011-05-05T07:08:27Z</time>
      </trkpt>
      <trkpt lat="44.42833" lon="5.71824">
        <ele>681.71</ele>
        <time>2011-05-05T07:08:35Z</time>
      </trkpt>
      <trkpt lat="44.42833" lon="5.71827">
        <ele>678.35</ele>
        <time>2011-05-05T07:08:38Z</time>
      </trkpt>
      <trkpt lat="44.42833" lon="5.7183">
        <ele>681.71</ele>
        <time>2011-05-05T07:08:40Z</time>
      </trkpt>
      <trkpt lat="44.42833" lon="5.71834">
        <ele>682.67</ele>
        <time>2011-05-05T07:08:44Z</time>
      </trkpt>
      <trkpt lat="44.42833" lon="5.71847">
        <ele>684.12</ele>
        <time>2011-05-05T07:08:55Z</time>
      </trkpt>
      <trkpt lat="44.42825" lon="5.71872">
        <ele>686.04</ele>
        <time>2011-05-05T07:09:10Z</time>
      </trkpt>
      <trkpt lat="44.42828" lon="5.71874">
        <ele>687.96</ele>
        <time>2011-05-05T07:09:13Z</time>
      </trkpt>
      <trkpt lat="44.42831" lon="5.71875">
        <ele>686.52</ele>
        <time>2011-05-05T07:09:16Z</time>
      </trkpt>
      <trkpt lat="44.42843" lon="5.71885">
        <ele>687</ele>
        <time>2011-05-05T07:09:33Z</time>
      </trkpt>
      <trkpt lat="44.42846" lon="5.71894">
        <ele>688.44</ele>
        <time>2011-05-05T07:10:00Z</time>
      </trkpt>
      <trkpt lat="44.42846" lon="5.71896">
        <ele>684.6</ele>
        <time>2011-05-05T07:10:17Z</time>
      </trkpt>
      <trkpt lat="44.42846" lon="5.71896">
        <ele>688.44</ele>
        <time>2011-05-05T07:10:18Z</time>
      </trkpt>
      <trkpt lat="44.42846" lon="5.71896">
        <ele>689.4</ele>
        <time>2011-05-05T07:10:24Z</time>
      </trkpt>
      <trkpt lat="44.42846" lon="5.71896">
        <ele>682.19</ele>
        <time>2011-05-05T07:10:27Z</time>
      </trkpt>
      <trkpt lat="44.42846" lon="5.71896">
        <ele>688.92</ele>
        <time>2011-05-05T07:10:28Z</time>
      </trkpt>
      <trkpt lat="44.42846" lon="5.71896">
        <ele>689.88</ele>
        <time>2011-05-05T07:10:30Z</time>
      </trkpt>
      <trkpt lat="44.42846" lon="5.71896">
        <ele>693.25</ele>
        <time>2011-05-05T07:10:38Z</time>
      </trkpt>
      <trkpt lat="44.42846" lon="5.71896">
        <ele>689.88</ele>
        <time>2011-05-05T07:10:40Z</time>
      </trkpt>
      <trkpt lat="44.42846" lon="5.71896">
        <ele>689.88</ele>
        <time>2011-05-05T07:10:41Z</time>
      </trkpt>
      <trkpt lat="44.42845" lon="5.71898">
        <ele>691.81</ele>
        <time>2011-05-05T07:10:56Z</time>
      </trkpt>
      <trkpt lat="44.42839" lon="5.719">
        <ele>695.17</ele>
        <time>2011-05-05T07:11:14Z</time>
      </trkpt>
      <trkpt lat="44.42839" lon="5.71902">
        <ele>692.29</ele>
        <time>2011-05-05T07:11:17Z</time>
      </trkpt>
      <trkpt lat="44.4284" lon="5.71903">
        <ele>695.65</ele>
        <time>2011-05-05T07:11:18Z</time>
      </trkpt>
      <trkpt lat="44.42841" lon="5.71909">
        <ele>686.04</ele>
        <time>2011-05-05T07:11:24Z</time>
      </trkpt>
      <trkpt lat="44.42841" lon="5.71909">
        <ele>695.65</ele>
        <time>2011-05-05T07:11:25Z</time>
      </trkpt>
      <trkpt lat="44.42858" lon="5.71925">
        <ele>699.02</ele>
        <time>2011-05-05T07:12:04Z</time>
      </trkpt>
      <trkpt lat="44.42861" lon="5.71926">
        <ele>699.5</ele>
        <time>2011-05-05T07:12:14Z</time>
      </trkpt>
      <trkpt lat="44.42862" lon="5.71927">
        <ele>696.13</ele>
        <time>2011-05-05T07:12:15Z</time>
      </trkpt>
      <trkpt lat="44.42862" lon="5.71927">
        <ele>700.94</ele>
        <time>2011-05-05T07:12:16Z</time>
      </trkpt>
      <trkpt lat="44.42865" lon="5.71931">
        <ele>696.61</ele>
        <time>2011-05-05T07:12:22Z</time>
      </trkpt>
      <trkpt lat="44.42865" lon="5.71932">
        <ele>704.3</ele>
        <time>2011-05-05T07:12:23Z</time>
      </trkpt>
      <trkpt lat="44.42864" lon="5.71933">
        <ele>700.94</ele>
        <time>2011-05-05T07:12:25Z</time>
      </trkpt>
      <trkpt lat="44.42863" lon="5.71934">
        <ele>704.3</ele>
        <time>2011-05-05T07:12:30Z</time>
      </trkpt>
      <trkpt lat="44.42862" lon="5.71934">
        <ele>701.9</ele>
        <time>2011-05-05T07:12:31Z</time>
      </trkpt>
      <trkpt lat="44.4286" lon="5.71934">
        <ele>703.34</ele>
        <time>2011-05-05T07:12:36Z</time>
      </trkpt>
      <trkpt lat="44.42867" lon="5.71945">
        <ele>704.78</ele>
        <time>2011-05-05T07:13:00Z</time>
      </trkpt>
      <trkpt lat="44.4287" lon="5.71947">
        <ele>707.19</ele>
        <time>2011-05-05T07:13:09Z</time>
      </trkpt>
      <trkpt lat="44.42879" lon="5.71958">
        <ele>708.63</ele>
        <time>2011-05-05T07:13:23Z</time>
      </trkpt>
      <trkpt lat="44.4288" lon="5.71968">
        <ele>709.11</ele>
        <time>2011-05-05T07:13:37Z</time>
      </trkpt>
      <trkpt lat="44.42881" lon="5.7197">
        <ele>710.55</ele>
        <time>2011-05-05T07:13:40Z</time>
      </trkpt>
      <trkpt lat="44.42881" lon="5.71973">
        <ele>710.55</ele>
        <time>2011-05-05T07:13:45Z</time>
      </trkpt>
      <trkpt lat="44.42881" lon="5.71979">
        <ele>711.03</ele>
        <time>2011-05-05T07:13:55Z</time>
      </trkpt>
      <trkpt lat="44.42886" lon="5.71992">
        <ele>713.44</ele>
        <time>2011-05-05T07:14:12Z</time>
      </trkpt>
      <trkpt lat="44.42889" lon="5.71989">
        <ele>714.4</ele>
        <time>2011-05-05T07:14:19Z</time>
      </trkpt>
      <trkpt lat="44.4289" lon="5.71987">
        <ele>715.36</ele>
        <time>2011-05-05T07:14:23Z</time>
      </trkpt>
      <trkpt lat="44.42897" lon="5.71992">
        <ele>716.8</ele>
        <time>2011-05-05T07:14:39Z</time>
      </trkpt>
      <trkpt lat="44.429" lon="5.71995">
        <ele>718.24</ele>
        <time>2011-05-05T07:14:55Z</time>
      </trkpt>
      <trkpt lat="44.42902" lon="5.71996">
        <ele>718.24</ele>
        <time>2011-05-05T07:15:21Z</time>
      </trkpt>
      <trkpt lat="44.42906" lon="5.71997">
        <ele>717.28</ele>
        <time>2011-05-05T07:17:15Z</time>
      </trkpt>
      <trkpt lat="44.4291" lon="5.71998">
        <ele>718.72</ele>
        <time>2011-05-05T07:17:23Z</time>
      </trkpt>
      <trkpt lat="44.42912" lon="5.71998">
        <ele>718.72</ele>
        <time>2011-05-05T07:17:25Z</time>
      </trkpt>
      <trkpt lat="44.42914" lon="5.71999">
        <ele>719.2</ele>
        <time>2011-05-05T07:17:28Z</time>
      </trkpt>
      <trkpt lat="44.42922" lon="5.72004">
        <ele>721.61</ele>
        <time>2011-05-05T07:17:46Z</time>
      </trkpt>
      <trkpt lat="44.42932" lon="5.72011">
        <ele>724.01</ele>
        <time>2011-05-05T07:18:00Z</time>
      </trkpt>
      <trkpt lat="44.42942" lon="5.72016">
        <ele>725.45</ele>
        <time>2011-05-05T07:18:15Z</time>
      </trkpt>
      <trkpt lat="44.42942" lon="5.72017">
        <ele>726.41</ele>
        <time>2011-05-05T07:18:23Z</time>
      </trkpt>
      <trkpt lat="44.4293" lon="5.72018">
        <ele>727.86</ele>
        <time>2011-05-05T07:18:38Z</time>
      </trkpt>
      <trkpt lat="44.42921" lon="5.72021">
        <ele>728.82</ele>
        <time>2011-05-05T07:18:51Z</time>
      </trkpt>
      <trkpt lat="44.42919" lon="5.72022">
        <ele>730.74</ele>
        <time>2011-05-05T07:18:58Z</time>
      </trkpt>
      <trkpt lat="44.42918" lon="5.72023">
        <ele>730.74</ele>
        <time>2011-05-05T07:19:01Z</time>
      </trkpt>
      <trkpt lat="44.42909" lon="5.72023">
        <ele>732.66</ele>
        <time>2011-05-05T07:19:15Z</time>
      </trkpt>
      <trkpt lat="44.429" lon="5.72028">
        <ele>733.62</ele>
        <time>2011-05-05T07:19:29Z</time>
      </trkpt>
      <trkpt lat="44.42892" lon="5.72031">
        <ele>735.55</ele>
        <time>2011-05-05T07:19:43Z</time>
      </trkpt>
      <trkpt lat="44.42885" lon="5.72032">
        <ele>736.51</ele>
        <time>2011-05-05T07:19:50Z</time>
      </trkpt>
      <trkpt lat="44.42878" lon="5.7204">
        <ele>738.43</ele>
        <time>2011-05-05T07:20:06Z</time>
      </trkpt>
      <trkpt lat="44.42871" lon="5.72038">
        <ele>739.87</ele>
        <time>2011-05-05T07:20:21Z</time>
      </trkpt>
      <trkpt lat="44.42864" lon="5.72042">
        <ele>741.79</ele>
        <time>2011-05-05T07:20:36Z</time>
      </trkpt>
      <trkpt lat="44.42859" lon="5.72043">
        <ele>742.76</ele>
        <time>2011-05-05T07:20:43Z</time>
      </trkpt>
      <trkpt lat="44.42854" lon="5.72047">
        <ele>744.2</ele>
        <time>2011-05-05T07:20:53Z</time>
      </trkpt>
      <trkpt lat="44.42845" lon="5.72044">
        <ele>745.16</ele>
        <time>2011-05-05T07:21:02Z</time>
      </trkpt>
      <trkpt lat="44.42839" lon="5.7205">
        <ele>745.64</ele>
        <time>2011-05-05T07:21:19Z</time>
      </trkpt>
      <trkpt lat="44.42841" lon="5.72053">
        <ele>747.08</ele>
        <time>2011-05-05T07:21:25Z</time>
      </trkpt>
      <trkpt lat="44.42843" lon="5.72054">
        <ele>747.56</ele>
        <time>2011-05-05T07:21:27Z</time>
      </trkpt>
      <trkpt lat="44.42847" lon="5.72056">
        <ele>749</ele>
        <time>2011-05-05T07:21:35Z</time>
      </trkpt>
      <trkpt lat="44.42849" lon="5.72057">
        <ele>748.04</ele>
        <time>2011-05-05T07:21:39Z</time>
      </trkpt>
      <trkpt lat="44.42849" lon="5.72057">
        <ele>754.29</ele>
        <time>2011-05-05T07:21:43Z</time>
      </trkpt>
      <trkpt lat="44.42851" lon="5.72058">
        <ele>740.83</ele>
        <time>2011-05-05T07:21:45Z</time>
      </trkpt>
      <trkpt lat="44.42852" lon="5.72058">
        <ele>750.93</ele>
        <time>2011-05-05T07:21:46Z</time>
      </trkpt>
      <trkpt lat="44.42852" lon="5.72059">
        <ele>743.24</ele>
        <time>2011-05-05T07:21:49Z</time>
      </trkpt>
      <trkpt lat="44.42852" lon="5.72059">
        <ele>750.45</ele>
        <time>2011-05-05T07:21:50Z</time>
      </trkpt>
      <trkpt lat="44.42858" lon="5.72061">
        <ele>752.37</ele>
        <time>2011-05-05T07:22:04Z</time>
      </trkpt>
      <trkpt lat="44.4286" lon="5.72062">
        <ele>749</ele>
        <time>2011-05-05T07:22:12Z</time>
      </trkpt>
      <trkpt lat="44.4286" lon="5.72062">
        <ele>752.37</ele>
        <time>2011-05-05T07:22:15Z</time>
      </trkpt>
      <trkpt lat="44.4286" lon="5.72062">
        <ele>755.73</ele>
        <time>2011-05-05T07:22:16Z</time>
      </trkpt>
      <trkpt lat="44.4286" lon="5.72062">
        <ele>747.56</ele>
        <time>2011-05-05T07:22:17Z</time>
      </trkpt>
      <trkpt lat="44.4286" lon="5.72062">
        <ele>753.33</ele>
        <time>2011-05-05T07:22:18Z</time>
      </trkpt>
      <trkpt lat="44.42866" lon="5.72064">
        <ele>752.85</ele>
        <time>2011-05-05T07:22:26Z</time>
      </trkpt>
      <trkpt lat="44.42874" lon="5.72067">
        <ele>755.25</ele>
        <time>2011-05-05T07:22:41Z</time>
      </trkpt>
      <trkpt lat="44.42877" lon="5.72068">
        <ele>755.73</ele>
        <time>2011-05-05T07:22:44Z</time>
      </trkpt>
      <trkpt lat="44.42881" lon="5.7207">
        <ele>756.21</ele>
        <time>2011-05-05T07:22:48Z</time>
      </trkpt>
      <trkpt lat="44.42889" lon="5.72071">
        <ele>759.1</ele>
        <time>2011-05-05T07:23:00Z</time>
      </trkpt>
      <trkpt lat="44.42889" lon="5.72071">
        <ele>757.66</ele>
        <time>2011-05-05T07:23:01Z</time>
      </trkpt>
      <trkpt lat="44.42889" lon="5.72075">
        <ele>758.62</ele>
        <time>2011-05-05T07:23:19Z</time>
      </trkpt>
      <trkpt lat="44.42884" lon="5.72077">
        <ele>758.14</ele>
        <time>2011-05-05T07:24:16Z</time>
      </trkpt>
      <trkpt lat="44.42876" lon="5.7208">
        <ele>760.54</ele>
        <time>2011-05-05T07:24:29Z</time>
      </trkpt>
      <trkpt lat="44.42868" lon="5.72084">
        <ele>762.94</ele>
        <time>2011-05-05T07:24:45Z</time>
      </trkpt>
      <trkpt lat="44.42865" lon="5.72086">
        <ele>762.94</ele>
        <time>2011-05-05T07:24:52Z</time>
      </trkpt>
      <trkpt lat="44.42858" lon="5.72091">
        <ele>766.31</ele>
        <time>2011-05-05T07:25:08Z</time>
      </trkpt>
      <trkpt lat="44.42857" lon="5.72091">
        <ele>765.83</ele>
        <time>2011-05-05T07:25:09Z</time>
      </trkpt>
      <trkpt lat="44.42855" lon="5.72092">
        <ele>766.79</ele>
        <time>2011-05-05T07:25:11Z</time>
      </trkpt>
      <trkpt lat="44.42848" lon="5.72098">
        <ele>768.23</ele>
        <time>2011-05-05T07:25:23Z</time>
      </trkpt>
      <trkpt lat="44.42844" lon="5.72101">
        <ele>769.67</ele>
        <time>2011-05-05T07:25:34Z</time>
      </trkpt>
      <trkpt lat="44.42837" lon="5.72112">
        <ele>770.63</ele>
        <time>2011-05-05T07:25:50Z</time>
      </trkpt>
      <trkpt lat="44.42833" lon="5.72116">
        <ele>773.52</ele>
        <time>2011-05-05T07:26:12Z</time>
      </trkpt>
      <trkpt lat="44.42831" lon="5.7212">
        <ele>774</ele>
        <time>2011-05-05T07:26:13Z</time>
      </trkpt>
      <trkpt lat="44.42834" lon="5.72127">
        <ele>775.92</ele>
        <time>2011-05-05T07:26:28Z</time>
      </trkpt>
      <trkpt lat="44.42837" lon="5.7213">
        <ele>777.36</ele>
        <time>2011-05-05T07:26:37Z</time>
      </trkpt>
      <trkpt lat="44.42845" lon="5.72128">
        <ele>776.88</ele>
        <time>2011-05-05T07:26:46Z</time>
      </trkpt>
      <trkpt lat="44.42858" lon="5.7213">
        <ele>779.29</ele>
        <time>2011-05-05T07:27:03Z</time>
      </trkpt>
      <trkpt lat="44.42861" lon="5.72132">
        <ele>780.25</ele>
        <time>2011-05-05T07:27:17Z</time>
      </trkpt>
      <trkpt lat="44.42859" lon="5.72134">
        <ele>782.17</ele>
        <time>2011-05-05T07:27:36Z</time>
      </trkpt>
      <trkpt lat="44.42853" lon="5.72135">
        <ele>784.57</ele>
        <time>2011-05-05T07:27:46Z</time>
      </trkpt>
      <trkpt lat="44.4285" lon="5.72135">
        <ele>785.05</ele>
        <time>2011-05-05T07:27:51Z</time>
      </trkpt>
      <trkpt lat="44.42845" lon="5.72141">
        <ele>786.5</ele>
        <time>2011-05-05T07:28:06Z</time>
      </trkpt>
      <trkpt lat="44.42842" lon="5.72147">
        <ele>788.42</ele>
        <time>2011-05-05T07:28:20Z</time>
      </trkpt>
      <trkpt lat="44.42838" lon="5.7215">
        <ele>788.9</ele>
        <time>2011-05-05T07:28:28Z</time>
      </trkpt>
      <trkpt lat="44.42835" lon="5.72151">
        <ele>788.9</ele>
        <time>2011-05-05T07:28:31Z</time>
      </trkpt>
      <trkpt lat="44.4283" lon="5.72156">
        <ele>790.34</ele>
        <time>2011-05-05T07:28:41Z</time>
      </trkpt>
      <trkpt lat="44.42823" lon="5.72164">
        <ele>792.74</ele>
        <time>2011-05-05T07:28:56Z</time>
      </trkpt>
      <trkpt lat="44.42818" lon="5.72169">
        <ele>794.19</ele>
        <time>2011-05-05T07:29:09Z</time>
      </trkpt>
      <trkpt lat="44.42814" lon="5.72172">
        <ele>795.15</ele>
        <time>2011-05-05T07:29:26Z</time>
      </trkpt>
      <trkpt lat="44.42814" lon="5.72172">
        <ele>797.07</ele>
        <time>2011-05-05T07:29:36Z</time>
      </trkpt>
      <trkpt lat="44.42815" lon="5.72174">
        <ele>797.55</ele>
        <time>2011-05-05T07:29:45Z</time>
      </trkpt>
      <trkpt lat="44.42822" lon="5.72179">
        <ele>798.03</ele>
        <time>2011-05-05T07:29:55Z</time>
      </trkpt>
      <trkpt lat="44.42833" lon="5.72181">
        <ele>799.95</ele>
        <time>2011-05-05T07:30:10Z</time>
      </trkpt>
      <trkpt lat="44.42839" lon="5.72177">
        <ele>801.4</ele>
        <time>2011-05-05T07:30:23Z</time>
      </trkpt>
      <trkpt lat="44.42842" lon="5.72176">
        <ele>801.88</ele>
        <time>2011-05-05T07:30:27Z</time>
      </trkpt>
      <trkpt lat="44.42844" lon="5.72176">
        <ele>802.36</ele>
        <time>2011-05-05T07:30:31Z</time>
      </trkpt>
      <trkpt lat="44.42852" lon="5.72174">
        <ele>803.8</ele>
        <time>2011-05-05T07:30:45Z</time>
      </trkpt>
      <trkpt lat="44.42862" lon="5.72176">
        <ele>805.72</ele>
        <time>2011-05-05T07:31:03Z</time>
      </trkpt>
      <trkpt lat="44.42869" lon="5.72174">
        <ele>806.68</ele>
        <time>2011-05-05T07:31:14Z</time>
      </trkpt>
      <trkpt lat="44.42873" lon="5.72174">
        <ele>807.64</ele>
        <time>2011-05-05T07:31:27Z</time>
      </trkpt>
      <trkpt lat="44.4287" lon="5.72175">
        <ele>809.09</ele>
        <time>2011-05-05T07:31:44Z</time>
      </trkpt>
      <trkpt lat="44.4287" lon="5.72175">
        <ele>809.57</ele>
        <time>2011-05-05T07:31:49Z</time>
      </trkpt>
      <trkpt lat="44.4287" lon="5.72174">
        <ele>807.64</ele>
        <time>2011-05-05T07:34:27Z</time>
      </trkpt>
      <trkpt lat="44.4287" lon="5.72174">
        <ele>808.13</ele>
        <time>2011-05-05T07:34:57Z</time>
      </trkpt>
      <trkpt lat="44.42871" lon="5.72172">
        <ele>807.16</ele>
        <time>2011-05-05T07:36:07Z</time>
      </trkpt>
      <trkpt lat="44.42871" lon="5.72172">
        <ele>806.68</ele>
        <time>2011-05-05T07:36:17Z</time>
      </trkpt>
      <trkpt lat="44.42865" lon="5.7218">
        <ele>808.61</ele>
        <time>2011-05-05T07:37:22Z</time>
      </trkpt>
      <trkpt lat="44.42856" lon="5.72189">
        <ele>809.09</ele>
        <time>2011-05-05T07:37:37Z</time>
      </trkpt>
      <trkpt lat="44.42855" lon="5.72192">
        <ele>810.05</ele>
        <time>2011-05-05T07:37:40Z</time>
      </trkpt>
      <trkpt lat="44.42851" lon="5.72195">
        <ele>811.49</ele>
        <time>2011-05-05T07:37:48Z</time>
      </trkpt>
      <trkpt lat="44.42844" lon="5.722">
        <ele>812.93</ele>
        <time>2011-05-05T07:38:01Z</time>
      </trkpt>
      <trkpt lat="44.42835" lon="5.72208">
        <ele>814.85</ele>
        <time>2011-05-05T07:38:17Z</time>
      </trkpt>
      <trkpt lat="44.42834" lon="5.72208">
        <ele>814.85</ele>
        <time>2011-05-05T07:38:19Z</time>
      </trkpt>
      <trkpt lat="44.42825" lon="5.72214">
        <ele>817.74</ele>
        <time>2011-05-05T07:38:36Z</time>
      </trkpt>
      <trkpt lat="44.42814" lon="5.72221">
        <ele>819.18</ele>
        <time>2011-05-05T07:38:51Z</time>
      </trkpt>
      <trkpt lat="44.42807" lon="5.72227">
        <ele>820.14</ele>
        <time>2011-05-05T07:39:04Z</time>
      </trkpt>
      <trkpt lat="44.42798" lon="5.72241">
        <ele>822.06</ele>
        <time>2011-05-05T07:39:20Z</time>
      </trkpt>
      <trkpt lat="44.42794" lon="5.72247">
        <ele>823.99</ele>
        <time>2011-05-05T07:39:33Z</time>
      </trkpt>
      <trkpt lat="44.42788" lon="5.72254">
        <ele>825.43</ele>
        <time>2011-05-05T07:39:47Z</time>
      </trkpt>
      <trkpt lat="44.42784" lon="5.72259">
        <ele>827.83</ele>
        <time>2011-05-05T07:40:00Z</time>
      </trkpt>
      <trkpt lat="44.42781" lon="5.72264">
        <ele>828.31</ele>
        <time>2011-05-05T07:40:07Z</time>
      </trkpt>
      <trkpt lat="44.42772" lon="5.7227">
        <ele>829.76</ele>
        <time>2011-05-05T07:40:21Z</time>
      </trkpt>
      <trkpt lat="44.42774" lon="5.7227">
        <ele>830.24</ele>
        <time>2011-05-05T07:40:25Z</time>
      </trkpt>
      <trkpt lat="44.42777" lon="5.72271">
        <ele>830.24</ele>
        <time>2011-05-05T07:40:28Z</time>
      </trkpt>
      <trkpt lat="44.42784" lon="5.72273">
        <ele>831.68</ele>
        <time>2011-05-05T07:40:38Z</time>
      </trkpt>
      <trkpt lat="44.42795" lon="5.72269">
        <ele>833.6</ele>
        <time>2011-05-05T07:40:53Z</time>
      </trkpt>
      <trkpt lat="44.42801" lon="5.72264">
        <ele>835.52</ele>
        <time>2011-05-05T07:41:08Z</time>
      </trkpt>
      <trkpt lat="44.42805" lon="5.72263">
        <ele>836.96</ele>
        <time>2011-05-05T07:41:13Z</time>
      </trkpt>
      <trkpt lat="44.42811" lon="5.72262">
        <ele>837.45</ele>
        <time>2011-05-05T07:41:26Z</time>
      </trkpt>
      <trkpt lat="44.42818" lon="5.72263">
        <ele>838.89</ele>
        <time>2011-05-05T07:41:38Z</time>
      </trkpt>
      <trkpt lat="44.42826" lon="5.72261">
        <ele>840.33</ele>
        <time>2011-05-05T07:41:53Z</time>
      </trkpt>
      <trkpt lat="44.42827" lon="5.72262">
        <ele>843.69</ele>
        <time>2011-05-05T07:42:06Z</time>
      </trkpt>
      <trkpt lat="44.42823" lon="5.72265">
        <ele>843.21</ele>
        <time>2011-05-05T07:42:16Z</time>
      </trkpt>
      <trkpt lat="44.42819" lon="5.72268">
        <ele>844.66</ele>
        <time>2011-05-05T07:42:22Z</time>
      </trkpt>
      <trkpt lat="44.42812" lon="5.72271">
        <ele>845.62</ele>
        <time>2011-05-05T07:42:33Z</time>
      </trkpt>
      <trkpt lat="44.42808" lon="5.72275">
        <ele>845.62</ele>
        <time>2011-05-05T07:42:41Z</time>
      </trkpt>
      <trkpt lat="44.42802" lon="5.72283">
        <ele>848.02</ele>
        <time>2011-05-05T07:42:51Z</time>
      </trkpt>
      <trkpt lat="44.42796" lon="5.72289">
        <ele>848.5</ele>
        <time>2011-05-05T07:42:59Z</time>
      </trkpt>
      <trkpt lat="44.42792" lon="5.72289">
        <ele>848.98</ele>
        <time>2011-05-05T07:43:05Z</time>
      </trkpt>
      <trkpt lat="44.42791" lon="5.72289">
        <ele>849.94</ele>
        <time>2011-05-05T07:43:07Z</time>
      </trkpt>
      <trkpt lat="44.42787" lon="5.72293">
        <ele>851.87</ele>
        <time>2011-05-05T07:43:22Z</time>
      </trkpt>
      <trkpt lat="44.42787" lon="5.72294">
        <ele>850.9</ele>
        <time>2011-05-05T07:43:23Z</time>
      </trkpt>
      <trkpt lat="44.42786" lon="5.72297">
        <ele>851.38</ele>
        <time>2011-05-05T07:43:27Z</time>
      </trkpt>
      <trkpt lat="44.42778" lon="5.72303">
        <ele>853.79</ele>
        <time>2011-05-05T07:43:45Z</time>
      </trkpt>
      <trkpt lat="44.42777" lon="5.72303">
        <ele>853.79</ele>
        <time>2011-05-05T07:43:50Z</time>
      </trkpt>
      <trkpt lat="44.42769" lon="5.72305">
        <ele>855.23</ele>
        <time>2011-05-05T07:44:01Z</time>
      </trkpt>
      <trkpt lat="44.42775" lon="5.72312">
        <ele>857.63</ele>
        <time>2011-05-05T07:44:16Z</time>
      </trkpt>
      <trkpt lat="44.42778" lon="5.72314">
        <ele>857.15</ele>
        <time>2011-05-05T07:44:21Z</time>
      </trkpt>
      <trkpt lat="44.42783" lon="5.72315">
        <ele>859.56</ele>
        <time>2011-05-05T07:44:34Z</time>
      </trkpt>
      <trkpt lat="44.4279" lon="5.72312">
        <ele>860.52</ele>
        <time>2011-05-05T07:44:46Z</time>
      </trkpt>
      <trkpt lat="44.42798" lon="5.72314">
        <ele>861.48</ele>
        <time>2011-05-05T07:44:59Z</time>
      </trkpt>
      <trkpt lat="44.428" lon="5.72317">
        <ele>863.4</ele>
        <time>2011-05-05T07:45:14Z</time>
      </trkpt>
      <trkpt lat="44.42797" lon="5.72318">
        <ele>864.84</ele>
        <time>2011-05-05T07:45:20Z</time>
      </trkpt>
      <trkpt lat="44.42788" lon="5.72322">
        <ele>865.32</ele>
        <time>2011-05-05T07:45:34Z</time>
      </trkpt>
      <trkpt lat="44.4278" lon="5.72329">
        <ele>867.25</ele>
        <time>2011-05-05T07:45:48Z</time>
      </trkpt>
      <trkpt lat="44.42775" lon="5.72338">
        <ele>870.13</ele>
        <time>2011-05-05T07:46:05Z</time>
      </trkpt>
      <trkpt lat="44.42772" lon="5.72343">
        <ele>870.61</ele>
        <time>2011-05-05T07:46:21Z</time>
      </trkpt>
      <trkpt lat="44.42774" lon="5.72346">
        <ele>873.5</ele>
        <time>2011-05-05T07:46:37Z</time>
      </trkpt>
      <trkpt lat="44.42774" lon="5.72346">
        <ele>874.46</ele>
        <time>2011-05-05T07:46:41Z</time>
      </trkpt>
      <trkpt lat="44.42778" lon="5.72348">
        <ele>874.46</ele>
        <time>2011-05-05T07:46:45Z</time>
      </trkpt>
      <trkpt lat="44.42782" lon="5.72348">
        <ele>876.38</ele>
        <time>2011-05-05T07:46:55Z</time>
      </trkpt>
      <trkpt lat="44.42795" lon="5.72347">
        <ele>876.86</ele>
        <time>2011-05-05T07:47:12Z</time>
      </trkpt>
      <trkpt lat="44.42796" lon="5.72347">
        <ele>878.78</ele>
        <time>2011-05-05T07:47:15Z</time>
      </trkpt>
      <trkpt lat="44.42797" lon="5.72346">
        <ele>878.3</ele>
        <time>2011-05-05T07:47:21Z</time>
      </trkpt>
      <trkpt lat="44.428" lon="5.72347">
        <ele>879.74</ele>
        <time>2011-05-05T07:47:28Z</time>
      </trkpt>
      <trkpt lat="44.42807" lon="5.72345">
        <ele>881.19</ele>
        <time>2011-05-05T07:47:39Z</time>
      </trkpt>
      <trkpt lat="44.428" lon="5.72351">
        <ele>882.63</ele>
        <time>2011-05-05T07:47:53Z</time>
      </trkpt>
      <trkpt lat="44.42797" lon="5.72354">
        <ele>884.07</ele>
        <time>2011-05-05T07:48:07Z</time>
      </trkpt>
      <trkpt lat="44.42795" lon="5.72355">
        <ele>885.51</ele>
        <time>2011-05-05T07:48:14Z</time>
      </trkpt>
      <trkpt lat="44.42783" lon="5.72363">
        <ele>887.43</ele>
        <time>2011-05-05T07:48:31Z</time>
      </trkpt>
      <trkpt lat="44.42774" lon="5.72371">
        <ele>888.4</ele>
        <time>2011-05-05T07:48:47Z</time>
      </trkpt>
      <trkpt lat="44.42771" lon="5.72375">
        <ele>890.32</ele>
        <time>2011-05-05T07:49:05Z</time>
      </trkpt>
      <trkpt lat="44.42768" lon="5.72379">
        <ele>891.76</ele>
        <time>2011-05-05T07:49:10Z</time>
      </trkpt>
      <trkpt lat="44.42759" lon="5.72392">
        <ele>892.24</ele>
        <time>2011-05-05T07:49:22Z</time>
      </trkpt>
      <trkpt lat="44.42755" lon="5.72397">
        <ele>893.68</ele>
        <time>2011-05-05T07:49:29Z</time>
      </trkpt>
      <trkpt lat="44.42749" lon="5.72398">
        <ele>895.12</ele>
        <time>2011-05-05T07:49:43Z</time>
      </trkpt>
      <trkpt lat="44.42747" lon="5.72398">
        <ele>897.05</ele>
        <time>2011-05-05T07:49:57Z</time>
      </trkpt>
      <trkpt lat="44.42745" lon="5.72402">
        <ele>898.01</ele>
        <time>2011-05-05T07:50:07Z</time>
      </trkpt>
      <trkpt lat="44.42743" lon="5.72406">
        <ele>897.53</ele>
        <time>2011-05-05T07:50:11Z</time>
      </trkpt>
      <trkpt lat="44.42733" lon="5.72406">
        <ele>899.45</ele>
        <time>2011-05-05T07:50:25Z</time>
      </trkpt>
      <trkpt lat="44.42727" lon="5.72411">
        <ele>900.89</ele>
        <time>2011-05-05T07:50:40Z</time>
      </trkpt>
      <trkpt lat="44.42726" lon="5.72411">
        <ele>901.37</ele>
        <time>2011-05-05T07:50:45Z</time>
      </trkpt>
      <trkpt lat="44.42721" lon="5.72411">
        <ele>901.85</ele>
        <time>2011-05-05T07:50:57Z</time>
      </trkpt>
      <trkpt lat="44.42703" lon="5.7241">
        <ele>899.93</ele>
        <time>2011-05-05T07:51:15Z</time>
      </trkpt>
      <trkpt lat="44.42693" lon="5.72409">
        <ele>899.45</ele>
        <time>2011-05-05T07:51:30Z</time>
      </trkpt>
      <trkpt lat="44.42691" lon="5.72409">
        <ele>898.49</ele>
        <time>2011-05-05T07:51:35Z</time>
      </trkpt>
      <trkpt lat="44.42676" lon="5.72406">
        <ele>898.97</ele>
        <time>2011-05-05T07:51:54Z</time>
      </trkpt>
      <trkpt lat="44.42675" lon="5.72405">
        <ele>897.05</ele>
        <time>2011-05-05T07:51:57Z</time>
      </trkpt>
      <trkpt lat="44.42663" lon="5.72403">
        <ele>895.61</ele>
        <time>2011-05-05T07:52:11Z</time>
      </trkpt>
      <trkpt lat="44.42661" lon="5.724">
        <ele>894.16</ele>
        <time>2011-05-05T07:52:28Z</time>
      </trkpt>
      <trkpt lat="44.42661" lon="5.72398">
        <ele>893.2</ele>
        <time>2011-05-05T07:53:35Z</time>
      </trkpt>
      <trkpt lat="44.42661" lon="5.72398">
        <ele>892.72</ele>
        <time>2011-05-05T07:53:53Z</time>
      </trkpt>
      <trkpt lat="44.4266" lon="5.72398">
        <ele>892.72</ele>
        <time>2011-05-05T07:54:58Z</time>
      </trkpt>
      <trkpt lat="44.42659" lon="5.72398">
        <ele>893.2</ele>
        <time>2011-05-05T07:56:53Z</time>
      </trkpt>
      <trkpt lat="44.42659" lon="5.72398">
        <ele>894.16</ele>
        <time>2011-05-05T07:57:12Z</time>
      </trkpt>
      <trkpt lat="44.42659" lon="5.72398">
        <ele>895.61</ele>
        <time>2011-05-05T07:59:07Z</time>
      </trkpt>
      <trkpt lat="44.42659" lon="5.724">
        <ele>894.16</ele>
        <time>2011-05-05T08:02:52Z</time>
      </trkpt>
      <trkpt lat="44.42653" lon="5.72404">
        <ele>891.76</ele>
        <time>2011-05-05T08:04:09Z</time>
      </trkpt>
      <trkpt lat="44.42647" lon="5.72407">
        <ele>891.76</ele>
        <time>2011-05-05T08:04:13Z</time>
      </trkpt>
      <trkpt lat="44.42642" lon="5.72411">
        <ele>891.76</ele>
        <time>2011-05-05T08:04:32Z</time>
      </trkpt>
      <trkpt lat="44.42638" lon="5.72418">
        <ele>889.36</ele>
        <time>2011-05-05T08:04:50Z</time>
      </trkpt>
      <trkpt lat="44.42633" lon="5.72429">
        <ele>885.03</ele>
        <time>2011-05-05T08:05:05Z</time>
      </trkpt>
      <trkpt lat="44.42627" lon="5.72442">
        <ele>883.11</ele>
        <time>2011-05-05T08:05:23Z</time>
      </trkpt>
      <trkpt lat="44.42625" lon="5.72457">
        <ele>882.63</ele>
        <time>2011-05-05T08:05:39Z</time>
      </trkpt>
      <trkpt lat="44.4262" lon="5.72461">
        <ele>882.63</ele>
        <time>2011-05-05T08:05:42Z</time>
      </trkpt>
      <trkpt lat="44.42618" lon="5.72463">
        <ele>882.15</ele>
        <time>2011-05-05T08:05:45Z</time>
      </trkpt>
      <trkpt lat="44.42617" lon="5.72465">
        <ele>883.11</ele>
        <time>2011-05-05T08:05:48Z</time>
      </trkpt>
      <trkpt lat="44.4261" lon="5.72477">
        <ele>884.07</ele>
        <time>2011-05-05T08:05:57Z</time>
      </trkpt>
      <trkpt lat="44.42605" lon="5.72494">
        <ele>884.07</ele>
        <time>2011-05-05T08:06:14Z</time>
      </trkpt>
      <trkpt lat="44.42601" lon="5.72504">
        <ele>884.55</ele>
        <time>2011-05-05T08:06:26Z</time>
      </trkpt>
      <trkpt lat="44.42599" lon="5.72506">
        <ele>884.55</ele>
        <time>2011-05-05T08:06:28Z</time>
      </trkpt>
      <trkpt lat="44.42598" lon="5.72518">
        <ele>884.55</ele>
        <time>2011-05-05T08:06:43Z</time>
      </trkpt>
      <trkpt lat="44.426" lon="5.72533">
        <ele>884.07</ele>
        <time>2011-05-05T08:06:57Z</time>
      </trkpt>
      <trkpt lat="44.42604" lon="5.72545">
        <ele>886.95</ele>
        <time>2011-05-05T08:07:14Z</time>
      </trkpt>
      <trkpt lat="44.42604" lon="5.72562">
        <ele>887.43</ele>
        <time>2011-05-05T08:07:30Z</time>
      </trkpt>
      <trkpt lat="44.42609" lon="5.72574">
        <ele>890.32</ele>
        <time>2011-05-05T08:07:45Z</time>
      </trkpt>
      <trkpt lat="44.42612" lon="5.72585">
        <ele>892.72</ele>
        <time>2011-05-05T08:08:00Z</time>
      </trkpt>
      <trkpt lat="44.42609" lon="5.72589">
        <ele>892.72</ele>
        <time>2011-05-05T08:08:04Z</time>
      </trkpt>
      <trkpt lat="44.42607" lon="5.72592">
        <ele>893.68</ele>
        <time>2011-05-05T08:08:09Z</time>
      </trkpt>
      <trkpt lat="44.42605" lon="5.72596">
        <ele>893.68</ele>
        <time>2011-05-05T08:08:16Z</time>
      </trkpt>
      <trkpt lat="44.42599" lon="5.72608">
        <ele>896.09</ele>
        <time>2011-05-05T08:08:27Z</time>
      </trkpt>
      <trkpt lat="44.42596" lon="5.72612">
        <ele>896.57</ele>
        <time>2011-05-05T08:08:32Z</time>
      </trkpt>
      <trkpt lat="44.4259" lon="5.72615">
        <ele>898.01</ele>
        <time>2011-05-05T08:08:49Z</time>
      </trkpt>
      <trkpt lat="44.4259" lon="5.72623">
        <ele>898.97</ele>
        <time>2011-05-05T08:08:56Z</time>
      </trkpt>
      <trkpt lat="44.42589" lon="5.72627">
        <ele>900.89</ele>
        <time>2011-05-05T08:09:03Z</time>
      </trkpt>
      <trkpt lat="44.42586" lon="5.72638">
        <ele>903.78</ele>
        <time>2011-05-05T08:09:20Z</time>
      </trkpt>
      <trkpt lat="44.42585" lon="5.72642">
        <ele>907.14</ele>
        <time>2011-05-05T08:09:38Z</time>
      </trkpt>
      <trkpt lat="44.42584" lon="5.72657">
        <ele>906.18</ele>
        <time>2011-05-05T08:09:52Z</time>
      </trkpt>
      <trkpt lat="44.42586" lon="5.72662">
        <ele>907.14</ele>
        <time>2011-05-05T08:10:08Z</time>
      </trkpt>
      <trkpt lat="44.42586" lon="5.72663">
        <ele>910.03</ele>
        <time>2011-05-05T08:10:43Z</time>
      </trkpt>
      <trkpt lat="44.42586" lon="5.72663">
        <ele>911.95</ele>
        <time>2011-05-05T08:11:03Z</time>
      </trkpt>
      <trkpt lat="44.42591" lon="5.72673">
        <ele>912.43</ele>
        <time>2011-05-05T08:11:08Z</time>
      </trkpt>
      <trkpt lat="44.42599" lon="5.72711">
        <ele>914.35</ele>
        <time>2011-05-05T08:11:26Z</time>
      </trkpt>
      <trkpt lat="44.42599" lon="5.72719">
        <ele>914.35</ele>
        <time>2011-05-05T08:11:31Z</time>
      </trkpt>
      <trkpt lat="44.42599" lon="5.72733">
        <ele>915.79</ele>
        <time>2011-05-05T08:11:39Z</time>
      </trkpt>
      <trkpt lat="44.42601" lon="5.72743">
        <ele>917.72</ele>
        <time>2011-05-05T08:11:52Z</time>
      </trkpt>
      <trkpt lat="44.42606" lon="5.72756">
        <ele>918.2</ele>
        <time>2011-05-05T08:12:05Z</time>
      </trkpt>
      <trkpt lat="44.42606" lon="5.72766">
        <ele>921.56</ele>
        <time>2011-05-05T08:12:19Z</time>
      </trkpt>
      <trkpt lat="44.42606" lon="5.72766">
        <ele>923.48</ele>
        <time>2011-05-05T08:12:41Z</time>
      </trkpt>
      <trkpt lat="44.4261" lon="5.72776">
        <ele>924.45</ele>
        <time>2011-05-05T08:12:54Z</time>
      </trkpt>
      <trkpt lat="44.4261" lon="5.72777">
        <ele>924.93</ele>
        <time>2011-05-05T08:12:55Z</time>
      </trkpt>
      <trkpt lat="44.42612" lon="5.72784">
        <ele>926.37</ele>
        <time>2011-05-05T08:13:09Z</time>
      </trkpt>
      <trkpt lat="44.42612" lon="5.72788">
        <ele>927.33</ele>
        <time>2011-05-05T08:13:11Z</time>
      </trkpt>
      <trkpt lat="44.42613" lon="5.72791">
        <ele>926.85</ele>
        <time>2011-05-05T08:13:13Z</time>
      </trkpt>
      <trkpt lat="44.42615" lon="5.72821">
        <ele>928.77</ele>
        <time>2011-05-05T08:13:29Z</time>
      </trkpt>
      <trkpt lat="44.42615" lon="5.72831">
        <ele>928.77</ele>
        <time>2011-05-05T08:13:44Z</time>
      </trkpt>
      <trkpt lat="44.42615" lon="5.72836">
        <ele>929.73</ele>
        <time>2011-05-05T08:13:46Z</time>
      </trkpt>
      <trkpt lat="44.42612" lon="5.72846">
        <ele>930.69</ele>
        <time>2011-05-05T08:13:54Z</time>
      </trkpt>
      <trkpt lat="44.42602" lon="5.72855">
        <ele>931.17</ele>
        <time>2011-05-05T08:14:03Z</time>
      </trkpt>
      <trkpt lat="44.42599" lon="5.72861">
        <ele>931.65</ele>
        <time>2011-05-05T08:14:09Z</time>
      </trkpt>
      <trkpt lat="44.42598" lon="5.72868">
        <ele>935.02</ele>
        <time>2011-05-05T08:14:29Z</time>
      </trkpt>
      <trkpt lat="44.42598" lon="5.72871">
        <ele>935.98</ele>
        <time>2011-05-05T08:14:35Z</time>
      </trkpt>
      <trkpt lat="44.4259" lon="5.7288">
        <ele>936.46</ele>
        <time>2011-05-05T08:14:54Z</time>
      </trkpt>
      <trkpt lat="44.42589" lon="5.72879">
        <ele>936.46</ele>
        <time>2011-05-05T08:18:12Z</time>
      </trkpt>
      <trkpt lat="44.42588" lon="5.7288">
        <ele>935.98</ele>
        <time>2011-05-05T08:20:19Z</time>
      </trkpt>
      <trkpt lat="44.4259" lon="5.72885">
        <ele>937.42</ele>
        <time>2011-05-05T08:20:31Z</time>
      </trkpt>
      <trkpt lat="44.42591" lon="5.72886">
        <ele>940.79</ele>
        <time>2011-05-05T08:20:48Z</time>
      </trkpt>
      <trkpt lat="44.42591" lon="5.72886">
        <ele>940.79</ele>
        <time>2011-05-05T08:20:54Z</time>
      </trkpt>
      <trkpt lat="44.42591" lon="5.729">
        <ele>944.15</ele>
        <time>2011-05-05T08:21:11Z</time>
      </trkpt>
      <trkpt lat="44.4259" lon="5.72909">
        <ele>945.11</ele>
        <time>2011-05-05T08:21:20Z</time>
      </trkpt>
      <trkpt lat="44.42589" lon="5.72914">
        <ele>946.56</ele>
        <time>2011-05-05T08:21:24Z</time>
      </trkpt>
      <trkpt lat="44.42591" lon="5.72926">
        <ele>948</ele>
        <time>2011-05-05T08:21:38Z</time>
      </trkpt>
      <trkpt lat="44.4259" lon="5.72936">
        <ele>951.84</ele>
        <time>2011-05-05T08:21:55Z</time>
      </trkpt>
      <trkpt lat="44.42589" lon="5.7294">
        <ele>953.28</ele>
        <time>2011-05-05T08:22:05Z</time>
      </trkpt>
      <trkpt lat="44.42587" lon="5.72944">
        <ele>955.21</ele>
        <time>2011-05-05T08:22:09Z</time>
      </trkpt>
      <trkpt lat="44.42584" lon="5.72951">
        <ele>958.09</ele>
        <time>2011-05-05T08:22:27Z</time>
      </trkpt>
      <trkpt lat="44.42584" lon="5.7296">
        <ele>960.01</ele>
        <time>2011-05-05T08:22:42Z</time>
      </trkpt>
      <trkpt lat="44.42584" lon="5.72961">
        <ele>960.98</ele>
        <time>2011-05-05T08:23:22Z</time>
      </trkpt>
      <trkpt lat="44.42584" lon="5.72962">
        <ele>960.98</ele>
        <time>2011-05-05T08:25:37Z</time>
      </trkpt>
      <trkpt lat="44.42585" lon="5.72963">
        <ele>960.98</ele>
        <time>2011-05-05T08:27:08Z</time>
      </trkpt>
      <trkpt lat="44.42585" lon="5.72974">
        <ele>962.42</ele>
        <time>2011-05-05T08:27:20Z</time>
      </trkpt>
      <trkpt lat="44.42586" lon="5.72982">
        <ele>963.38</ele>
        <time>2011-05-05T08:27:27Z</time>
      </trkpt>
      <trkpt lat="44.42588" lon="5.72993">
        <ele>964.82</ele>
        <time>2011-05-05T08:27:39Z</time>
      </trkpt>
      <trkpt lat="44.42588" lon="5.73015">
        <ele>966.74</ele>
        <time>2011-05-05T08:27:59Z</time>
      </trkpt>
      <trkpt lat="44.42588" lon="5.73016">
        <ele>968.67</ele>
        <time>2011-05-05T08:28:03Z</time>
      </trkpt>
      <trkpt lat="44.42588" lon="5.73026">
        <ele>970.11</ele>
        <time>2011-05-05T08:28:17Z</time>
      </trkpt>
      <trkpt lat="44.42588" lon="5.7304">
        <ele>972.03</ele>
        <time>2011-05-05T08:28:32Z</time>
      </trkpt>
      <trkpt lat="44.42586" lon="5.7305">
        <ele>973.95</ele>
        <time>2011-05-05T08:28:45Z</time>
      </trkpt>
      <trkpt lat="44.42586" lon="5.73056">
        <ele>975.88</ele>
        <time>2011-05-05T08:29:03Z</time>
      </trkpt>
      <trkpt lat="44.42586" lon="5.73056">
        <ele>975.39</ele>
        <time>2011-05-05T08:29:04Z</time>
      </trkpt>
      <trkpt lat="44.42584" lon="5.7306">
        <ele>976.36</ele>
        <time>2011-05-05T08:29:16Z</time>
      </trkpt>
      <trkpt lat="44.42579" lon="5.73077">
        <ele>979.72</ele>
        <time>2011-05-05T08:29:33Z</time>
      </trkpt>
      <trkpt lat="44.42579" lon="5.73078">
        <ele>979.24</ele>
        <time>2011-05-05T08:29:34Z</time>
      </trkpt>
      <trkpt lat="44.42578" lon="5.73091">
        <ele>981.16</ele>
        <time>2011-05-05T08:29:50Z</time>
      </trkpt>
      <trkpt lat="44.42579" lon="5.73103">
        <ele>983.09</ele>
        <time>2011-05-05T08:30:04Z</time>
      </trkpt>
      <trkpt lat="44.42581" lon="5.73115">
        <ele>985.01</ele>
        <time>2011-05-05T08:30:19Z</time>
      </trkpt>
      <trkpt lat="44.42582" lon="5.73118">
        <ele>986.45</ele>
        <time>2011-05-05T08:30:22Z</time>
      </trkpt>
      <trkpt lat="44.42583" lon="5.73131">
        <ele>988.37</ele>
        <time>2011-05-05T08:30:37Z</time>
      </trkpt>
      <trkpt lat="44.42584" lon="5.73132">
        <ele>988.37</ele>
        <time>2011-05-05T08:30:38Z</time>
      </trkpt>
      <trkpt lat="44.42585" lon="5.73133">
        <ele>988.85</ele>
        <time>2011-05-05T08:30:57Z</time>
      </trkpt>
      <trkpt lat="44.42585" lon="5.73133">
        <ele>989.33</ele>
        <time>2011-05-05T08:31:03Z</time>
      </trkpt>
      <trkpt lat="44.42587" lon="5.73135">
        <ele>988.37</ele>
        <time>2011-05-05T08:31:10Z</time>
      </trkpt>
      <trkpt lat="44.42588" lon="5.73138">
        <ele>989.81</ele>
        <time>2011-05-05T08:31:13Z</time>
      </trkpt>
      <trkpt lat="44.42592" lon="5.73143">
        <ele>991.26</ele>
        <time>2011-05-05T08:31:23Z</time>
      </trkpt>
      <trkpt lat="44.42597" lon="5.73152">
        <ele>993.18</ele>
        <time>2011-05-05T08:31:37Z</time>
      </trkpt>
      <trkpt lat="44.42603" lon="5.73163">
        <ele>994.14</ele>
        <time>2011-05-05T08:31:54Z</time>
      </trkpt>
      <trkpt lat="44.42604" lon="5.73168">
        <ele>997.02</ele>
        <time>2011-05-05T08:32:03Z</time>
      </trkpt>
      <trkpt lat="44.42606" lon="5.73179">
        <ele>997.99</ele>
        <time>2011-05-05T08:32:19Z</time>
      </trkpt>
      <trkpt lat="44.42609" lon="5.73186">
        <ele>1001.35</ele>
        <time>2011-05-05T08:32:29Z</time>
      </trkpt>
      <trkpt lat="44.4261" lon="5.73186">
        <ele>1001.35</ele>
        <time>2011-05-05T08:32:30Z</time>
      </trkpt>
      <trkpt lat="44.4261" lon="5.73186">
        <ele>1000.39</ele>
        <time>2011-05-05T08:32:31Z</time>
      </trkpt>
      <trkpt lat="44.42612" lon="5.73189">
        <ele>1000.87</ele>
        <time>2011-05-05T08:32:34Z</time>
      </trkpt>
      <trkpt lat="44.42611" lon="5.73201">
        <ele>1003.75</ele>
        <time>2011-05-05T08:32:49Z</time>
      </trkpt>
      <trkpt lat="44.42612" lon="5.73212">
        <ele>1005.68</ele>
        <time>2011-05-05T08:33:04Z</time>
      </trkpt>
      <trkpt lat="44.42612" lon="5.73216">
        <ele>1007.12</ele>
        <time>2011-05-05T08:33:09Z</time>
      </trkpt>
      <trkpt lat="44.42611" lon="5.73224">
        <ele>1008.56</ele>
        <time>2011-05-05T08:33:23Z</time>
      </trkpt>
      <trkpt lat="44.42608" lon="5.73233">
        <ele>1011.44</ele>
        <time>2011-05-05T08:33:36Z</time>
      </trkpt>
      <trkpt lat="44.42605" lon="5.73242">
        <ele>1012.41</ele>
        <time>2011-05-05T08:33:51Z</time>
      </trkpt>
      <trkpt lat="44.426" lon="5.73253">
        <ele>1015.77</ele>
        <time>2011-05-05T08:34:07Z</time>
      </trkpt>
      <trkpt lat="44.426" lon="5.73254">
        <ele>1017.21</ele>
        <time>2011-05-05T08:34:10Z</time>
      </trkpt>
      <trkpt lat="44.42595" lon="5.73262">
        <ele>1019.13</ele>
        <time>2011-05-05T08:34:29Z</time>
      </trkpt>
      <trkpt lat="44.42593" lon="5.73264">
        <ele>1019.13</ele>
        <time>2011-05-05T08:34:39Z</time>
      </trkpt>
      <trkpt lat="44.42593" lon="5.73264">
        <ele>1019.62</ele>
        <time>2011-05-05T08:35:27Z</time>
      </trkpt>
      <trkpt lat="44.42592" lon="5.73265">
        <ele>1017.69</ele>
        <time>2011-05-05T08:35:29Z</time>
      </trkpt>
      <trkpt lat="44.42591" lon="5.73266">
        <ele>1018.65</ele>
        <time>2011-05-05T08:35:57Z</time>
      </trkpt>
      <trkpt lat="44.42591" lon="5.73264">
        <ele>1019.13</ele>
        <time>2011-05-05T08:36:42Z</time>
      </trkpt>
      <trkpt lat="44.42584" lon="5.73267">
        <ele>1019.62</ele>
        <time>2011-05-05T08:37:18Z</time>
      </trkpt>
      <trkpt lat="44.42583" lon="5.73267">
        <ele>1020.1</ele>
        <time>2011-05-05T08:37:21Z</time>
      </trkpt>
      <trkpt lat="44.42568" lon="5.73273">
        <ele>1022.5</ele>
        <time>2011-05-05T08:37:41Z</time>
      </trkpt>
      <trkpt lat="44.42559" lon="5.73281">
        <ele>1025.38</ele>
        <time>2011-05-05T08:37:59Z</time>
      </trkpt>
      <trkpt lat="44.42554" lon="5.73295">
        <ele>1026.34</ele>
        <time>2011-05-05T08:38:16Z</time>
      </trkpt>
      <trkpt lat="44.4255" lon="5.73305">
        <ele>1027.31</ele>
        <time>2011-05-05T08:38:26Z</time>
      </trkpt>
      <trkpt lat="44.42548" lon="5.73322">
        <ele>1029.71</ele>
        <time>2011-05-05T08:38:42Z</time>
      </trkpt>
      <trkpt lat="44.42546" lon="5.73336">
        <ele>1029.71</ele>
        <time>2011-05-05T08:38:57Z</time>
      </trkpt>
      <trkpt lat="44.42545" lon="5.73354">
        <ele>1032.59</ele>
        <time>2011-05-05T08:39:15Z</time>
      </trkpt>
      <trkpt lat="44.42549" lon="5.73369">
        <ele>1033.55</ele>
        <time>2011-05-05T08:39:32Z</time>
      </trkpt>
      <trkpt lat="44.42549" lon="5.73375">
        <ele>1033.55</ele>
        <time>2011-05-05T08:39:37Z</time>
      </trkpt>
      <trkpt lat="44.42549" lon="5.73379">
        <ele>1034.04</ele>
        <time>2011-05-05T08:39:40Z</time>
      </trkpt>
      <trkpt lat="44.42557" lon="5.73397">
        <ele>1035</ele>
        <time>2011-05-05T08:39:55Z</time>
      </trkpt>
      <trkpt lat="44.42561" lon="5.73412">
        <ele>1036.44</ele>
        <time>2011-05-05T08:40:13Z</time>
      </trkpt>
      <trkpt lat="44.42562" lon="5.7342">
        <ele>1035.96</ele>
        <time>2011-05-05T08:40:22Z</time>
      </trkpt>
      <trkpt lat="44.42564" lon="5.7343">
        <ele>1037.4</ele>
        <time>2011-05-05T08:40:30Z</time>
      </trkpt>
      <trkpt lat="44.42567" lon="5.73453">
        <ele>1037.4</ele>
        <time>2011-05-05T08:40:50Z</time>
      </trkpt>
      <trkpt lat="44.42577" lon="5.73463">
        <ele>1039.8</ele>
        <time>2011-05-05T08:41:07Z</time>
      </trkpt>
      <trkpt lat="44.42587" lon="5.73477">
        <ele>1041.25</ele>
        <time>2011-05-05T08:41:28Z</time>
      </trkpt>
      <trkpt lat="44.42595" lon="5.73489">
        <ele>1044.61</ele>
        <time>2011-05-05T08:41:49Z</time>
      </trkpt>
      <trkpt lat="44.42596" lon="5.73499">
        <ele>1045.09</ele>
        <time>2011-05-05T08:41:58Z</time>
      </trkpt>
      <trkpt lat="44.42597" lon="5.73514">
        <ele>1046.53</ele>
        <time>2011-05-05T08:42:15Z</time>
      </trkpt>
      <trkpt lat="44.42597" lon="5.73519">
        <ele>1046.53</ele>
        <time>2011-05-05T08:42:21Z</time>
      </trkpt>
      <trkpt lat="44.42597" lon="5.73521">
        <ele>1046.53</ele>
        <time>2011-05-05T08:42:25Z</time>
      </trkpt>
      <trkpt lat="44.4259" lon="5.73532">
        <ele>1046.53</ele>
        <time>2011-05-05T08:42:41Z</time>
      </trkpt>
      <trkpt lat="44.42589" lon="5.73533">
        <ele>1047.49</ele>
        <time>2011-05-05T08:42:43Z</time>
      </trkpt>
      <trkpt lat="44.4258" lon="5.73542">
        <ele>1049.9</ele>
        <time>2011-05-05T08:43:05Z</time>
      </trkpt>
      <trkpt lat="44.42579" lon="5.73543">
        <ele>1049.9</ele>
        <time>2011-05-05T08:43:07Z</time>
      </trkpt>
      <trkpt lat="44.42576" lon="5.73546">
        <ele>1052.3</ele>
        <time>2011-05-05T08:43:15Z</time>
      </trkpt>
      <trkpt lat="44.42575" lon="5.73545">
        <ele>1051.34</ele>
        <time>2011-05-05T08:43:21Z</time>
      </trkpt>
      <trkpt lat="44.42572" lon="5.73547">
        <ele>1052.3</ele>
        <time>2011-05-05T08:43:23Z</time>
      </trkpt>
      <trkpt lat="44.42571" lon="5.7355">
        <ele>1055.18</ele>
        <time>2011-05-05T08:43:36Z</time>
      </trkpt>
      <trkpt lat="44.42574" lon="5.73561">
        <ele>1058.55</ele>
        <time>2011-05-05T08:43:58Z</time>
      </trkpt>
      <trkpt lat="44.42574" lon="5.73562">
        <ele>1058.07</ele>
        <time>2011-05-05T08:44:01Z</time>
      </trkpt>
      <trkpt lat="44.42573" lon="5.7357">
        <ele>1061.43</ele>
        <time>2011-05-05T08:44:18Z</time>
      </trkpt>
      <trkpt lat="44.42572" lon="5.73572">
        <ele>1062.39</ele>
        <time>2011-05-05T08:44:26Z</time>
      </trkpt>
      <trkpt lat="44.42572" lon="5.73575">
        <ele>1062.87</ele>
        <time>2011-05-05T08:44:30Z</time>
      </trkpt>
      <trkpt lat="44.42575" lon="5.7359">
        <ele>1064.8</ele>
        <time>2011-05-05T08:44:49Z</time>
      </trkpt>
      <trkpt lat="44.42577" lon="5.73593">
        <ele>1065.76</ele>
        <time>2011-05-05T08:44:52Z</time>
      </trkpt>
      <trkpt lat="44.42573" lon="5.73604">
        <ele>1068.16</ele>
        <time>2011-05-05T08:45:11Z</time>
      </trkpt>
      <trkpt lat="44.42574" lon="5.73609">
        <ele>1069.6</ele>
        <time>2011-05-05T08:45:21Z</time>
      </trkpt>
      <trkpt lat="44.42575" lon="5.73615">
        <ele>1071.05</ele>
        <time>2011-05-05T08:45:27Z</time>
      </trkpt>
      <trkpt lat="44.42579" lon="5.73618">
        <ele>1071.53</ele>
        <time>2011-05-05T08:45:56Z</time>
      </trkpt>
      <trkpt lat="44.42579" lon="5.73618">
        <ele>1071.53</ele>
        <time>2011-05-05T08:47:16Z</time>
      </trkpt>
      <trkpt lat="44.4258" lon="5.73613">
        <ele>1070.57</ele>
        <time>2011-05-05T08:48:14Z</time>
      </trkpt>
      <trkpt lat="44.4258" lon="5.73613">
        <ele>1071.53</ele>
        <time>2011-05-05T08:48:39Z</time>
      </trkpt>
      <trkpt lat="44.42576" lon="5.73617">
        <ele>1072.49</ele>
        <time>2011-05-05T08:49:37Z</time>
      </trkpt>
      <trkpt lat="44.42575" lon="5.7362">
        <ele>1072.49</ele>
        <time>2011-05-05T08:49:47Z</time>
      </trkpt>
      <trkpt lat="44.42579" lon="5.73629">
        <ele>1075.37</ele>
        <time>2011-05-05T08:50:00Z</time>
      </trkpt>
      <trkpt lat="44.42574" lon="5.73637">
        <ele>1076.33</ele>
        <time>2011-05-05T08:50:15Z</time>
      </trkpt>
      <trkpt lat="44.42569" lon="5.73649">
        <ele>1079.22</ele>
        <time>2011-05-05T08:50:32Z</time>
      </trkpt>
      <trkpt lat="44.42569" lon="5.73651">
        <ele>1079.22</ele>
        <time>2011-05-05T08:50:37Z</time>
      </trkpt>
      <trkpt lat="44.42569" lon="5.73654">
        <ele>1081.14</ele>
        <time>2011-05-05T08:50:45Z</time>
      </trkpt>
      <trkpt lat="44.42569" lon="5.73655">
        <ele>1081.62</ele>
        <time>2011-05-05T08:50:49Z</time>
      </trkpt>
      <trkpt lat="44.4257" lon="5.73666">
        <ele>1082.58</ele>
        <time>2011-05-05T08:50:58Z</time>
      </trkpt>
      <trkpt lat="44.42569" lon="5.73681">
        <ele>1084.5</ele>
        <time>2011-05-05T08:51:20Z</time>
      </trkpt>
      <trkpt lat="44.42569" lon="5.73683">
        <ele>1085.47</ele>
        <time>2011-05-05T08:51:27Z</time>
      </trkpt>
      <trkpt lat="44.42569" lon="5.73691">
        <ele>1086.43</ele>
        <time>2011-05-05T08:51:37Z</time>
      </trkpt>
      <trkpt lat="44.42569" lon="5.737">
        <ele>1089.31</ele>
        <time>2011-05-05T08:51:49Z</time>
      </trkpt>
      <trkpt lat="44.4257" lon="5.73704">
        <ele>1089.31</ele>
        <time>2011-05-05T08:51:52Z</time>
      </trkpt>
      <trkpt lat="44.42574" lon="5.73721">
        <ele>1090.27</ele>
        <time>2011-05-05T08:52:13Z</time>
      </trkpt>
      <trkpt lat="44.42574" lon="5.73725">
        <ele>1092.2</ele>
        <time>2011-05-05T08:52:32Z</time>
      </trkpt>
      <trkpt lat="44.42574" lon="5.7373">
        <ele>1093.64</ele>
        <time>2011-05-05T08:52:41Z</time>
      </trkpt>
      <trkpt lat="44.42575" lon="5.73738">
        <ele>1093.64</ele>
        <time>2011-05-05T08:52:50Z</time>
      </trkpt>
      <trkpt lat="44.42575" lon="5.7374">
        <ele>1094.12</ele>
        <time>2011-05-05T08:52:54Z</time>
      </trkpt>
      <trkpt lat="44.42587" lon="5.73767">
        <ele>1097</ele>
        <time>2011-05-05T08:53:19Z</time>
      </trkpt>
      <trkpt lat="44.42589" lon="5.73774">
        <ele>1098.44</ele>
        <time>2011-05-05T08:53:36Z</time>
      </trkpt>
      <trkpt lat="44.42589" lon="5.73774">
        <ele>1098.44</ele>
        <time>2011-05-05T08:53:39Z</time>
      </trkpt>
      <trkpt lat="44.42585" lon="5.73795">
        <ele>1101.33</ele>
        <time>2011-05-05T08:53:56Z</time>
      </trkpt>
      <trkpt lat="44.42592" lon="5.73809">
        <ele>1102.77</ele>
        <time>2011-05-05T08:54:11Z</time>
      </trkpt>
      <trkpt lat="44.4259" lon="5.73813">
        <ele>1103.25</ele>
        <time>2011-05-05T08:54:14Z</time>
      </trkpt>
      <trkpt lat="44.42584" lon="5.73816">
        <ele>1103.25</ele>
        <time>2011-05-05T08:54:24Z</time>
      </trkpt>
      <trkpt lat="44.42582" lon="5.73823">
        <ele>1103.73</ele>
        <time>2011-05-05T08:54:32Z</time>
      </trkpt>
      <trkpt lat="44.42585" lon="5.73826">
        <ele>1104.69</ele>
        <time>2011-05-05T08:54:39Z</time>
      </trkpt>
      <trkpt lat="44.42589" lon="5.73827">
        <ele>1105.65</ele>
        <time>2011-05-05T08:55:15Z</time>
      </trkpt>
      <trkpt lat="44.4259" lon="5.7384">
        <ele>1107.58</ele>
        <time>2011-05-05T08:55:48Z</time>
      </trkpt>
      <trkpt lat="44.42595" lon="5.73849">
        <ele>1108.54</ele>
        <time>2011-05-05T08:55:53Z</time>
      </trkpt>
      <trkpt lat="44.42599" lon="5.73857">
        <ele>1108.54</ele>
        <time>2011-05-05T08:56:00Z</time>
      </trkpt>
      <trkpt lat="44.426" lon="5.73869">
        <ele>1109.98</ele>
        <time>2011-05-05T08:56:18Z</time>
      </trkpt>
      <trkpt lat="44.426" lon="5.73873">
        <ele>1110.46</ele>
        <time>2011-05-05T08:56:21Z</time>
      </trkpt>
      <trkpt lat="44.42602" lon="5.7388">
        <ele>1110.94</ele>
        <time>2011-05-05T08:56:27Z</time>
      </trkpt>
      <trkpt lat="44.42607" lon="5.7389">
        <ele>1110.94</ele>
        <time>2011-05-05T08:56:40Z</time>
      </trkpt>
      <trkpt lat="44.4261" lon="5.73893">
        <ele>1111.9</ele>
        <time>2011-05-05T08:56:45Z</time>
      </trkpt>
      <trkpt lat="44.42613" lon="5.739">
        <ele>1110.94</ele>
        <time>2011-05-05T08:56:52Z</time>
      </trkpt>
      <trkpt lat="44.42614" lon="5.73901">
        <ele>1111.9</ele>
        <time>2011-05-05T08:56:54Z</time>
      </trkpt>
      <trkpt lat="44.42615" lon="5.73904">
        <ele>1112.86</ele>
        <time>2011-05-05T08:57:04Z</time>
      </trkpt>
      <trkpt lat="44.42619" lon="5.7392">
        <ele>1113.34</ele>
        <time>2011-05-05T08:57:14Z</time>
      </trkpt>
      <trkpt lat="44.42619" lon="5.73924">
        <ele>1114.31</ele>
        <time>2011-05-05T08:57:18Z</time>
      </trkpt>
      <trkpt lat="44.42615" lon="5.73935">
        <ele>1117.19</ele>
        <time>2011-05-05T08:57:37Z</time>
      </trkpt>
      <trkpt lat="44.42616" lon="5.73938">
        <ele>1117.19</ele>
        <time>2011-05-05T08:57:39Z</time>
      </trkpt>
      <trkpt lat="44.42617" lon="5.73945">
        <ele>1118.63</ele>
        <time>2011-05-05T08:57:50Z</time>
      </trkpt>
      <trkpt lat="44.42614" lon="5.73956">
        <ele>1120.55</ele>
        <time>2011-05-05T08:58:02Z</time>
      </trkpt>
      <trkpt lat="44.42616" lon="5.7397">
        <ele>1122.48</ele>
        <time>2011-05-05T08:58:18Z</time>
      </trkpt>
      <trkpt lat="44.42616" lon="5.73974">
        <ele>1123.44</ele>
        <time>2011-05-05T08:58:27Z</time>
      </trkpt>
      <trkpt lat="44.42614" lon="5.73981">
        <ele>1124.4</ele>
        <time>2011-05-05T08:58:35Z</time>
      </trkpt>
      <trkpt lat="44.4261" lon="5.73991">
        <ele>1126.8</ele>
        <time>2011-05-05T08:58:50Z</time>
      </trkpt>
      <trkpt lat="44.42608" lon="5.73995">
        <ele>1127.28</ele>
        <time>2011-05-05T08:58:57Z</time>
      </trkpt>
      <trkpt lat="44.42606" lon="5.74003">
        <ele>1128.73</ele>
        <time>2011-05-05T08:59:08Z</time>
      </trkpt>
      <trkpt lat="44.42605" lon="5.7401">
        <ele>1133.53</ele>
        <time>2011-05-05T08:59:35Z</time>
      </trkpt>
      <trkpt lat="44.42605" lon="5.74012">
        <ele>1133.53</ele>
        <time>2011-05-05T08:59:42Z</time>
      </trkpt>
      <trkpt lat="44.42606" lon="5.74013">
        <ele>1135.45</ele>
        <time>2011-05-05T08:59:50Z</time>
      </trkpt>
      <trkpt lat="44.42608" lon="5.74017">
        <ele>1136.9</ele>
        <time>2011-05-05T09:00:04Z</time>
      </trkpt>
      <trkpt lat="44.4261" lon="5.74023">
        <ele>1136.9</ele>
        <time>2011-05-05T09:00:08Z</time>
      </trkpt>
      <trkpt lat="44.4261" lon="5.74028">
        <ele>1137.38</ele>
        <time>2011-05-05T09:01:09Z</time>
      </trkpt>
      <trkpt lat="44.42609" lon="5.7403">
        <ele>1138.34</ele>
        <time>2011-05-05T09:01:56Z</time>
      </trkpt>
      <trkpt lat="44.42604" lon="5.74037">
        <ele>1141.7</ele>
        <time>2011-05-05T09:02:15Z</time>
      </trkpt>
      <trkpt lat="44.42604" lon="5.74037">
        <ele>1142.18</ele>
        <time>2011-05-05T09:02:23Z</time>
      </trkpt>
      <trkpt lat="44.42602" lon="5.74039">
        <ele>1145.07</ele>
        <time>2011-05-05T09:02:34Z</time>
      </trkpt>
      <trkpt lat="44.42582" lon="5.74062">
        <ele>1149.39</ele>
        <time>2011-05-05T09:02:52Z</time>
      </trkpt>
      <trkpt lat="44.42579" lon="5.74065">
        <ele>1148.43</ele>
        <time>2011-05-05T09:02:54Z</time>
      </trkpt>
      <trkpt lat="44.42576" lon="5.74081">
        <ele>1150.84</ele>
        <time>2011-05-05T09:03:10Z</time>
      </trkpt>
      <trkpt lat="44.42562" lon="5.74084">
        <ele>1150.84</ele>
        <time>2011-05-05T09:03:30Z</time>
      </trkpt>
      <trkpt lat="44.42555" lon="5.74087">
        <ele>1149.87</ele>
        <time>2011-05-05T09:03:42Z</time>
      </trkpt>
      <trkpt lat="44.42554" lon="5.74088">
        <ele>1149.39</ele>
        <time>2011-05-05T09:03:45Z</time>
      </trkpt>
      <trkpt lat="44.42542" lon="5.74106">
        <ele>1150.35</ele>
        <time>2011-05-05T09:04:07Z</time>
      </trkpt>
      <trkpt lat="44.42531" lon="5.74114">
        <ele>1150.35</ele>
        <time>2011-05-05T09:04:24Z</time>
      </trkpt>
      <trkpt lat="44.42521" lon="5.74126">
        <ele>1149.39</ele>
        <time>2011-05-05T09:04:42Z</time>
      </trkpt>
      <trkpt lat="44.42517" lon="5.7413">
        <ele>1150.35</ele>
        <time>2011-05-05T09:05:05Z</time>
      </trkpt>
      <trkpt lat="44.42517" lon="5.7413">
        <ele>1148.43</ele>
        <time>2011-05-05T09:05:17Z</time>
      </trkpt>
      <trkpt lat="44.42516" lon="5.74135">
        <ele>1150.35</ele>
        <time>2011-05-05T09:06:47Z</time>
      </trkpt>
      <trkpt lat="44.42515" lon="5.7414">
        <ele>1150.84</ele>
        <time>2011-05-05T09:06:51Z</time>
      </trkpt>
      <trkpt lat="44.42515" lon="5.74146">
        <ele>1152.28</ele>
        <time>2011-05-05T09:06:56Z</time>
      </trkpt>
      <trkpt lat="44.42514" lon="5.74163">
        <ele>1155.64</ele>
        <time>2011-05-05T09:07:15Z</time>
      </trkpt>
      <trkpt lat="44.42514" lon="5.74173">
        <ele>1157.56</ele>
        <time>2011-05-05T09:07:27Z</time>
      </trkpt>
      <trkpt lat="44.42515" lon="5.74184">
        <ele>1160.45</ele>
        <time>2011-05-05T09:07:44Z</time>
      </trkpt>
      <trkpt lat="44.42514" lon="5.74192">
        <ele>1161.89</ele>
        <time>2011-05-05T09:07:53Z</time>
      </trkpt>
      <trkpt lat="44.42514" lon="5.74202">
        <ele>1163.81</ele>
        <time>2011-05-05T09:08:07Z</time>
      </trkpt>
      <trkpt lat="44.42516" lon="5.74219">
        <ele>1167.18</ele>
        <time>2011-05-05T09:08:25Z</time>
      </trkpt>
      <trkpt lat="44.42517" lon="5.74233">
        <ele>1169.1</ele>
        <time>2011-05-05T09:08:42Z</time>
      </trkpt>
      <trkpt lat="44.42515" lon="5.74236">
        <ele>1169.1</ele>
        <time>2011-05-05T09:08:45Z</time>
      </trkpt>
      <trkpt lat="44.42517" lon="5.74253">
        <ele>1170.54</ele>
        <time>2011-05-05T09:09:05Z</time>
      </trkpt>
      <trkpt lat="44.42517" lon="5.74256">
        <ele>1170.54</ele>
        <time>2011-05-05T09:09:07Z</time>
      </trkpt>
      <trkpt lat="44.42518" lon="5.74264">
        <ele>1172.95</ele>
        <time>2011-05-05T09:09:18Z</time>
      </trkpt>
      <trkpt lat="44.42519" lon="5.74276">
        <ele>1173.91</ele>
        <time>2011-05-05T09:09:33Z</time>
      </trkpt>
      <trkpt lat="44.42522" lon="5.74289">
        <ele>1176.79</ele>
        <time>2011-05-05T09:09:50Z</time>
      </trkpt>
      <trkpt lat="44.42525" lon="5.74294">
        <ele>1178.23</ele>
        <time>2011-05-05T09:10:04Z</time>
      </trkpt>
      <trkpt lat="44.42525" lon="5.74295">
        <ele>1178.71</ele>
        <time>2011-05-05T09:10:34Z</time>
      </trkpt>
      <trkpt lat="44.42525" lon="5.74295">
        <ele>1177.75</ele>
        <time>2011-05-05T09:10:49Z</time>
      </trkpt>
      <trkpt lat="44.42525" lon="5.74294">
        <ele>1178.23</ele>
        <time>2011-05-05T09:12:08Z</time>
      </trkpt>
      <trkpt lat="44.42529" lon="5.74297">
        <ele>1178.71</ele>
        <time>2011-05-05T09:12:45Z</time>
      </trkpt>
      <trkpt lat="44.42529" lon="5.74297">
        <ele>1178.71</ele>
        <time>2011-05-05T09:12:49Z</time>
      </trkpt>
      <trkpt lat="44.42526" lon="5.74291">
        <ele>1179.67</ele>
        <time>2011-05-05T09:13:12Z</time>
      </trkpt>
      <trkpt lat="44.42526" lon="5.74301">
        <ele>1180.16</ele>
        <time>2011-05-05T09:13:20Z</time>
      </trkpt>
      <trkpt lat="44.42528" lon="5.74317">
        <ele>1181.6</ele>
        <time>2011-05-05T09:13:36Z</time>
      </trkpt>
      <trkpt lat="44.42533" lon="5.74324">
        <ele>1182.56</ele>
        <time>2011-05-05T09:13:53Z</time>
      </trkpt>
      <trkpt lat="44.42542" lon="5.74328">
        <ele>1182.56</ele>
        <time>2011-05-05T09:14:28Z</time>
      </trkpt>
      <trkpt lat="44.42542" lon="5.74328">
        <ele>1182.56</ele>
        <time>2011-05-05T09:14:31Z</time>
      </trkpt>
      <trkpt lat="44.42547" lon="5.74333">
        <ele>1182.08</ele>
        <time>2011-05-05T09:14:39Z</time>
      </trkpt>
      <trkpt lat="44.42549" lon="5.74333">
        <ele>1183.52</ele>
        <time>2011-05-05T09:14:41Z</time>
      </trkpt>
      <trkpt lat="44.42553" lon="5.74339">
        <ele>1183.52</ele>
        <time>2011-05-05T09:14:56Z</time>
      </trkpt>
      <trkpt lat="44.42558" lon="5.74352">
        <ele>1183.52</ele>
        <time>2011-05-05T09:15:09Z</time>
      </trkpt>
      <trkpt lat="44.42556" lon="5.74358">
        <ele>1184</ele>
        <time>2011-05-05T09:15:16Z</time>
      </trkpt>
      <trkpt lat="44.42551" lon="5.74369">
        <ele>1185.44</ele>
        <time>2011-05-05T09:15:33Z</time>
      </trkpt>
      <trkpt lat="44.42546" lon="5.74384">
        <ele>1186.4</ele>
        <time>2011-05-05T09:15:49Z</time>
      </trkpt>
      <trkpt lat="44.42544" lon="5.74394">
        <ele>1186.4</ele>
        <time>2011-05-05T09:16:00Z</time>
      </trkpt>
      <trkpt lat="44.42542" lon="5.74407">
        <ele>1186.4</ele>
        <time>2011-05-05T09:16:14Z</time>
      </trkpt>
      <trkpt lat="44.42533" lon="5.74431">
        <ele>1184.96</ele>
        <time>2011-05-05T09:16:37Z</time>
      </trkpt>
      <trkpt lat="44.4253" lon="5.7444">
        <ele>1184.96</ele>
        <time>2011-05-05T09:16:45Z</time>
      </trkpt>
      <trkpt lat="44.42533" lon="5.74451">
        <ele>1187.85</ele>
        <time>2011-05-05T09:17:03Z</time>
      </trkpt>
      <trkpt lat="44.42532" lon="5.7446">
        <ele>1190.25</ele>
        <time>2011-05-05T09:17:21Z</time>
      </trkpt>
      <trkpt lat="44.42531" lon="5.74464">
        <ele>1191.69</ele>
        <time>2011-05-05T09:17:26Z</time>
      </trkpt>
      <trkpt lat="44.42535" lon="5.74472">
        <ele>1193.13</ele>
        <time>2011-05-05T09:17:41Z</time>
      </trkpt>
      <trkpt lat="44.42536" lon="5.74475">
        <ele>1195.54</ele>
        <time>2011-05-05T09:17:52Z</time>
      </trkpt>
      <trkpt lat="44.42536" lon="5.74488">
        <ele>1198.42</ele>
        <time>2011-05-05T09:18:09Z</time>
      </trkpt>
      <trkpt lat="44.42537" lon="5.74491">
        <ele>1198.9</ele>
        <time>2011-05-05T09:18:13Z</time>
      </trkpt>
      <trkpt lat="44.42538" lon="5.74495">
        <ele>1199.86</ele>
        <time>2011-05-05T09:18:18Z</time>
      </trkpt>
      <trkpt lat="44.42537" lon="5.74506">
        <ele>1201.79</ele>
        <time>2011-05-05T09:18:36Z</time>
      </trkpt>
      <trkpt lat="44.42542" lon="5.74509">
        <ele>1205.15</ele>
        <time>2011-05-05T09:19:03Z</time>
      </trkpt>
      <trkpt lat="44.42547" lon="5.74511">
        <ele>1207.07</ele>
        <time>2011-05-05T09:19:21Z</time>
      </trkpt>
      <trkpt lat="44.42547" lon="5.74512">
        <ele>1209.96</ele>
        <time>2011-05-05T09:19:32Z</time>
      </trkpt>
      <trkpt lat="44.42547" lon="5.74512">
        <ele>1213.32</ele>
        <time>2011-05-05T09:19:54Z</time>
      </trkpt>
      <trkpt lat="44.42548" lon="5.74513">
        <ele>1214.28</ele>
        <time>2011-05-05T09:20:32Z</time>
      </trkpt>
      <trkpt lat="44.42548" lon="5.74514">
        <ele>1215.24</ele>
        <time>2011-05-05T09:22:04Z</time>
      </trkpt>
      <trkpt lat="44.42548" lon="5.74514">
        <ele>1215.24</ele>
        <time>2011-05-05T09:22:40Z</time>
      </trkpt>
      <trkpt lat="44.42551" lon="5.74519">
        <ele>1215.72</ele>
        <time>2011-05-05T09:22:59Z</time>
      </trkpt>
      <trkpt lat="44.42551" lon="5.74519">
        <ele>1214.28</ele>
        <time>2011-05-05T09:23:05Z</time>
      </trkpt>
      <trkpt lat="44.42551" lon="5.74519">
        <ele>1215.24</ele>
        <time>2011-05-05T09:23:12Z</time>
      </trkpt>
      <trkpt lat="44.42554" lon="5.74524">
        <ele>1214.76</ele>
        <time>2011-05-05T09:23:25Z</time>
      </trkpt>
      <trkpt lat="44.42563" lon="5.7454">
        <ele>1217.17</ele>
        <time>2011-05-05T09:23:44Z</time>
      </trkpt>
      <trkpt lat="44.42563" lon="5.74541">
        <ele>1218.61</ele>
        <time>2011-05-05T09:24:53Z</time>
      </trkpt>
      <trkpt lat="44.42563" lon="5.7454">
        <ele>1218.13</ele>
        <time>2011-05-05T09:25:05Z</time>
      </trkpt>
      <trkpt lat="44.42563" lon="5.7454">
        <ele>1217.65</ele>
        <time>2011-05-05T09:25:17Z</time>
      </trkpt>
      <trkpt lat="44.42563" lon="5.7454">
        <ele>1216.69</ele>
        <time>2011-05-05T09:25:20Z</time>
      </trkpt>
      <trkpt lat="44.42563" lon="5.74551">
        <ele>1215.24</ele>
        <time>2011-05-05T09:25:43Z</time>
      </trkpt>
      <trkpt lat="44.42563" lon="5.74551">
        <ele>1214.28</ele>
        <time>2011-05-05T09:25:46Z</time>
      </trkpt>
      <trkpt lat="44.42563" lon="5.74556">
        <ele>1213.32</ele>
        <time>2011-05-05T09:25:56Z</time>
      </trkpt>
      <trkpt lat="44.42561" lon="5.74566">
        <ele>1211.4</ele>
        <time>2011-05-05T09:26:10Z</time>
      </trkpt>
      <trkpt lat="44.42559" lon="5.74571">
        <ele>1208.03</ele>
        <time>2011-05-05T09:26:18Z</time>
      </trkpt>
      <trkpt lat="44.42558" lon="5.74585">
        <ele>1211.88</ele>
        <time>2011-05-05T09:26:33Z</time>
      </trkpt>
      <trkpt lat="44.42557" lon="5.74587">
        <ele>1209</ele>
        <time>2011-05-05T09:26:35Z</time>
      </trkpt>
      <trkpt lat="44.42556" lon="5.74588">
        <ele>1209</ele>
        <time>2011-05-05T09:26:36Z</time>
      </trkpt>
      <trkpt lat="44.42556" lon="5.74588">
        <ele>1209.48</ele>
        <time>2011-05-05T09:26:37Z</time>
      </trkpt>
      <trkpt lat="44.42554" lon="5.74604">
        <ele>1207.55</ele>
        <time>2011-05-05T09:26:54Z</time>
      </trkpt>
      <trkpt lat="44.42552" lon="5.74614">
        <ele>1204.67</ele>
        <time>2011-05-05T09:27:12Z</time>
      </trkpt>
      <trkpt lat="44.42551" lon="5.74619">
        <ele>1206.11</ele>
        <time>2011-05-05T09:27:20Z</time>
      </trkpt>
      <trkpt lat="44.42548" lon="5.74625">
        <ele>1203.23</ele>
        <time>2011-05-05T09:27:31Z</time>
      </trkpt>
      <trkpt lat="44.42549" lon="5.7463">
        <ele>1205.15</ele>
        <time>2011-05-05T09:27:41Z</time>
      </trkpt>
      <trkpt lat="44.42552" lon="5.74636">
        <ele>1207.07</ele>
        <time>2011-05-05T09:27:49Z</time>
      </trkpt>
      <trkpt lat="44.42555" lon="5.74641">
        <ele>1209.96</ele>
        <time>2011-05-05T09:28:03Z</time>
      </trkpt>
      <trkpt lat="44.42559" lon="5.74638">
        <ele>1211.4</ele>
        <time>2011-05-05T09:28:18Z</time>
      </trkpt>
      <trkpt lat="44.4256" lon="5.74639">
        <ele>1211.4</ele>
        <time>2011-05-05T09:28:20Z</time>
      </trkpt>
      <trkpt lat="44.42563" lon="5.74648">
        <ele>1214.76</ele>
        <time>2011-05-05T09:28:37Z</time>
      </trkpt>
      <trkpt lat="44.42564" lon="5.74652">
        <ele>1215.72</ele>
        <time>2011-05-05T09:28:45Z</time>
      </trkpt>
      <trkpt lat="44.42567" lon="5.74656">
        <ele>1217.17</ele>
        <time>2011-05-05T09:29:00Z</time>
      </trkpt>
      <trkpt lat="44.42568" lon="5.74658">
        <ele>1220.53</ele>
        <time>2011-05-05T09:29:17Z</time>
      </trkpt>
      <trkpt lat="44.42569" lon="5.74659">
        <ele>1216.21</ele>
        <time>2011-05-05T09:29:55Z</time>
      </trkpt>
      <trkpt lat="44.42569" lon="5.74659">
        <ele>1220.53</ele>
        <time>2011-05-05T09:29:56Z</time>
      </trkpt>
      <trkpt lat="44.4257" lon="5.7466">
        <ele>1217.17</ele>
        <time>2011-05-05T09:30:02Z</time>
      </trkpt>
      <trkpt lat="44.4257" lon="5.7466">
        <ele>1220.53</ele>
        <time>2011-05-05T09:30:12Z</time>
      </trkpt>
      <trkpt lat="44.4257" lon="5.7466">
        <ele>1220.05</ele>
        <time>2011-05-05T09:31:16Z</time>
      </trkpt>
      <trkpt lat="44.4257" lon="5.7466">
        <ele>1218.61</ele>
        <time>2011-05-05T09:33:53Z</time>
      </trkpt>
      <trkpt lat="44.42569" lon="5.74669">
        <ele>1217.65</ele>
        <time>2011-05-05T09:35:17Z</time>
      </trkpt>
      <trkpt lat="44.42572" lon="5.74676">
        <ele>1214.76</ele>
        <time>2011-05-05T09:35:29Z</time>
      </trkpt>
      <trkpt lat="44.42572" lon="5.74676">
        <ele>1214.76</ele>
        <time>2011-05-05T09:35:30Z</time>
      </trkpt>
      <trkpt lat="44.42569" lon="5.74683">
        <ele>1211.4</ele>
        <time>2011-05-05T09:35:48Z</time>
      </trkpt>
      <trkpt lat="44.42571" lon="5.74689">
        <ele>1209.48</ele>
        <time>2011-05-05T09:36:02Z</time>
      </trkpt>
      <trkpt lat="44.42575" lon="5.74692">
        <ele>1209</ele>
        <time>2011-05-05T09:36:10Z</time>
      </trkpt>
      <trkpt lat="44.42581" lon="5.74697">
        <ele>1207.55</ele>
        <time>2011-05-05T09:36:27Z</time>
      </trkpt>
      <trkpt lat="44.42581" lon="5.74698">
        <ele>1206.59</ele>
        <time>2011-05-05T09:36:38Z</time>
      </trkpt>
      <trkpt lat="44.42581" lon="5.747">
        <ele>1204.67</ele>
        <time>2011-05-05T09:36:47Z</time>
      </trkpt>
      <trkpt lat="44.42579" lon="5.74701">
        <ele>1202.75</ele>
        <time>2011-05-05T09:36:59Z</time>
      </trkpt>
      <trkpt lat="44.42576" lon="5.74703">
        <ele>1200.82</ele>
        <time>2011-05-05T09:37:02Z</time>
      </trkpt>
      <trkpt lat="44.42576" lon="5.74703">
        <ele>1201.3</ele>
        <time>2011-05-05T09:37:04Z</time>
      </trkpt>
      <trkpt lat="44.42574" lon="5.74703">
        <ele>1199.38</ele>
        <time>2011-05-05T09:37:13Z</time>
      </trkpt>
      <trkpt lat="44.42572" lon="5.74714">
        <ele>1196.98</ele>
        <time>2011-05-05T09:37:31Z</time>
      </trkpt>
      <trkpt lat="44.42577" lon="5.74725">
        <ele>1194.58</ele>
        <time>2011-05-05T09:37:45Z</time>
      </trkpt>
      <trkpt lat="44.42577" lon="5.74726">
        <ele>1191.21</ele>
        <time>2011-05-05T09:38:02Z</time>
      </trkpt>
      <trkpt lat="44.42576" lon="5.74735">
        <ele>1188.81</ele>
        <time>2011-05-05T09:38:19Z</time>
      </trkpt>
      <trkpt lat="44.42578" lon="5.74741">
        <ele>1187.37</ele>
        <time>2011-05-05T09:38:29Z</time>
      </trkpt>
      <trkpt lat="44.42578" lon="5.74743">
        <ele>1186.88</ele>
        <time>2011-05-05T09:38:34Z</time>
      </trkpt>
      <trkpt lat="44.42578" lon="5.74746">
        <ele>1184.48</ele>
        <time>2011-05-05T09:38:54Z</time>
      </trkpt>
      <trkpt lat="44.42576" lon="5.74747">
        <ele>1181.12</ele>
        <time>2011-05-05T09:39:07Z</time>
      </trkpt>
      <trkpt lat="44.42572" lon="5.74749">
        <ele>1179.67</ele>
        <time>2011-05-05T09:39:23Z</time>
      </trkpt>
      <trkpt lat="44.42566" lon="5.74753">
        <ele>1178.23</ele>
        <time>2011-05-05T09:39:56Z</time>
      </trkpt>
      <trkpt lat="44.42566" lon="5.74753">
        <ele>1177.75</ele>
        <time>2011-05-05T09:40:06Z</time>
      </trkpt>
      <trkpt lat="44.42557" lon="5.74756">
        <ele>1174.87</ele>
        <time>2011-05-05T09:40:22Z</time>
      </trkpt>
      <trkpt lat="44.42556" lon="5.74764">
        <ele>1171.5</ele>
        <time>2011-05-05T09:40:32Z</time>
      </trkpt>
      <trkpt lat="44.42551" lon="5.74771">
        <ele>1169.58</ele>
        <time>2011-05-05T09:40:47Z</time>
      </trkpt>
      <trkpt lat="44.42553" lon="5.74774">
        <ele>1167.18</ele>
        <time>2011-05-05T09:41:00Z</time>
      </trkpt>
      <trkpt lat="44.42564" lon="5.74779">
        <ele>1165.74</ele>
        <time>2011-05-05T09:41:15Z</time>
      </trkpt>
      <trkpt lat="44.42567" lon="5.74782">
        <ele>1164.29</ele>
        <time>2011-05-05T09:41:21Z</time>
      </trkpt>
      <trkpt lat="44.42568" lon="5.74785">
        <ele>1161.41</ele>
        <time>2011-05-05T09:41:34Z</time>
      </trkpt>
      <trkpt lat="44.42558" lon="5.7479">
        <ele>1159.97</ele>
        <time>2011-05-05T09:41:48Z</time>
      </trkpt>
      <trkpt lat="44.42549" lon="5.74792">
        <ele>1157.08</ele>
        <time>2011-05-05T09:42:02Z</time>
      </trkpt>
      <trkpt lat="44.42558" lon="5.74801">
        <ele>1154.68</ele>
        <time>2011-05-05T09:42:16Z</time>
      </trkpt>
      <trkpt lat="44.42559" lon="5.74805">
        <ele>1154.2</ele>
        <time>2011-05-05T09:42:20Z</time>
      </trkpt>
      <trkpt lat="44.42551" lon="5.74804">
        <ele>1151.8</ele>
        <time>2011-05-05T09:42:34Z</time>
      </trkpt>
      <trkpt lat="44.42556" lon="5.74817">
        <ele>1149.87</ele>
        <time>2011-05-05T09:42:48Z</time>
      </trkpt>
      <trkpt lat="44.42556" lon="5.74819">
        <ele>1146.51</ele>
        <time>2011-05-05T09:43:01Z</time>
      </trkpt>
      <trkpt lat="44.42556" lon="5.74821">
        <ele>1146.03</ele>
        <time>2011-05-05T09:43:06Z</time>
      </trkpt>
      <trkpt lat="44.42558" lon="5.74829">
        <ele>1144.59</ele>
        <time>2011-05-05T09:43:20Z</time>
      </trkpt>
      <trkpt lat="44.42558" lon="5.74832">
        <ele>1142.66</ele>
        <time>2011-05-05T09:43:23Z</time>
      </trkpt>
      <trkpt lat="44.42558" lon="5.74836">
        <ele>1140.26</ele>
        <time>2011-05-05T09:43:38Z</time>
      </trkpt>
      <trkpt lat="44.42551" lon="5.74836">
        <ele>1138.34</ele>
        <time>2011-05-05T09:43:49Z</time>
      </trkpt>
      <trkpt lat="44.42551" lon="5.74836">
        <ele>1137.86</ele>
        <time>2011-05-05T09:43:50Z</time>
      </trkpt>
      <trkpt lat="44.42546" lon="5.74836">
        <ele>1136.9</ele>
        <time>2011-05-05T09:44:04Z</time>
      </trkpt>
      <trkpt lat="44.42543" lon="5.74837">
        <ele>1135.45</ele>
        <time>2011-05-05T09:44:07Z</time>
      </trkpt>
      <trkpt lat="44.42542" lon="5.74837">
        <ele>1135.94</ele>
        <time>2011-05-05T09:44:10Z</time>
      </trkpt>
      <trkpt lat="44.42541" lon="5.74837">
        <ele>1134.49</ele>
        <time>2011-05-05T09:44:14Z</time>
      </trkpt>
      <trkpt lat="44.42544" lon="5.74847">
        <ele>1133.05</ele>
        <time>2011-05-05T09:44:30Z</time>
      </trkpt>
      <trkpt lat="44.42539" lon="5.74855">
        <ele>1129.21</ele>
        <time>2011-05-05T09:44:44Z</time>
      </trkpt>
      <trkpt lat="44.42539" lon="5.74855">
        <ele>1129.21</ele>
        <time>2011-05-05T09:44:45Z</time>
      </trkpt>
      <trkpt lat="44.42533" lon="5.74857">
        <ele>1125.84</ele>
        <time>2011-05-05T09:44:59Z</time>
      </trkpt>
      <trkpt lat="44.42533" lon="5.74858">
        <ele>1125.84</ele>
        <time>2011-05-05T09:45:00Z</time>
      </trkpt>
      <trkpt lat="44.42531" lon="5.74862">
        <ele>1126.32</ele>
        <time>2011-05-05T09:45:04Z</time>
      </trkpt>
      <trkpt lat="44.42522" lon="5.74864">
        <ele>1122.48</ele>
        <time>2011-05-05T09:45:21Z</time>
      </trkpt>
      <trkpt lat="44.42521" lon="5.74865">
        <ele>1121.03</ele>
        <time>2011-05-05T09:45:25Z</time>
      </trkpt>
      <trkpt lat="44.42518" lon="5.74869">
        <ele>1118.15</ele>
        <time>2011-05-05T09:45:39Z</time>
      </trkpt>
      <trkpt lat="44.4251" lon="5.74871">
        <ele>1115.27</ele>
        <time>2011-05-05T09:45:50Z</time>
      </trkpt>
      <trkpt lat="44.42495" lon="5.74877">
        <ele>1112.86</ele>
        <time>2011-05-05T09:46:05Z</time>
      </trkpt>
      <trkpt lat="44.42486" lon="5.74878">
        <ele>1109.98</ele>
        <time>2011-05-05T09:46:16Z</time>
      </trkpt>
      <trkpt lat="44.42479" lon="5.7488">
        <ele>1108.06</ele>
        <time>2011-05-05T09:46:30Z</time>
      </trkpt>
      <trkpt lat="44.42478" lon="5.7488">
        <ele>1107.58</ele>
        <time>2011-05-05T09:46:33Z</time>
      </trkpt>
      <trkpt lat="44.42476" lon="5.74881">
        <ele>1106.61</ele>
        <time>2011-05-05T09:46:36Z</time>
      </trkpt>
      <trkpt lat="44.42467" lon="5.74886">
        <ele>1102.77</ele>
        <time>2011-05-05T09:46:52Z</time>
      </trkpt>
      <trkpt lat="44.42463" lon="5.74886">
        <ele>1101.81</ele>
        <time>2011-05-05T09:47:02Z</time>
      </trkpt>
      <trkpt lat="44.4246" lon="5.74887">
        <ele>1100.37</ele>
        <time>2011-05-05T09:47:05Z</time>
      </trkpt>
      <trkpt lat="44.42456" lon="5.7489">
        <ele>1098.44</ele>
        <time>2011-05-05T09:47:11Z</time>
      </trkpt>
      <trkpt lat="44.42455" lon="5.74891">
        <ele>1097.48</ele>
        <time>2011-05-05T09:47:15Z</time>
      </trkpt>
      <trkpt lat="44.4244" lon="5.74895">
        <ele>1094.6</ele>
        <time>2011-05-05T09:47:31Z</time>
      </trkpt>
      <trkpt lat="44.42434" lon="5.74898">
        <ele>1091.71</ele>
        <time>2011-05-05T09:47:47Z</time>
      </trkpt>
      <trkpt lat="44.42433" lon="5.74898">
        <ele>1090.75</ele>
        <time>2011-05-05T09:47:49Z</time>
      </trkpt>
      <trkpt lat="44.42429" lon="5.749">
        <ele>1089.79</ele>
        <time>2011-05-05T09:47:54Z</time>
      </trkpt>
      <trkpt lat="44.42424" lon="5.74906">
        <ele>1087.39</ele>
        <time>2011-05-05T09:48:07Z</time>
      </trkpt>
      <trkpt lat="44.42424" lon="5.74906">
        <ele>1086.43</ele>
        <time>2011-05-05T09:48:09Z</time>
      </trkpt>
      <trkpt lat="44.42425" lon="5.74907">
        <ele>1085.95</ele>
        <time>2011-05-05T09:48:12Z</time>
      </trkpt>
      <trkpt lat="44.42423" lon="5.74912">
        <ele>1084.02</ele>
        <time>2011-05-05T09:48:23Z</time>
      </trkpt>
      <trkpt lat="44.42415" lon="5.74917">
        <ele>1080.66</ele>
        <time>2011-05-05T09:48:38Z</time>
      </trkpt>
      <trkpt lat="44.42415" lon="5.74925">
        <ele>1079.22</ele>
        <time>2011-05-05T09:48:53Z</time>
      </trkpt>
      <trkpt lat="44.42414" lon="5.74926">
        <ele>1077.29</ele>
        <time>2011-05-05T09:48:59Z</time>
      </trkpt>
      <trkpt lat="44.4241" lon="5.74926">
        <ele>1076.33</ele>
        <time>2011-05-05T09:49:06Z</time>
      </trkpt>
      <trkpt lat="44.42406" lon="5.74926">
        <ele>1075.85</ele>
        <time>2011-05-05T09:49:10Z</time>
      </trkpt>
      <trkpt lat="44.42398" lon="5.74924">
        <ele>1072.01</ele>
        <time>2011-05-05T09:49:25Z</time>
      </trkpt>
      <trkpt lat="44.42397" lon="5.74926">
        <ele>1072.01</ele>
        <time>2011-05-05T09:49:28Z</time>
      </trkpt>
      <trkpt lat="44.42395" lon="5.74926">
        <ele>1070.08</ele>
        <time>2011-05-05T09:49:34Z</time>
      </trkpt>
      <trkpt lat="44.42392" lon="5.74927">
        <ele>1070.08</ele>
        <time>2011-05-05T09:49:38Z</time>
      </trkpt>
      <trkpt lat="44.4239" lon="5.74928">
        <ele>1068.64</ele>
        <time>2011-05-05T09:49:45Z</time>
      </trkpt>
      <trkpt lat="44.42388" lon="5.74928">
        <ele>1067.68</ele>
        <time>2011-05-05T09:49:47Z</time>
      </trkpt>
      <trkpt lat="44.42386" lon="5.74927">
        <ele>1066.72</ele>
        <time>2011-05-05T09:49:52Z</time>
      </trkpt>
      <trkpt lat="44.42385" lon="5.74928">
        <ele>1067.2</ele>
        <time>2011-05-05T09:49:55Z</time>
      </trkpt>
      <trkpt lat="44.42381" lon="5.74929">
        <ele>1065.76</ele>
        <time>2011-05-05T09:49:59Z</time>
      </trkpt>
      <trkpt lat="44.42369" lon="5.74933">
        <ele>1061.91</ele>
        <time>2011-05-05T09:50:14Z</time>
      </trkpt>
      <trkpt lat="44.42368" lon="5.74933">
        <ele>1061.43</ele>
        <time>2011-05-05T09:50:15Z</time>
      </trkpt>
      <trkpt lat="44.42359" lon="5.74933">
        <ele>1058.55</ele>
        <time>2011-05-05T09:50:30Z</time>
      </trkpt>
      <trkpt lat="44.42358" lon="5.74937">
        <ele>1057.59</ele>
        <time>2011-05-05T09:50:37Z</time>
      </trkpt>
      <trkpt lat="44.4236" lon="5.74943">
        <ele>1054.22</ele>
        <time>2011-05-05T09:50:51Z</time>
      </trkpt>
      <trkpt lat="44.42361" lon="5.74944">
        <ele>1054.22</ele>
        <time>2011-05-05T09:50:52Z</time>
      </trkpt>
      <trkpt lat="44.42361" lon="5.74951">
        <ele>1053.26</ele>
        <time>2011-05-05T09:51:00Z</time>
      </trkpt>
      <trkpt lat="44.42357" lon="5.74955">
        <ele>1049.9</ele>
        <time>2011-05-05T09:51:16Z</time>
      </trkpt>
      <trkpt lat="44.42361" lon="5.7497">
        <ele>1047.49</ele>
        <time>2011-05-05T09:51:30Z</time>
      </trkpt>
      <trkpt lat="44.42363" lon="5.74977">
        <ele>1044.13</ele>
        <time>2011-05-05T09:51:41Z</time>
      </trkpt>
      <trkpt lat="44.42361" lon="5.7498">
        <ele>1042.69</ele>
        <time>2011-05-05T09:51:52Z</time>
      </trkpt>
      <trkpt lat="44.42361" lon="5.74985">
        <ele>1039.8</ele>
        <time>2011-05-05T09:52:00Z</time>
      </trkpt>
      <trkpt lat="44.42361" lon="5.74987">
        <ele>1039.8</ele>
        <time>2011-05-05T09:52:12Z</time>
      </trkpt>
      <trkpt lat="44.4236" lon="5.7499">
        <ele>1037.88</ele>
        <time>2011-05-05T09:52:25Z</time>
      </trkpt>
      <trkpt lat="44.42358" lon="5.75005">
        <ele>1035</ele>
        <time>2011-05-05T09:52:36Z</time>
      </trkpt>
      <trkpt lat="44.42357" lon="5.75017">
        <ele>1032.59</ele>
        <time>2011-05-05T09:52:51Z</time>
      </trkpt>
      <trkpt lat="44.42357" lon="5.75024">
        <ele>1029.23</ele>
        <time>2011-05-05T09:53:02Z</time>
      </trkpt>
      <trkpt lat="44.42357" lon="5.75028">
        <ele>1027.79</ele>
        <time>2011-05-05T09:53:12Z</time>
      </trkpt>
      <trkpt lat="44.42354" lon="5.75037">
        <ele>1025.38</ele>
        <time>2011-05-05T09:53:21Z</time>
      </trkpt>
      <trkpt lat="44.42354" lon="5.75044">
        <ele>1022.98</ele>
        <time>2011-05-05T09:53:33Z</time>
      </trkpt>
      <trkpt lat="44.42357" lon="5.75056">
        <ele>1019.62</ele>
        <time>2011-05-05T09:53:45Z</time>
      </trkpt>
      <trkpt lat="44.42362" lon="5.75066">
        <ele>1018.17</ele>
        <time>2011-05-05T09:53:59Z</time>
      </trkpt>
      <trkpt lat="44.42362" lon="5.75066">
        <ele>1016.73</ele>
        <time>2011-05-05T09:54:01Z</time>
      </trkpt>
      <trkpt lat="44.42364" lon="5.75071">
        <ele>1016.25</ele>
        <time>2011-05-05T09:54:07Z</time>
      </trkpt>
      <trkpt lat="44.42366" lon="5.75076">
        <ele>1013.85</ele>
        <time>2011-05-05T09:54:15Z</time>
      </trkpt>
      <trkpt lat="44.42364" lon="5.75081">
        <ele>1012.89</ele>
        <time>2011-05-05T09:54:21Z</time>
      </trkpt>
      <trkpt lat="44.42363" lon="5.75093">
        <ele>1009.52</ele>
        <time>2011-05-05T09:54:33Z</time>
      </trkpt>
      <trkpt lat="44.42363" lon="5.751">
        <ele>1006.64</ele>
        <time>2011-05-05T09:54:46Z</time>
      </trkpt>
      <trkpt lat="44.42362" lon="5.75106">
        <ele>1004.72</ele>
        <time>2011-05-05T09:54:54Z</time>
      </trkpt>
      <trkpt lat="44.42361" lon="5.75113">
        <ele>1001.83</ele>
        <time>2011-05-05T09:55:06Z</time>
      </trkpt>
      <trkpt lat="44.42361" lon="5.75114">
        <ele>1000.39</ele>
        <time>2011-05-05T09:55:12Z</time>
      </trkpt>
      <trkpt lat="44.42363" lon="5.75118">
        <ele>1000.39</ele>
        <time>2011-05-05T09:55:15Z</time>
      </trkpt>
      <trkpt lat="44.42362" lon="5.75122">
        <ele>1000.39</ele>
        <time>2011-05-05T09:55:18Z</time>
      </trkpt>
      <trkpt lat="44.42361" lon="5.75125">
        <ele>998.47</ele>
        <time>2011-05-05T09:55:23Z</time>
      </trkpt>
      <trkpt lat="44.42361" lon="5.75129">
        <ele>997.02</ele>
        <time>2011-05-05T09:55:30Z</time>
      </trkpt>
      <trkpt lat="44.42359" lon="5.7514">
        <ele>994.62</ele>
        <time>2011-05-05T09:55:41Z</time>
      </trkpt>
      <trkpt lat="44.4236" lon="5.75145">
        <ele>990.78</ele>
        <time>2011-05-05T09:55:55Z</time>
      </trkpt>
      <trkpt lat="44.4236" lon="5.75148">
        <ele>989.33</ele>
        <time>2011-05-05T09:55:59Z</time>
      </trkpt>
      <trkpt lat="44.42359" lon="5.75155">
        <ele>987.89</ele>
        <time>2011-05-05T09:56:09Z</time>
      </trkpt>
      <trkpt lat="44.42353" lon="5.75172">
        <ele>984.05</ele>
        <time>2011-05-05T09:56:24Z</time>
      </trkpt>
      <trkpt lat="44.42352" lon="5.75176">
        <ele>982.12</ele>
        <time>2011-05-05T09:56:37Z</time>
      </trkpt>
      <trkpt lat="44.42347" lon="5.75186">
        <ele>979.24</ele>
        <time>2011-05-05T09:56:51Z</time>
      </trkpt>
      <trkpt lat="44.42344" lon="5.7519">
        <ele>976.36</ele>
        <time>2011-05-05T09:57:05Z</time>
      </trkpt>
      <trkpt lat="44.42344" lon="5.75192">
        <ele>975.39</ele>
        <time>2011-05-05T09:57:10Z</time>
      </trkpt>
      <trkpt lat="44.42342" lon="5.75196">
        <ele>974.43</ele>
        <time>2011-05-05T09:57:15Z</time>
      </trkpt>
      <trkpt lat="44.42333" lon="5.75205">
        <ele>971.07</ele>
        <time>2011-05-05T09:57:30Z</time>
      </trkpt>
      <trkpt lat="44.42333" lon="5.75214">
        <ele>967.7</ele>
        <time>2011-05-05T09:57:42Z</time>
      </trkpt>
      <trkpt lat="44.42333" lon="5.75215">
        <ele>967.7</ele>
        <time>2011-05-05T09:57:47Z</time>
      </trkpt>
      <trkpt lat="44.42331" lon="5.75219">
        <ele>966.74</ele>
        <time>2011-05-05T09:57:51Z</time>
      </trkpt>
      <trkpt lat="44.42325" lon="5.75235">
        <ele>963.86</ele>
        <time>2011-05-05T09:58:06Z</time>
      </trkpt>
      <trkpt lat="44.42324" lon="5.75236">
        <ele>962.9</ele>
        <time>2011-05-05T09:58:08Z</time>
      </trkpt>
      <trkpt lat="44.42318" lon="5.75244">
        <ele>959.53</ele>
        <time>2011-05-05T09:58:20Z</time>
      </trkpt>
      <trkpt lat="44.42312" lon="5.75252">
        <ele>958.09</ele>
        <time>2011-05-05T09:58:35Z</time>
      </trkpt>
      <trkpt lat="44.42308" lon="5.75259">
        <ele>954.73</ele>
        <time>2011-05-05T09:58:46Z</time>
      </trkpt>
      <trkpt lat="44.42303" lon="5.75267">
        <ele>952.32</ele>
        <time>2011-05-05T09:59:01Z</time>
      </trkpt>
      <trkpt lat="44.42301" lon="5.75273">
        <ele>950.4</ele>
        <time>2011-05-05T09:59:14Z</time>
      </trkpt>
      <trkpt lat="44.42301" lon="5.75275">
        <ele>948.96</ele>
        <time>2011-05-05T09:59:29Z</time>
      </trkpt>
      <trkpt lat="44.42298" lon="5.75278">
        <ele>948.48</ele>
        <time>2011-05-05T09:59:55Z</time>
      </trkpt>
      <trkpt lat="44.42298" lon="5.75278">
        <ele>948</ele>
        <time>2011-05-05T10:00:06Z</time>
      </trkpt>
      <trkpt lat="44.42298" lon="5.75278">
        <ele>949.44</ele>
        <time>2011-05-05T10:01:29Z</time>
      </trkpt>
      <trkpt lat="44.42298" lon="5.75279">
        <ele>948.48</ele>
        <time>2011-05-05T10:02:06Z</time>
      </trkpt>
      <trkpt lat="44.42298" lon="5.75279">
        <ele>947.04</ele>
        <time>2011-05-05T10:03:00Z</time>
      </trkpt>
      <trkpt lat="44.42301" lon="5.75292">
        <ele>945.11</ele>
        <time>2011-05-05T10:03:18Z</time>
      </trkpt>
      <trkpt lat="44.42299" lon="5.75304">
        <ele>942.23</ele>
        <time>2011-05-05T10:03:30Z</time>
      </trkpt>
      <trkpt lat="44.42295" lon="5.75314">
        <ele>939.83</ele>
        <time>2011-05-05T10:03:43Z</time>
      </trkpt>
      <trkpt lat="44.42294" lon="5.7532">
        <ele>937.9</ele>
        <time>2011-05-05T10:03:49Z</time>
      </trkpt>
      <trkpt lat="44.42292" lon="5.75331">
        <ele>935.02</ele>
        <time>2011-05-05T10:04:00Z</time>
      </trkpt>
      <trkpt lat="44.42287" lon="5.75343">
        <ele>932.62</ele>
        <time>2011-05-05T10:04:15Z</time>
      </trkpt>
      <trkpt lat="44.42283" lon="5.75356">
        <ele>929.73</ele>
        <time>2011-05-05T10:04:29Z</time>
      </trkpt>
      <trkpt lat="44.42281" lon="5.75366">
        <ele>927.81</ele>
        <time>2011-05-05T10:04:44Z</time>
      </trkpt>
      <trkpt lat="44.4228" lon="5.75368">
        <ele>926.37</ele>
        <time>2011-05-05T10:04:46Z</time>
      </trkpt>
      <trkpt lat="44.42274" lon="5.75379">
        <ele>923.96</ele>
        <time>2011-05-05T10:05:02Z</time>
      </trkpt>
      <trkpt lat="44.42274" lon="5.7538">
        <ele>923.96</ele>
        <time>2011-05-05T10:05:03Z</time>
      </trkpt>
      <trkpt lat="44.42268" lon="5.75388">
        <ele>922.52</ele>
        <time>2011-05-05T10:05:16Z</time>
      </trkpt>
      <trkpt lat="44.42263" lon="5.75397">
        <ele>920.6</ele>
        <time>2011-05-05T10:05:29Z</time>
      </trkpt>
      <trkpt lat="44.42255" lon="5.75409">
        <ele>917.72</ele>
        <time>2011-05-05T10:05:42Z</time>
      </trkpt>
      <trkpt lat="44.4225" lon="5.75421">
        <ele>915.79</ele>
        <time>2011-05-05T10:05:56Z</time>
      </trkpt>
      <trkpt lat="44.42244" lon="5.75429">
        <ele>913.39</ele>
        <time>2011-05-05T10:06:11Z</time>
      </trkpt>
      <trkpt lat="44.42239" lon="5.7544">
        <ele>911.47</ele>
        <time>2011-05-05T10:06:23Z</time>
      </trkpt>
      <trkpt lat="44.42232" lon="5.75451">
        <ele>909.06</ele>
        <time>2011-05-05T10:06:36Z</time>
      </trkpt>
      <trkpt lat="44.42228" lon="5.75456">
        <ele>908.1</ele>
        <time>2011-05-05T10:06:44Z</time>
      </trkpt>
      <trkpt lat="44.42228" lon="5.75458">
        <ele>908.58</ele>
        <time>2011-05-05T10:07:33Z</time>
      </trkpt>
      <trkpt lat="44.42228" lon="5.75458">
        <ele>904.74</ele>
        <time>2011-05-05T10:07:45Z</time>
      </trkpt>
      <trkpt lat="44.42228" lon="5.75458">
        <ele>908.1</ele>
        <time>2011-05-05T10:07:46Z</time>
      </trkpt>
      <trkpt lat="44.42228" lon="5.75458">
        <ele>904.26</ele>
        <time>2011-05-05T10:07:47Z</time>
      </trkpt>
      <trkpt lat="44.42228" lon="5.75458">
        <ele>908.58</ele>
        <time>2011-05-05T10:07:48Z</time>
      </trkpt>
      <trkpt lat="44.42228" lon="5.75458">
        <ele>907.62</ele>
        <time>2011-05-05T10:07:56Z</time>
      </trkpt>
      <trkpt lat="44.42228" lon="5.75458">
        <ele>908.1</ele>
        <time>2011-05-05T10:08:00Z</time>
      </trkpt>
      <trkpt lat="44.42227" lon="5.75458">
        <ele>907.62</ele>
        <time>2011-05-05T10:08:58Z</time>
      </trkpt>
      <trkpt lat="44.42224" lon="5.75456">
        <ele>907.14</ele>
        <time>2011-05-05T10:09:56Z</time>
      </trkpt>
      <trkpt lat="44.42216" lon="5.75459">
        <ele>906.66</ele>
        <time>2011-05-05T10:10:30Z</time>
      </trkpt>
      <trkpt lat="44.42206" lon="5.75463">
        <ele>905.22</ele>
        <time>2011-05-05T10:10:50Z</time>
      </trkpt>
      <trkpt lat="44.42203" lon="5.75464">
        <ele>903.78</ele>
        <time>2011-05-05T10:10:53Z</time>
      </trkpt>
      <trkpt lat="44.42196" lon="5.75467">
        <ele>901.85</ele>
        <time>2011-05-05T10:11:08Z</time>
      </trkpt>
      <trkpt lat="44.4219" lon="5.75468">
        <ele>901.37</ele>
        <time>2011-05-05T10:11:15Z</time>
      </trkpt>
      <trkpt lat="44.42177" lon="5.7547">
        <ele>898.01</ele>
        <time>2011-05-05T10:11:30Z</time>
      </trkpt>
      <trkpt lat="44.42165" lon="5.75468">
        <ele>897.05</ele>
        <time>2011-05-05T10:11:43Z</time>
      </trkpt>
      <trkpt lat="44.42161" lon="5.75467">
        <ele>896.09</ele>
        <time>2011-05-05T10:11:48Z</time>
      </trkpt>
      <trkpt lat="44.42151" lon="5.75463">
        <ele>894.64</ele>
        <time>2011-05-05T10:11:59Z</time>
      </trkpt>
      <trkpt lat="44.42146" lon="5.75462">
        <ele>894.64</ele>
        <time>2011-05-05T10:12:03Z</time>
      </trkpt>
      <trkpt lat="44.42136" lon="5.75457">
        <ele>892.24</ele>
        <time>2011-05-05T10:12:16Z</time>
      </trkpt>
      <trkpt lat="44.42125" lon="5.75453">
        <ele>889.36</ele>
        <time>2011-05-05T10:12:29Z</time>
      </trkpt>
      <trkpt lat="44.42125" lon="5.75453">
        <ele>889.36</ele>
        <time>2011-05-05T10:12:30Z</time>
      </trkpt>
      <trkpt lat="44.42114" lon="5.75448">
        <ele>888.4</ele>
        <time>2011-05-05T10:12:44Z</time>
      </trkpt>
      <trkpt lat="44.42108" lon="5.75443">
        <ele>886.47</ele>
        <time>2011-05-05T10:12:57Z</time>
      </trkpt>
      <trkpt lat="44.42102" lon="5.75439">
        <ele>885.03</ele>
        <time>2011-05-05T10:13:09Z</time>
      </trkpt>
      <trkpt lat="44.421" lon="5.75437">
        <ele>884.07</ele>
        <time>2011-05-05T10:13:12Z</time>
      </trkpt>
      <trkpt lat="44.42089" lon="5.75435">
        <ele>883.11</ele>
        <time>2011-05-05T10:13:26Z</time>
      </trkpt>
      <trkpt lat="44.42083" lon="5.75425">
        <ele>881.19</ele>
        <time>2011-05-05T10:13:39Z</time>
      </trkpt>
      <trkpt lat="44.42082" lon="5.75423">
        <ele>881.67</ele>
        <time>2011-05-05T10:13:41Z</time>
      </trkpt>
      <trkpt lat="44.42072" lon="5.75406">
        <ele>880.22</ele>
        <time>2011-05-05T10:13:56Z</time>
      </trkpt>
      <trkpt lat="44.4206" lon="5.75394">
        <ele>878.78</ele>
        <time>2011-05-05T10:14:11Z</time>
      </trkpt>
      <trkpt lat="44.42051" lon="5.75382">
        <ele>878.3</ele>
        <time>2011-05-05T10:14:24Z</time>
      </trkpt>
      <trkpt lat="44.42045" lon="5.75369">
        <ele>875.9</ele>
        <time>2011-05-05T10:14:37Z</time>
      </trkpt>
      <trkpt lat="44.42034" lon="5.75367">
        <ele>874.94</ele>
        <time>2011-05-05T10:14:50Z</time>
      </trkpt>
      <trkpt lat="44.42033" lon="5.75366">
        <ele>874.94</ele>
        <time>2011-05-05T10:14:51Z</time>
      </trkpt>
      <trkpt lat="44.42021" lon="5.75369">
        <ele>873.01</ele>
        <time>2011-05-05T10:15:05Z</time>
      </trkpt>
      <trkpt lat="44.42014" lon="5.75379">
        <ele>870.61</ele>
        <time>2011-05-05T10:15:19Z</time>
      </trkpt>
      <trkpt lat="44.42006" lon="5.75386">
        <ele>867.73</ele>
        <time>2011-05-05T10:15:33Z</time>
      </trkpt>
      <trkpt lat="44.41998" lon="5.75385">
        <ele>867.73</ele>
        <time>2011-05-05T10:15:41Z</time>
      </trkpt>
      <trkpt lat="44.41992" lon="5.75384">
        <ele>867.25</ele>
        <time>2011-05-05T10:15:47Z</time>
      </trkpt>
      <trkpt lat="44.4198" lon="5.75389">
        <ele>864.84</ele>
        <time>2011-05-05T10:16:01Z</time>
      </trkpt>
      <trkpt lat="44.41975" lon="5.75394">
        <ele>863.4</ele>
        <time>2011-05-05T10:16:09Z</time>
      </trkpt>
      <trkpt lat="44.41964" lon="5.75401">
        <ele>860.52</ele>
        <time>2011-05-05T10:16:23Z</time>
      </trkpt>
      <trkpt lat="44.4196" lon="5.75399">
        <ele>861.48</ele>
        <time>2011-05-05T10:16:45Z</time>
      </trkpt>
      <trkpt lat="44.41958" lon="5.75401">
        <ele>860.52</ele>
        <time>2011-05-05T10:16:53Z</time>
      </trkpt>
      <trkpt lat="44.41959" lon="5.75403">
        <ele>860.52</ele>
        <time>2011-05-05T10:17:09Z</time>
      </trkpt>
      <trkpt lat="44.41959" lon="5.75403">
        <ele>861.48</ele>
        <time>2011-05-05T10:17:49Z</time>
      </trkpt>
      <trkpt lat="44.41954" lon="5.75401">
        <ele>858.59</ele>
        <time>2011-05-05T10:18:14Z</time>
      </trkpt>
      <trkpt lat="44.4195" lon="5.75401">
        <ele>857.15</ele>
        <time>2011-05-05T10:18:24Z</time>
      </trkpt>
      <trkpt lat="44.41948" lon="5.75402">
        <ele>856.19</ele>
        <time>2011-05-05T10:18:30Z</time>
      </trkpt>
      <trkpt lat="44.41946" lon="5.75403">
        <ele>856.19</ele>
        <time>2011-05-05T10:18:32Z</time>
      </trkpt>
      <trkpt lat="44.41938" lon="5.7541">
        <ele>854.75</ele>
        <time>2011-05-05T10:18:42Z</time>
      </trkpt>
      <trkpt lat="44.41928" lon="5.75417">
        <ele>854.27</ele>
        <time>2011-05-05T10:18:49Z</time>
      </trkpt>
      <trkpt lat="44.41914" lon="5.75424">
        <ele>853.31</ele>
        <time>2011-05-05T10:19:04Z</time>
      </trkpt>
      <trkpt lat="44.41901" lon="5.75421">
        <ele>851.38</ele>
        <time>2011-05-05T10:19:17Z</time>
      </trkpt>
      <trkpt lat="44.41891" lon="5.75418">
        <ele>848.02</ele>
        <time>2011-05-05T10:19:31Z</time>
      </trkpt>
      <trkpt lat="44.41883" lon="5.75412">
        <ele>846.1</ele>
        <time>2011-05-05T10:19:41Z</time>
      </trkpt>
      <trkpt lat="44.41873" lon="5.75415">
        <ele>843.21</ele>
        <time>2011-05-05T10:19:54Z</time>
      </trkpt>
      <trkpt lat="44.41861" lon="5.75412">
        <ele>840.81</ele>
        <time>2011-05-05T10:20:08Z</time>
      </trkpt>
      <trkpt lat="44.4185" lon="5.75418">
        <ele>837.93</ele>
        <time>2011-05-05T10:20:23Z</time>
      </trkpt>
      <trkpt lat="44.4184" lon="5.75424">
        <ele>836.48</ele>
        <time>2011-05-05T10:20:35Z</time>
      </trkpt>
      <trkpt lat="44.41836" lon="5.75428">
        <ele>835.04</ele>
        <time>2011-05-05T10:20:41Z</time>
      </trkpt>
      <trkpt lat="44.41836" lon="5.75429">
        <ele>835.52</ele>
        <time>2011-05-05T10:20:43Z</time>
      </trkpt>
      <trkpt lat="44.41826" lon="5.75435">
        <ele>832.16</ele>
        <time>2011-05-05T10:20:56Z</time>
      </trkpt>
      <trkpt lat="44.41817" lon="5.75437">
        <ele>829.27</ele>
        <time>2011-05-05T10:21:08Z</time>
      </trkpt>
      <trkpt lat="44.41816" lon="5.75437">
        <ele>829.27</ele>
        <time>2011-05-05T10:21:09Z</time>
      </trkpt>
      <trkpt lat="44.41808" lon="5.75438">
        <ele>827.83</ele>
        <time>2011-05-05T10:21:21Z</time>
      </trkpt>
      <trkpt lat="44.41801" lon="5.75438">
        <ele>825.43</ele>
        <time>2011-05-05T10:21:32Z</time>
      </trkpt>
      <trkpt lat="44.41796" lon="5.75438">
        <ele>823.99</ele>
        <time>2011-05-05T10:21:39Z</time>
      </trkpt>
      <trkpt lat="44.41788" lon="5.75441">
        <ele>821.58</ele>
        <time>2011-05-05T10:21:53Z</time>
      </trkpt>
      <trkpt lat="44.41785" lon="5.7544">
        <ele>820.62</ele>
        <time>2011-05-05T10:21:56Z</time>
      </trkpt>
      <trkpt lat="44.4178" lon="5.75438">
        <ele>819.18</ele>
        <time>2011-05-05T10:22:06Z</time>
      </trkpt>
      <trkpt lat="44.41774" lon="5.75437">
        <ele>815.82</ele>
        <time>2011-05-05T10:22:15Z</time>
      </trkpt>
      <trkpt lat="44.41769" lon="5.75439">
        <ele>814.85</ele>
        <time>2011-05-05T10:22:21Z</time>
      </trkpt>
      <trkpt lat="44.4176" lon="5.75451">
        <ele>813.89</ele>
        <time>2011-05-05T10:22:32Z</time>
      </trkpt>
      <trkpt lat="44.41743" lon="5.75459">
        <ele>812.93</ele>
        <time>2011-05-05T10:22:46Z</time>
      </trkpt>
      <trkpt lat="44.41742" lon="5.75461">
        <ele>811.01</ele>
        <time>2011-05-05T10:22:48Z</time>
      </trkpt>
      <trkpt lat="44.41738" lon="5.75463">
        <ele>810.05</ele>
        <time>2011-05-05T10:22:58Z</time>
      </trkpt>
      <trkpt lat="44.41739" lon="5.75456">
        <ele>809.09</ele>
        <time>2011-05-05T10:23:03Z</time>
      </trkpt>
      <trkpt lat="44.41743" lon="5.75448">
        <ele>808.61</ele>
        <time>2011-05-05T10:23:10Z</time>
      </trkpt>
      <trkpt lat="44.41749" lon="5.75435">
        <ele>807.64</ele>
        <time>2011-05-05T10:23:23Z</time>
      </trkpt>
      <trkpt lat="44.41754" lon="5.75426">
        <ele>805.72</ele>
        <time>2011-05-05T10:23:38Z</time>
      </trkpt>
      <trkpt lat="44.41761" lon="5.75416">
        <ele>806.2</ele>
        <time>2011-05-05T10:23:53Z</time>
      </trkpt>
      <trkpt lat="44.41766" lon="5.75405">
        <ele>805.24</ele>
        <time>2011-05-05T10:24:07Z</time>
      </trkpt>
      <trkpt lat="44.41766" lon="5.75404">
        <ele>804.28</ele>
        <time>2011-05-05T10:24:08Z</time>
      </trkpt>
      <trkpt lat="44.41769" lon="5.7539">
        <ele>802.36</ele>
        <time>2011-05-05T10:24:22Z</time>
      </trkpt>
      <trkpt lat="44.41762" lon="5.75383">
        <ele>799.47</ele>
        <time>2011-05-05T10:24:32Z</time>
      </trkpt>
      <trkpt lat="44.41753" lon="5.75385">
        <ele>797.07</ele>
        <time>2011-05-05T10:24:45Z</time>
      </trkpt>
      <trkpt lat="44.41751" lon="5.75385">
        <ele>795.63</ele>
        <time>2011-05-05T10:24:51Z</time>
      </trkpt>
      <trkpt lat="44.41745" lon="5.75384">
        <ele>792.26</ele>
        <time>2011-05-05T10:25:02Z</time>
      </trkpt>
      <trkpt lat="44.41733" lon="5.75383">
        <ele>789.86</ele>
        <time>2011-05-05T10:25:16Z</time>
      </trkpt>
      <trkpt lat="44.41731" lon="5.75384">
        <ele>788.9</ele>
        <time>2011-05-05T10:25:19Z</time>
      </trkpt>
      <trkpt lat="44.41717" lon="5.75385">
        <ele>785.53</ele>
        <time>2011-05-05T10:25:36Z</time>
      </trkpt>
      <trkpt lat="44.41714" lon="5.75395">
        <ele>784.57</ele>
        <time>2011-05-05T10:25:42Z</time>
      </trkpt>
      <trkpt lat="44.41703" lon="5.75405">
        <ele>784.57</ele>
        <time>2011-05-05T10:25:56Z</time>
      </trkpt>
      <trkpt lat="44.4169" lon="5.75408">
        <ele>783.13</ele>
        <time>2011-05-05T10:26:09Z</time>
      </trkpt>
      <trkpt lat="44.41681" lon="5.75415">
        <ele>781.69</ele>
        <time>2011-05-05T10:26:21Z</time>
      </trkpt>
      <trkpt lat="44.41671" lon="5.7542">
        <ele>779.77</ele>
        <time>2011-05-05T10:26:33Z</time>
      </trkpt>
      <trkpt lat="44.4167" lon="5.7542">
        <ele>780.25</ele>
        <time>2011-05-05T10:26:34Z</time>
      </trkpt>
      <trkpt lat="44.41659" lon="5.75422">
        <ele>777.84</ele>
        <time>2011-05-05T10:26:47Z</time>
      </trkpt>
      <trkpt lat="44.41652" lon="5.7543">
        <ele>775.44</ele>
        <time>2011-05-05T10:27:00Z</time>
      </trkpt>
      <trkpt lat="44.41641" lon="5.75442">
        <ele>772.56</ele>
        <time>2011-05-05T10:27:14Z</time>
      </trkpt>
      <trkpt lat="44.41639" lon="5.75444">
        <ele>771.6</ele>
        <time>2011-05-05T10:27:17Z</time>
      </trkpt>
      <trkpt lat="44.41637" lon="5.75445">
        <ele>771.11</ele>
        <time>2011-05-05T10:27:19Z</time>
      </trkpt>
      <trkpt lat="44.41627" lon="5.75453">
        <ele>768.71</ele>
        <time>2011-05-05T10:27:32Z</time>
      </trkpt>
      <trkpt lat="44.41616" lon="5.75467">
        <ele>766.31</ele>
        <time>2011-05-05T10:27:48Z</time>
      </trkpt>
      <trkpt lat="44.41608" lon="5.75473">
        <ele>763.9</ele>
        <time>2011-05-05T10:28:00Z</time>
      </trkpt>
      <trkpt lat="44.41596" lon="5.7548">
        <ele>762.94</ele>
        <time>2011-05-05T10:28:15Z</time>
      </trkpt>
      <trkpt lat="44.4159" lon="5.7548">
        <ele>759.1</ele>
        <time>2011-05-05T10:28:28Z</time>
      </trkpt>
      <trkpt lat="44.41589" lon="5.75479">
        <ele>759.1</ele>
        <time>2011-05-05T10:28:29Z</time>
      </trkpt>
      <trkpt lat="44.41581" lon="5.75486">
        <ele>756.69</ele>
        <time>2011-05-05T10:28:44Z</time>
      </trkpt>
      <trkpt lat="44.41573" lon="5.75492">
        <ele>753.81</ele>
        <time>2011-05-05T10:28:55Z</time>
      </trkpt>
      <trkpt lat="44.41569" lon="5.75512">
        <ele>752.37</ele>
        <time>2011-05-05T10:29:10Z</time>
      </trkpt>
      <trkpt lat="44.41569" lon="5.75516">
        <ele>751.41</ele>
        <time>2011-05-05T10:29:34Z</time>
      </trkpt>
      <trkpt lat="44.41563" lon="5.75528">
        <ele>749</ele>
        <time>2011-05-05T10:29:48Z</time>
      </trkpt>
      <trkpt lat="44.41556" lon="5.75534">
        <ele>747.08</ele>
        <time>2011-05-05T10:29:58Z</time>
      </trkpt>
      <trkpt lat="44.41547" lon="5.75544">
        <ele>745.64</ele>
        <time>2011-05-05T10:30:10Z</time>
      </trkpt>
      <trkpt lat="44.4154" lon="5.75556">
        <ele>743.24</ele>
        <time>2011-05-05T10:30:24Z</time>
      </trkpt>
      <trkpt lat="44.41539" lon="5.7556">
        <ele>742.76</ele>
        <time>2011-05-05T10:30:29Z</time>
      </trkpt>
      <trkpt lat="44.41532" lon="5.75569">
        <ele>741.31</ele>
        <time>2011-05-05T10:30:42Z</time>
      </trkpt>
      <trkpt lat="44.41529" lon="5.75575">
        <ele>738.91</ele>
        <time>2011-05-05T10:30:55Z</time>
      </trkpt>
      <trkpt lat="44.41524" lon="5.75576">
        <ele>737.47</ele>
        <time>2011-05-05T10:31:02Z</time>
      </trkpt>
      <trkpt lat="44.41519" lon="5.75578">
        <ele>737.47</ele>
        <time>2011-05-05T10:31:08Z</time>
      </trkpt>
      <trkpt lat="44.41514" lon="5.75584">
        <ele>735.07</ele>
        <time>2011-05-05T10:31:17Z</time>
      </trkpt>
      <trkpt lat="44.41513" lon="5.75598">
        <ele>732.66</ele>
        <time>2011-05-05T10:31:32Z</time>
      </trkpt>
      <trkpt lat="44.41513" lon="5.75602">
        <ele>732.18</ele>
        <time>2011-05-05T10:31:36Z</time>
      </trkpt>
      <trkpt lat="44.41516" lon="5.75615">
        <ele>729.3</ele>
        <time>2011-05-05T10:31:47Z</time>
      </trkpt>
      <trkpt lat="44.4152" lon="5.75628">
        <ele>725.93</ele>
        <time>2011-05-05T10:32:01Z</time>
      </trkpt>
      <trkpt lat="44.4151" lon="5.75632">
        <ele>724.01</ele>
        <time>2011-05-05T10:32:14Z</time>
      </trkpt>
      <trkpt lat="44.41503" lon="5.75632">
        <ele>723.05</ele>
        <time>2011-05-05T10:32:23Z</time>
      </trkpt>
      <trkpt lat="44.41492" lon="5.75619">
        <ele>722.57</ele>
        <time>2011-05-05T10:32:37Z</time>
      </trkpt>
      <trkpt lat="44.41484" lon="5.75606">
        <ele>722.09</ele>
        <time>2011-05-05T10:32:49Z</time>
      </trkpt>
      <trkpt lat="44.41475" lon="5.75606">
        <ele>721.13</ele>
        <time>2011-05-05T10:32:59Z</time>
      </trkpt>
      <trkpt lat="44.41464" lon="5.75609">
        <ele>721.61</ele>
        <time>2011-05-05T10:33:13Z</time>
      </trkpt>
      <trkpt lat="44.41454" lon="5.75609">
        <ele>723.05</ele>
        <time>2011-05-05T10:33:26Z</time>
      </trkpt>
      <trkpt lat="44.41441" lon="5.75607">
        <ele>724.49</ele>
        <time>2011-05-05T10:33:40Z</time>
      </trkpt>
      <trkpt lat="44.41428" lon="5.75608">
        <ele>724.49</ele>
        <time>2011-05-05T10:33:53Z</time>
      </trkpt>
      <trkpt lat="44.41415" lon="5.75611">
        <ele>724.49</ele>
        <time>2011-05-05T10:34:06Z</time>
      </trkpt>
      <trkpt lat="44.41405" lon="5.75617">
        <ele>724.01</ele>
        <time>2011-05-05T10:34:21Z</time>
      </trkpt>
      <trkpt lat="44.4141" lon="5.75615">
        <ele>724.49</ele>
        <time>2011-05-05T10:34:49Z</time>
      </trkpt>
      <trkpt lat="44.41417" lon="5.75617">
        <ele>724.01</ele>
        <time>2011-05-05T10:34:56Z</time>
      </trkpt>
      <trkpt lat="44.41431" lon="5.75612">
        <ele>725.45</ele>
        <time>2011-05-05T10:35:11Z</time>
      </trkpt>
      <trkpt lat="44.41442" lon="5.75609">
        <ele>725.45</ele>
        <time>2011-05-05T10:35:25Z</time>
      </trkpt>
      <trkpt lat="44.41448" lon="5.75605">
        <ele>724.97</ele>
        <time>2011-05-05T10:35:38Z</time>
      </trkpt>
      <trkpt lat="44.4145" lon="5.75607">
        <ele>724.97</ele>
        <time>2011-05-05T10:36:07Z</time>
      </trkpt>
      <trkpt lat="44.41453" lon="5.75607">
        <ele>724.97</ele>
        <time>2011-05-05T10:36:10Z</time>
      </trkpt>
      <trkpt lat="44.41461" lon="5.756">
        <ele>725.45</ele>
        <time>2011-05-05T10:36:25Z</time>
      </trkpt>
      <trkpt lat="44.41463" lon="5.75602">
        <ele>725.93</ele>
        <time>2011-05-05T10:36:47Z</time>
      </trkpt>
      <trkpt lat="44.41461" lon="5.75601">
        <ele>717.76</ele>
        <time>2011-05-05T10:37:09Z</time>
      </trkpt>
      <trkpt lat="44.4146" lon="5.75601">
        <ele>723.05</ele>
        <time>2011-05-05T10:37:10Z</time>
      </trkpt>
      <trkpt lat="44.4146" lon="5.75601">
        <ele>724.01</ele>
        <time>2011-05-05T10:37:12Z</time>
      </trkpt>
      <trkpt lat="44.4146" lon="5.75601">
        <ele>729.3</ele>
        <time>2011-05-05T10:37:37Z</time>
      </trkpt>
      <trkpt lat="44.4146" lon="5.75601">
        <ele>729.78</ele>
        <time>2011-05-05T10:37:38Z</time>
      </trkpt>
      <trkpt lat="44.41459" lon="5.75601">
        <ele>724.97</ele>
        <time>2011-05-05T10:37:40Z</time>
      </trkpt>
      <trkpt lat="44.41459" lon="5.75601">
        <ele>724.97</ele>
        <time>2011-05-05T10:38:12Z</time>
      </trkpt>
      <trkpt lat="44.4146" lon="5.75601">
        <ele>725.45</ele>
        <time>2011-05-05T10:39:38Z</time>
      </trkpt>
      <trkpt lat="44.4146" lon="5.75603">
        <ele>725.45</ele>
        <time>2011-05-05T10:41:48Z</time>
      </trkpt>
      <trkpt lat="44.4146" lon="5.75602">
        <ele>724.97</ele>
        <time>2011-05-05T10:44:24Z</time>
      </trkpt>
      <trkpt lat="44.41461" lon="5.75602">
        <ele>724.49</ele>
        <time>2011-05-05T10:48:52Z</time>
      </trkpt>
      <trkpt lat="44.41461" lon="5.756">
        <ele>725.93</ele>
        <time>2011-05-05T10:53:45Z</time>
      </trkpt>
      <trkpt lat="44.41462" lon="5.75599">
        <ele>725.45</ele>
        <time>2011-05-05T10:56:35Z</time>
      </trkpt>
      <trkpt lat="44.41462" lon="5.75599">
        <ele>726.41</ele>
        <time>2011-05-05T10:56:54Z</time>
      </trkpt>
      <trkpt lat="44.41462" lon="5.756">
        <ele>725.45</ele>
        <time>2011-05-05T10:59:45Z</time>
      </trkpt>
      <trkpt lat="44.41462" lon="5.756">
        <ele>724.97</ele>
        <time>2011-05-05T11:01:28Z</time>
      </trkpt>
      <trkpt lat="44.41461" lon="5.75601">
        <ele>726.41</ele>
        <time>2011-05-05T11:02:25Z</time>
      </trkpt>
      <trkpt lat="44.41462" lon="5.756">
        <ele>724.97</ele>
        <time>2011-05-05T11:05:01Z</time>
      </trkpt>
      <trkpt lat="44.41462" lon="5.75601">
        <ele>724.49</ele>
        <time>2011-05-05T11:06:31Z</time>
      </trkpt>
      <trkpt lat="44.41462" lon="5.75601">
        <ele>725.93</ele>
        <time>2011-05-05T11:07:24Z</time>
      </trkpt>
      <trkpt lat="44.41462" lon="5.75602">
        <ele>724.97</ele>
        <time>2011-05-05T11:09:55Z</time>
      </trkpt>
      <trkpt lat="44.41462" lon="5.75603">
        <ele>724.49</ele>
        <time>2011-05-05T11:11:48Z</time>
      </trkpt>
      <trkpt lat="44.41462" lon="5.75603">
        <ele>725.45</ele>
        <time>2011-05-05T11:11:51Z</time>
      </trkpt>
      <trkpt lat="44.41463" lon="5.75603">
        <ele>725.45</ele>
        <time>2011-05-05T11:12:59Z</time>
      </trkpt>
      <trkpt lat="44.41463" lon="5.75604">
        <ele>725.45</ele>
        <time>2011-05-05T11:15:30Z</time>
      </trkpt>
      <trkpt lat="44.41463" lon="5.75603">
        <ele>723.53</ele>
        <time>2011-05-05T11:17:41Z</time>
      </trkpt>
      <trkpt lat="44.41463" lon="5.75605">
        <ele>724.49</ele>
        <time>2011-05-05T11:21:21Z</time>
      </trkpt>
      <trkpt lat="44.41463" lon="5.75604">
        <ele>723.53</ele>
        <time>2011-05-05T11:23:43Z</time>
      </trkpt>
      <trkpt lat="44.41463" lon="5.75605">
        <ele>724.01</ele>
        <time>2011-05-05T11:26:07Z</time>
      </trkpt>
      <trkpt lat="44.41461" lon="5.75604">
        <ele>724.49</ele>
        <time>2011-05-05T11:26:33Z</time>
      </trkpt>
      <trkpt lat="44.41461" lon="5.75604">
        <ele>723.53</ele>
        <time>2011-05-05T11:27:46Z</time>
      </trkpt>
      <trkpt lat="44.41453" lon="5.75598">
        <ele>724.49</ele>
        <time>2011-05-05T11:29:44Z</time>
      </trkpt>
      <trkpt lat="44.41443" lon="5.75604">
        <ele>723.05</ele>
        <time>2011-05-05T11:29:59Z</time>
      </trkpt>
      <trkpt lat="44.41432" lon="5.7561">
        <ele>723.05</ele>
        <time>2011-05-05T11:30:15Z</time>
      </trkpt>
      <trkpt lat="44.41413" lon="5.75615">
        <ele>722.09</ele>
        <time>2011-05-05T11:30:36Z</time>
      </trkpt>
      <trkpt lat="44.41402" lon="5.7561">
        <ele>723.05</ele>
        <time>2011-05-05T11:30:53Z</time>
      </trkpt>
      <trkpt lat="44.41395" lon="5.75596">
        <ele>723.05</ele>
        <time>2011-05-05T11:31:09Z</time>
      </trkpt>
      <trkpt lat="44.41389" lon="5.75585">
        <ele>723.53</ele>
        <time>2011-05-05T11:31:22Z</time>
      </trkpt>
      <trkpt lat="44.41384" lon="5.75574">
        <ele>724.01</ele>
        <time>2011-05-05T11:31:37Z</time>
      </trkpt>
      <trkpt lat="44.41387" lon="5.75573">
        <ele>724.49</ele>
        <time>2011-05-05T11:31:48Z</time>
      </trkpt>
      <trkpt lat="44.41389" lon="5.75568">
        <ele>724.01</ele>
        <time>2011-05-05T11:32:08Z</time>
      </trkpt>
      <trkpt lat="44.41387" lon="5.75573">
        <ele>724.01</ele>
        <time>2011-05-05T11:32:27Z</time>
      </trkpt>
      <trkpt lat="44.41386" lon="5.75572">
        <ele>724.49</ele>
        <time>2011-05-05T11:32:38Z</time>
      </trkpt>
      <trkpt lat="44.4137" lon="5.75553">
        <ele>724.01</ele>
        <time>2011-05-05T11:32:56Z</time>
      </trkpt>
      <trkpt lat="44.41355" lon="5.75533">
        <ele>721.61</ele>
        <time>2011-05-05T11:33:14Z</time>
      </trkpt>
      <trkpt lat="44.41342" lon="5.75519">
        <ele>721.61</ele>
        <time>2011-05-05T11:33:28Z</time>
      </trkpt>
      <trkpt lat="44.41333" lon="5.7551">
        <ele>723.05</ele>
        <time>2011-05-05T11:33:38Z</time>
      </trkpt>
      <trkpt lat="44.41328" lon="5.75506">
        <ele>721.61</ele>
        <time>2011-05-05T11:33:56Z</time>
      </trkpt>
      <trkpt lat="44.41317" lon="5.75501">
        <ele>720.16</ele>
        <time>2011-05-05T11:34:11Z</time>
      </trkpt>
      <trkpt lat="44.41307" lon="5.75497">
        <ele>719.68</ele>
        <time>2011-05-05T11:34:28Z</time>
      </trkpt>
      <trkpt lat="44.41298" lon="5.75488">
        <ele>718.24</ele>
        <time>2011-05-05T11:34:53Z</time>
      </trkpt>
      <trkpt lat="44.41283" lon="5.75477">
        <ele>716.8</ele>
        <time>2011-05-05T11:35:09Z</time>
      </trkpt>
      <trkpt lat="44.41266" lon="5.75465">
        <ele>716.8</ele>
        <time>2011-05-05T11:35:30Z</time>
      </trkpt>
      <trkpt lat="44.41253" lon="5.75454">
        <ele>714.88</ele>
        <time>2011-05-05T11:35:47Z</time>
      </trkpt>
      <trkpt lat="44.41241" lon="5.7544">
        <ele>713.44</ele>
        <time>2011-05-05T11:36:02Z</time>
      </trkpt>
      <trkpt lat="44.41232" lon="5.75425">
        <ele>711.99</ele>
        <time>2011-05-05T11:36:17Z</time>
      </trkpt>
      <trkpt lat="44.4123" lon="5.75419">
        <ele>712.95</ele>
        <time>2011-05-05T11:36:37Z</time>
      </trkpt>
      <trkpt lat="44.4123" lon="5.75419">
        <ele>712.47</ele>
        <time>2011-05-05T11:36:58Z</time>
      </trkpt>
      <trkpt lat="44.41232" lon="5.75421">
        <ele>712.95</ele>
        <time>2011-05-05T11:37:05Z</time>
      </trkpt>
      <trkpt lat="44.41235" lon="5.75435">
        <ele>711.99</ele>
        <time>2011-05-05T11:37:29Z</time>
      </trkpt>
      <trkpt lat="44.41235" lon="5.75423">
        <ele>713.44</ele>
        <time>2011-05-05T11:37:51Z</time>
      </trkpt>
      <trkpt lat="44.41235" lon="5.75421">
        <ele>713.92</ele>
        <time>2011-05-05T11:38:39Z</time>
      </trkpt>
      <trkpt lat="44.41236" lon="5.7541">
        <ele>714.4</ele>
        <time>2011-05-05T11:39:46Z</time>
      </trkpt>
      <trkpt lat="44.4124" lon="5.75415">
        <ele>713.44</ele>
        <time>2011-05-05T11:39:58Z</time>
      </trkpt>
      <trkpt lat="44.41239" lon="5.75415">
        <ele>713.92</ele>
        <time>2011-05-05T11:40:31Z</time>
      </trkpt>
      <trkpt lat="44.4123" lon="5.75407">
        <ele>713.92</ele>
        <time>2011-05-05T11:41:05Z</time>
      </trkpt>
      <trkpt lat="44.41221" lon="5.75387">
        <ele>714.4</ele>
        <time>2011-05-05T11:41:20Z</time>
      </trkpt>
      <trkpt lat="44.41221" lon="5.75385">
        <ele>715.36</ele>
        <time>2011-05-05T11:41:22Z</time>
      </trkpt>
      <trkpt lat="44.41211" lon="5.75365">
        <ele>714.88</ele>
        <time>2011-05-05T11:41:36Z</time>
      </trkpt>
      <trkpt lat="44.41208" lon="5.75341">
        <ele>715.36</ele>
        <time>2011-05-05T11:41:52Z</time>
      </trkpt>
      <trkpt lat="44.41211" lon="5.75314">
        <ele>713.92</ele>
        <time>2011-05-05T11:42:07Z</time>
      </trkpt>
      <trkpt lat="44.41216" lon="5.75284">
        <ele>713.92</ele>
        <time>2011-05-05T11:42:24Z</time>
      </trkpt>
      <trkpt lat="44.41217" lon="5.7528">
        <ele>712.95</ele>
        <time>2011-05-05T11:42:26Z</time>
      </trkpt>
      <trkpt lat="44.41215" lon="5.75257">
        <ele>712.95</ele>
        <time>2011-05-05T11:42:41Z</time>
      </trkpt>
      <trkpt lat="44.41215" lon="5.75243">
        <ele>711.51</ele>
        <time>2011-05-05T11:42:49Z</time>
      </trkpt>
      <trkpt lat="44.41218" lon="5.7521">
        <ele>710.07</ele>
        <time>2011-05-05T11:43:08Z</time>
      </trkpt>
      <trkpt lat="44.41225" lon="5.75173">
        <ele>709.59</ele>
        <time>2011-05-05T11:43:28Z</time>
      </trkpt>
      <trkpt lat="44.41226" lon="5.75168">
        <ele>708.63</ele>
        <time>2011-05-05T11:43:31Z</time>
      </trkpt>
      <trkpt lat="44.41233" lon="5.75137">
        <ele>706.71</ele>
        <time>2011-05-05T11:43:51Z</time>
      </trkpt>
      <trkpt lat="44.41243" lon="5.75105">
        <ele>705.75</ele>
        <time>2011-05-05T11:44:11Z</time>
      </trkpt>
      <trkpt lat="44.41243" lon="5.75082">
        <ele>706.71</ele>
        <time>2011-05-05T11:44:24Z</time>
      </trkpt>
      <trkpt lat="44.41225" lon="5.75066">
        <ele>707.67</ele>
        <time>2011-05-05T11:44:40Z</time>
      </trkpt>
      <trkpt lat="44.41214" lon="5.75053">
        <ele>708.63</ele>
        <time>2011-05-05T11:44:56Z</time>
      </trkpt>
      <trkpt lat="44.41206" lon="5.75033">
        <ele>710.55</ele>
        <time>2011-05-05T11:45:12Z</time>
      </trkpt>
      <trkpt lat="44.41199" lon="5.75012">
        <ele>711.51</ele>
        <time>2011-05-05T11:45:28Z</time>
      </trkpt>
      <trkpt lat="44.41193" lon="5.74994">
        <ele>712.47</ele>
        <time>2011-05-05T11:45:43Z</time>
      </trkpt>
      <trkpt lat="44.41186" lon="5.74976">
        <ele>713.44</ele>
        <time>2011-05-05T11:46:00Z</time>
      </trkpt>
      <trkpt lat="44.41184" lon="5.74971">
        <ele>715.36</ele>
        <time>2011-05-05T11:46:06Z</time>
      </trkpt>
      <trkpt lat="44.41178" lon="5.74958">
        <ele>715.84</ele>
        <time>2011-05-05T11:46:19Z</time>
      </trkpt>
      <trkpt lat="44.41177" lon="5.74955">
        <ele>716.32</ele>
        <time>2011-05-05T11:46:21Z</time>
      </trkpt>
      <trkpt lat="44.41172" lon="5.74937">
        <ele>716.8</ele>
        <time>2011-05-05T11:46:37Z</time>
      </trkpt>
      <trkpt lat="44.41169" lon="5.74926">
        <ele>718.24</ele>
        <time>2011-05-05T11:46:46Z</time>
      </trkpt>
      <trkpt lat="44.41162" lon="5.74905">
        <ele>719.68</ele>
        <time>2011-05-05T11:47:03Z</time>
      </trkpt>
      <trkpt lat="44.41159" lon="5.74882">
        <ele>719.2</ele>
        <time>2011-05-05T11:47:20Z</time>
      </trkpt>
      <trkpt lat="44.41156" lon="5.74863">
        <ele>720.16</ele>
        <time>2011-05-05T11:47:34Z</time>
      </trkpt>
      <trkpt lat="44.41153" lon="5.74841">
        <ele>720.65</ele>
        <time>2011-05-05T11:47:51Z</time>
      </trkpt>
      <trkpt lat="44.41153" lon="5.74815">
        <ele>718.72</ele>
        <time>2011-05-05T11:48:09Z</time>
      </trkpt>
      <trkpt lat="44.41155" lon="5.74793">
        <ele>716.8</ele>
        <time>2011-05-05T11:48:24Z</time>
      </trkpt>
      <trkpt lat="44.4116" lon="5.74768">
        <ele>715.84</ele>
        <time>2011-05-05T11:48:42Z</time>
      </trkpt>
      <trkpt lat="44.41159" lon="5.74758">
        <ele>714.4</ele>
        <time>2011-05-05T11:48:50Z</time>
      </trkpt>
      <trkpt lat="44.41158" lon="5.74747">
        <ele>714.4</ele>
        <time>2011-05-05T11:48:58Z</time>
      </trkpt>
      <trkpt lat="44.41151" lon="5.74726">
        <ele>715.36</ele>
        <time>2011-05-05T11:49:14Z</time>
      </trkpt>
      <trkpt lat="44.41151" lon="5.74723">
        <ele>716.32</ele>
        <time>2011-05-05T11:49:16Z</time>
      </trkpt>
      <trkpt lat="44.41146" lon="5.74705">
        <ele>716.8</ele>
        <time>2011-05-05T11:49:34Z</time>
      </trkpt>
      <trkpt lat="44.41145" lon="5.74695">
        <ele>717.76</ele>
        <time>2011-05-05T11:49:47Z</time>
      </trkpt>
      <trkpt lat="44.41145" lon="5.74692">
        <ele>719.2</ele>
        <time>2011-05-05T11:49:57Z</time>
      </trkpt>
      <trkpt lat="44.41145" lon="5.74685">
        <ele>719.2</ele>
        <time>2011-05-05T11:50:04Z</time>
      </trkpt>
      <trkpt lat="44.41143" lon="5.74642">
        <ele>720.16</ele>
        <time>2011-05-05T11:50:21Z</time>
      </trkpt>
      <trkpt lat="44.41137" lon="5.74616">
        <ele>719.2</ele>
        <time>2011-05-05T11:50:39Z</time>
      </trkpt>
      <trkpt lat="44.41132" lon="5.7459">
        <ele>719.68</ele>
        <time>2011-05-05T11:50:55Z</time>
      </trkpt>
      <trkpt lat="44.4113" lon="5.74575">
        <ele>718.72</ele>
        <time>2011-05-05T11:51:04Z</time>
      </trkpt>
      <trkpt lat="44.4113" lon="5.74564">
        <ele>719.2</ele>
        <time>2011-05-05T11:51:11Z</time>
      </trkpt>
      <trkpt lat="44.41128" lon="5.74539">
        <ele>717.76</ele>
        <time>2011-05-05T11:51:29Z</time>
      </trkpt>
      <trkpt lat="44.41128" lon="5.74531">
        <ele>717.28</ele>
        <time>2011-05-05T11:51:35Z</time>
      </trkpt>
      <trkpt lat="44.41138" lon="5.74505">
        <ele>717.28</ele>
        <time>2011-05-05T11:51:52Z</time>
      </trkpt>
      <trkpt lat="44.4115" lon="5.74482">
        <ele>716.32</ele>
        <time>2011-05-05T11:52:11Z</time>
      </trkpt>
      <trkpt lat="44.41151" lon="5.7448">
        <ele>714.88</ele>
        <time>2011-05-05T11:52:13Z</time>
      </trkpt>
      <trkpt lat="44.41153" lon="5.74477">
        <ele>714.4</ele>
        <time>2011-05-05T11:52:16Z</time>
      </trkpt>
      <trkpt lat="44.41168" lon="5.74461">
        <ele>714.4</ele>
        <time>2011-05-05T11:52:34Z</time>
      </trkpt>
      <trkpt lat="44.4117" lon="5.74451">
        <ele>713.92</ele>
        <time>2011-05-05T11:52:39Z</time>
      </trkpt>
      <trkpt lat="44.41159" lon="5.74436">
        <ele>714.88</ele>
        <time>2011-05-05T11:52:56Z</time>
      </trkpt>
      <trkpt lat="44.41156" lon="5.74435">
        <ele>715.36</ele>
        <time>2011-05-05T11:53:00Z</time>
      </trkpt>
      <trkpt lat="44.41151" lon="5.74433">
        <ele>715.36</ele>
        <time>2011-05-05T11:53:06Z</time>
      </trkpt>
      <trkpt lat="44.41133" lon="5.74424">
        <ele>717.76</ele>
        <time>2011-05-05T11:53:24Z</time>
      </trkpt>
      <trkpt lat="44.41122" lon="5.74411">
        <ele>719.68</ele>
        <time>2011-05-05T11:53:39Z</time>
      </trkpt>
      <trkpt lat="44.41113" lon="5.74394">
        <ele>721.13</ele>
        <time>2011-05-05T11:53:55Z</time>
      </trkpt>
      <trkpt lat="44.41111" lon="5.74386">
        <ele>721.13</ele>
        <time>2011-05-05T11:54:02Z</time>
      </trkpt>
      <trkpt lat="44.4111" lon="5.74363">
        <ele>722.57</ele>
        <time>2011-05-05T11:54:19Z</time>
      </trkpt>
      <trkpt lat="44.41119" lon="5.7435">
        <ele>723.05</ele>
        <time>2011-05-05T11:54:34Z</time>
      </trkpt>
      <trkpt lat="44.4112" lon="5.74349">
        <ele>723.53</ele>
        <time>2011-05-05T11:54:36Z</time>
      </trkpt>
      <trkpt lat="44.41126" lon="5.74347">
        <ele>725.93</ele>
        <time>2011-05-05T11:54:45Z</time>
      </trkpt>
      <trkpt lat="44.41139" lon="5.74342">
        <ele>726.41</ele>
        <time>2011-05-05T11:54:57Z</time>
      </trkpt>
      <trkpt lat="44.41151" lon="5.74332">
        <ele>727.37</ele>
        <time>2011-05-05T11:55:13Z</time>
      </trkpt>
      <trkpt lat="44.41161" lon="5.74325">
        <ele>728.82</ele>
        <time>2011-05-05T11:55:27Z</time>
      </trkpt>
      <trkpt lat="44.41175" lon="5.74317">
        <ele>729.78</ele>
        <time>2011-05-05T11:55:44Z</time>
      </trkpt>
      <trkpt lat="44.41188" lon="5.74305">
        <ele>731.7</ele>
        <time>2011-05-05T11:56:01Z</time>
      </trkpt>
      <trkpt lat="44.41202" lon="5.74292">
        <ele>732.18</ele>
        <time>2011-05-05T11:56:19Z</time>
      </trkpt>
      <trkpt lat="44.41214" lon="5.7428">
        <ele>734.58</ele>
        <time>2011-05-05T11:56:35Z</time>
      </trkpt>
      <trkpt lat="44.41222" lon="5.74272">
        <ele>735.55</ele>
        <time>2011-05-05T11:56:53Z</time>
      </trkpt>
      <trkpt lat="44.41235" lon="5.7426">
        <ele>736.99</ele>
        <time>2011-05-05T11:57:10Z</time>
      </trkpt>
      <trkpt lat="44.41236" lon="5.7426">
        <ele>736.99</ele>
        <time>2011-05-05T11:57:11Z</time>
      </trkpt>
      <trkpt lat="44.41242" lon="5.74255">
        <ele>736.99</ele>
        <time>2011-05-05T11:57:18Z</time>
      </trkpt>
      <trkpt lat="44.41256" lon="5.74242">
        <ele>737.95</ele>
        <time>2011-05-05T11:57:35Z</time>
      </trkpt>
      <trkpt lat="44.41268" lon="5.74231">
        <ele>739.39</ele>
        <time>2011-05-05T11:57:51Z</time>
      </trkpt>
      <trkpt lat="44.4127" lon="5.74228">
        <ele>738.91</ele>
        <time>2011-05-05T11:57:54Z</time>
      </trkpt>
      <trkpt lat="44.41267" lon="5.7422">
        <ele>739.39</ele>
        <time>2011-05-05T11:58:01Z</time>
      </trkpt>
      <trkpt lat="44.41259" lon="5.74207">
        <ele>739.87</ele>
        <time>2011-05-05T11:58:13Z</time>
      </trkpt>
      <trkpt lat="44.4125" lon="5.74194">
        <ele>739.39</ele>
        <time>2011-05-05T11:58:28Z</time>
      </trkpt>
      <trkpt lat="44.41247" lon="5.74191">
        <ele>739.87</ele>
        <time>2011-05-05T11:58:48Z</time>
      </trkpt>
      <trkpt lat="44.41245" lon="5.74182">
        <ele>737.95</ele>
        <time>2011-05-05T11:59:03Z</time>
      </trkpt>
      <trkpt lat="44.41246" lon="5.74174">
        <ele>736.51</ele>
        <time>2011-05-05T11:59:14Z</time>
      </trkpt>
      <trkpt lat="44.41246" lon="5.74161">
        <ele>733.62</ele>
        <time>2011-05-05T11:59:27Z</time>
      </trkpt>
      <trkpt lat="44.41244" lon="5.7415">
        <ele>730.74</ele>
        <time>2011-05-05T11:59:41Z</time>
      </trkpt>
      <trkpt lat="44.41247" lon="5.74143">
        <ele>728.82</ele>
        <time>2011-05-05T11:59:52Z</time>
      </trkpt>
      <trkpt lat="44.4125" lon="5.74138">
        <ele>726.89</ele>
        <time>2011-05-05T12:00:01Z</time>
      </trkpt>
      <trkpt lat="44.41258" lon="5.74122">
        <ele>724.49</ele>
        <time>2011-05-05T12:00:16Z</time>
      </trkpt>
      <trkpt lat="44.41263" lon="5.74111">
        <ele>721.61</ele>
        <time>2011-05-05T12:00:31Z</time>
      </trkpt>
      <trkpt lat="44.41268" lon="5.74105">
        <ele>720.65</ele>
        <time>2011-05-05T12:00:40Z</time>
      </trkpt>
      <trkpt lat="44.41274" lon="5.74092">
        <ele>716.8</ele>
        <time>2011-05-05T12:00:58Z</time>
      </trkpt>
      <trkpt lat="44.41278" lon="5.7409">
        <ele>716.8</ele>
        <time>2011-05-05T12:01:03Z</time>
      </trkpt>
      <trkpt lat="44.41284" lon="5.7408">
        <ele>714.4</ele>
        <time>2011-05-05T12:01:11Z</time>
      </trkpt>
      <trkpt lat="44.41285" lon="5.74069">
        <ele>711.51</ele>
        <time>2011-05-05T12:01:23Z</time>
      </trkpt>
      <trkpt lat="44.41287" lon="5.74059">
        <ele>708.15</ele>
        <time>2011-05-05T12:01:36Z</time>
      </trkpt>
      <trkpt lat="44.41292" lon="5.7404">
        <ele>708.15</ele>
        <time>2011-05-05T12:01:51Z</time>
      </trkpt>
      <trkpt lat="44.41299" lon="5.74021">
        <ele>707.19</ele>
        <time>2011-05-05T12:02:08Z</time>
      </trkpt>
      <trkpt lat="44.41302" lon="5.74012">
        <ele>705.26</ele>
        <time>2011-05-05T12:02:17Z</time>
      </trkpt>
      <trkpt lat="44.41305" lon="5.73997">
        <ele>706.23</ele>
        <time>2011-05-05T12:02:28Z</time>
      </trkpt>
      <trkpt lat="44.41307" lon="5.7399">
        <ele>708.15</ele>
        <time>2011-05-05T12:02:35Z</time>
      </trkpt>
      <trkpt lat="44.41311" lon="5.73986">
        <ele>710.07</ele>
        <time>2011-05-05T12:02:46Z</time>
      </trkpt>
      <trkpt lat="44.41314" lon="5.73984">
        <ele>711.03</ele>
        <time>2011-05-05T12:02:49Z</time>
      </trkpt>
      <trkpt lat="44.41318" lon="5.73976">
        <ele>711.03</ele>
        <time>2011-05-05T12:02:58Z</time>
      </trkpt>
      <trkpt lat="44.41327" lon="5.73968">
        <ele>712.95</ele>
        <time>2011-05-05T12:03:12Z</time>
      </trkpt>
      <trkpt lat="44.41333" lon="5.73965">
        <ele>713.44</ele>
        <time>2011-05-05T12:03:19Z</time>
      </trkpt>
      <trkpt lat="44.4135" lon="5.73966">
        <ele>714.4</ele>
        <time>2011-05-05T12:03:36Z</time>
      </trkpt>
      <trkpt lat="44.4136" lon="5.73969">
        <ele>716.32</ele>
        <time>2011-05-05T12:03:51Z</time>
      </trkpt>
      <trkpt lat="44.41371" lon="5.73966">
        <ele>718.24</ele>
        <time>2011-05-05T12:04:09Z</time>
      </trkpt>
      <trkpt lat="44.41374" lon="5.73964">
        <ele>717.76</ele>
        <time>2011-05-05T12:04:11Z</time>
      </trkpt>
      <trkpt lat="44.41383" lon="5.73945">
        <ele>720.16</ele>
        <time>2011-05-05T12:04:27Z</time>
      </trkpt>
      <trkpt lat="44.41386" lon="5.73933">
        <ele>720.16</ele>
        <time>2011-05-05T12:04:36Z</time>
      </trkpt>
      <trkpt lat="44.41392" lon="5.73916">
        <ele>720.65</ele>
        <time>2011-05-05T12:04:49Z</time>
      </trkpt>
      <trkpt lat="44.41398" lon="5.73911">
        <ele>722.09</ele>
        <time>2011-05-05T12:04:58Z</time>
      </trkpt>
      <trkpt lat="44.41404" lon="5.73894">
        <ele>722.57</ele>
        <time>2011-05-05T12:05:14Z</time>
      </trkpt>
      <trkpt lat="44.41405" lon="5.73892">
        <ele>722.57</ele>
        <time>2011-05-05T12:05:16Z</time>
      </trkpt>
      <trkpt lat="44.41402" lon="5.73878">
        <ele>720.65</ele>
        <time>2011-05-05T12:05:32Z</time>
      </trkpt>
      <trkpt lat="44.41397" lon="5.73864">
        <ele>716.8</ele>
        <time>2011-05-05T12:05:46Z</time>
      </trkpt>
      <trkpt lat="44.41401" lon="5.73854">
        <ele>714.88</ele>
        <time>2011-05-05T12:06:01Z</time>
      </trkpt>
      <trkpt lat="44.41403" lon="5.73852">
        <ele>713.92</ele>
        <time>2011-05-05T12:06:04Z</time>
      </trkpt>
      <trkpt lat="44.41411" lon="5.73843">
        <ele>711.03</ele>
        <time>2011-05-05T12:06:21Z</time>
      </trkpt>
      <trkpt lat="44.41411" lon="5.73841">
        <ele>710.07</ele>
        <time>2011-05-05T12:06:26Z</time>
      </trkpt>
      <trkpt lat="44.41412" lon="5.73836">
        <ele>707.67</ele>
        <time>2011-05-05T12:06:40Z</time>
      </trkpt>
      <trkpt lat="44.41411" lon="5.73834">
        <ele>708.63</ele>
        <time>2011-05-05T12:06:42Z</time>
      </trkpt>
      <trkpt lat="44.41411" lon="5.73832">
        <ele>709.11</ele>
        <time>2011-05-05T12:06:45Z</time>
      </trkpt>
      <trkpt lat="44.41397" lon="5.73806">
        <ele>708.15</ele>
        <time>2011-05-05T12:07:01Z</time>
      </trkpt>
      <trkpt lat="44.41386" lon="5.73797">
        <ele>708.15</ele>
        <time>2011-05-05T12:07:17Z</time>
      </trkpt>
      <trkpt lat="44.41386" lon="5.73797">
        <ele>706.23</ele>
        <time>2011-05-05T12:07:19Z</time>
      </trkpt>
      <trkpt lat="44.41381" lon="5.73785">
        <ele>706.71</ele>
        <time>2011-05-05T12:07:30Z</time>
      </trkpt>
      <trkpt lat="44.41379" lon="5.7378">
        <ele>706.71</ele>
        <time>2011-05-05T12:07:52Z</time>
      </trkpt>
      <trkpt lat="44.41377" lon="5.73774">
        <ele>706.23</ele>
        <time>2011-05-05T12:08:02Z</time>
      </trkpt>
      <trkpt lat="44.41376" lon="5.73763">
        <ele>707.19</ele>
        <time>2011-05-05T12:08:08Z</time>
      </trkpt>
      <trkpt lat="44.41365" lon="5.73735">
        <ele>709.59</ele>
        <time>2011-05-05T12:08:20Z</time>
      </trkpt>
      <trkpt lat="44.41362" lon="5.73734">
        <ele>709.11</ele>
        <time>2011-05-05T12:08:27Z</time>
      </trkpt>
      <trkpt lat="44.41358" lon="5.7373">
        <ele>710.07</ele>
        <time>2011-05-05T12:08:31Z</time>
      </trkpt>
      <trkpt lat="44.41354" lon="5.73706">
        <ele>711.03</ele>
        <time>2011-05-05T12:08:49Z</time>
      </trkpt>
      <trkpt lat="44.4136" lon="5.73692">
        <ele>712.95</ele>
        <time>2011-05-05T12:09:04Z</time>
      </trkpt>
      <trkpt lat="44.41371" lon="5.73681">
        <ele>714.4</ele>
        <time>2011-05-05T12:09:19Z</time>
      </trkpt>
      <trkpt lat="44.41384" lon="5.73668">
        <ele>714.88</ele>
        <time>2011-05-05T12:09:34Z</time>
      </trkpt>
      <trkpt lat="44.41393" lon="5.73651">
        <ele>714.4</ele>
        <time>2011-05-05T12:09:53Z</time>
      </trkpt>
      <trkpt lat="44.41397" lon="5.73641">
        <ele>712.47</ele>
        <time>2011-05-05T12:10:12Z</time>
      </trkpt>
      <trkpt lat="44.41398" lon="5.73641">
        <ele>712.47</ele>
        <time>2011-05-05T12:10:15Z</time>
      </trkpt>
      <trkpt lat="44.414" lon="5.7364">
        <ele>712.47</ele>
        <time>2011-05-05T12:10:17Z</time>
      </trkpt>
      <trkpt lat="44.41402" lon="5.73639">
        <ele>712.47</ele>
        <time>2011-05-05T12:10:19Z</time>
      </trkpt>
      <trkpt lat="44.41414" lon="5.73624">
        <ele>711.03</ele>
        <time>2011-05-05T12:10:35Z</time>
      </trkpt>
      <trkpt lat="44.41419" lon="5.73618">
        <ele>711.03</ele>
        <time>2011-05-05T12:10:43Z</time>
      </trkpt>
      <trkpt lat="44.41429" lon="5.73603">
        <ele>710.55</ele>
        <time>2011-05-05T12:11:01Z</time>
      </trkpt>
      <trkpt lat="44.4144" lon="5.73588">
        <ele>711.03</ele>
        <time>2011-05-05T12:11:15Z</time>
      </trkpt>
      <trkpt lat="44.41448" lon="5.73575">
        <ele>711.99</ele>
        <time>2011-05-05T12:11:32Z</time>
      </trkpt>
      <trkpt lat="44.4145" lon="5.7357">
        <ele>711.99</ele>
        <time>2011-05-05T12:11:36Z</time>
      </trkpt>
      <trkpt lat="44.41452" lon="5.73568">
        <ele>711.03</ele>
        <time>2011-05-05T12:11:38Z</time>
      </trkpt>
      <trkpt lat="44.41459" lon="5.73562">
        <ele>711.51</ele>
        <time>2011-05-05T12:11:51Z</time>
      </trkpt>
      <trkpt lat="44.41462" lon="5.73556">
        <ele>711.03</ele>
        <time>2011-05-05T12:11:55Z</time>
      </trkpt>
      <trkpt lat="44.41467" lon="5.7355">
        <ele>711.03</ele>
        <time>2011-05-05T12:12:01Z</time>
      </trkpt>
      <trkpt lat="44.41471" lon="5.73538">
        <ele>710.55</ele>
        <time>2011-05-05T12:12:08Z</time>
      </trkpt>
      <trkpt lat="44.41472" lon="5.73531">
        <ele>711.99</ele>
        <time>2011-05-05T12:12:19Z</time>
      </trkpt>
      <trkpt lat="44.41476" lon="5.73504">
        <ele>712.47</ele>
        <time>2011-05-05T12:12:35Z</time>
      </trkpt>
      <trkpt lat="44.4149" lon="5.73484">
        <ele>714.4</ele>
        <time>2011-05-05T12:12:54Z</time>
      </trkpt>
      <trkpt lat="44.41497" lon="5.73467">
        <ele>713.92</ele>
        <time>2011-05-05T12:13:10Z</time>
      </trkpt>
      <trkpt lat="44.41501" lon="5.73454">
        <ele>714.4</ele>
        <time>2011-05-05T12:13:23Z</time>
      </trkpt>
      <trkpt lat="44.41507" lon="5.73443">
        <ele>714.88</ele>
        <time>2011-05-05T12:13:33Z</time>
      </trkpt>
      <trkpt lat="44.41508" lon="5.7344">
        <ele>714.88</ele>
        <time>2011-05-05T12:13:35Z</time>
      </trkpt>
      <trkpt lat="44.41509" lon="5.73436">
        <ele>714.88</ele>
        <time>2011-05-05T12:13:38Z</time>
      </trkpt>
      <trkpt lat="44.41524" lon="5.7342">
        <ele>714.4</ele>
        <time>2011-05-05T12:13:58Z</time>
      </trkpt>
      <trkpt lat="44.41527" lon="5.73417">
        <ele>714.4</ele>
        <time>2011-05-05T12:14:02Z</time>
      </trkpt>
      <trkpt lat="44.41532" lon="5.73412">
        <ele>713.44</ele>
        <time>2011-05-05T12:14:09Z</time>
      </trkpt>
      <trkpt lat="44.41542" lon="5.73395">
        <ele>714.88</ele>
        <time>2011-05-05T12:14:22Z</time>
      </trkpt>
      <trkpt lat="44.41543" lon="5.73392">
        <ele>715.36</ele>
        <time>2011-05-05T12:14:25Z</time>
      </trkpt>
      <trkpt lat="44.41547" lon="5.73384">
        <ele>714.88</ele>
        <time>2011-05-05T12:14:31Z</time>
      </trkpt>
      <trkpt lat="44.41552" lon="5.73372">
        <ele>716.32</ele>
        <time>2011-05-05T12:14:45Z</time>
      </trkpt>
      <trkpt lat="44.41552" lon="5.73371">
        <ele>716.8</ele>
        <time>2011-05-05T12:14:46Z</time>
      </trkpt>
      <trkpt lat="44.41554" lon="5.73363">
        <ele>717.28</ele>
        <time>2011-05-05T12:14:52Z</time>
      </trkpt>
      <trkpt lat="44.41556" lon="5.73357">
        <ele>716.8</ele>
        <time>2011-05-05T12:15:02Z</time>
      </trkpt>
      <trkpt lat="44.41558" lon="5.73352">
        <ele>717.28</ele>
        <time>2011-05-05T12:15:09Z</time>
      </trkpt>
      <trkpt lat="44.41565" lon="5.73344">
        <ele>718.72</ele>
        <time>2011-05-05T12:15:14Z</time>
      </trkpt>
      <trkpt lat="44.41572" lon="5.73328">
        <ele>718.72</ele>
        <time>2011-05-05T12:15:29Z</time>
      </trkpt>
      <trkpt lat="44.41576" lon="5.73316">
        <ele>719.68</ele>
        <time>2011-05-05T12:15:45Z</time>
      </trkpt>
      <trkpt lat="44.41579" lon="5.73305">
        <ele>721.61</ele>
        <time>2011-05-05T12:16:00Z</time>
      </trkpt>
      <trkpt lat="44.41582" lon="5.73299">
        <ele>722.57</ele>
        <time>2011-05-05T12:16:06Z</time>
      </trkpt>
      <trkpt lat="44.41587" lon="5.73287">
        <ele>723.53</ele>
        <time>2011-05-05T12:16:21Z</time>
      </trkpt>
      <trkpt lat="44.4159" lon="5.73279">
        <ele>723.53</ele>
        <time>2011-05-05T12:16:43Z</time>
      </trkpt>
      <trkpt lat="44.41591" lon="5.73277">
        <ele>723.53</ele>
        <time>2011-05-05T12:16:50Z</time>
      </trkpt>
      <trkpt lat="44.41594" lon="5.73271">
        <ele>724.97</ele>
        <time>2011-05-05T12:16:55Z</time>
      </trkpt>
      <trkpt lat="44.416" lon="5.73257">
        <ele>725.93</ele>
        <time>2011-05-05T12:17:09Z</time>
      </trkpt>
      <trkpt lat="44.41606" lon="5.73243">
        <ele>727.86</ele>
        <time>2011-05-05T12:17:25Z</time>
      </trkpt>
      <trkpt lat="44.41613" lon="5.7323">
        <ele>728.34</ele>
        <time>2011-05-05T12:17:41Z</time>
      </trkpt>
      <trkpt lat="44.41617" lon="5.7322">
        <ele>730.26</ele>
        <time>2011-05-05T12:17:55Z</time>
      </trkpt>
      <trkpt lat="44.41626" lon="5.73208">
        <ele>733.62</ele>
        <time>2011-05-05T12:18:12Z</time>
      </trkpt>
      <trkpt lat="44.41636" lon="5.73204">
        <ele>735.07</ele>
        <time>2011-05-05T12:18:27Z</time>
      </trkpt>
      <trkpt lat="44.41645" lon="5.73207">
        <ele>735.55</ele>
        <time>2011-05-05T12:18:40Z</time>
      </trkpt>
      <trkpt lat="44.41651" lon="5.73206">
        <ele>737.95</ele>
        <time>2011-05-05T12:19:01Z</time>
      </trkpt>
      <trkpt lat="44.41654" lon="5.73205">
        <ele>738.91</ele>
        <time>2011-05-05T12:19:07Z</time>
      </trkpt>
      <trkpt lat="44.41663" lon="5.73207">
        <ele>738.43</ele>
        <time>2011-05-05T12:19:29Z</time>
      </trkpt>
      <trkpt lat="44.41663" lon="5.73207">
        <ele>737.95</ele>
        <time>2011-05-05T12:19:31Z</time>
      </trkpt>
      <trkpt lat="44.41663" lon="5.73206">
        <ele>737.95</ele>
        <time>2011-05-05T12:20:35Z</time>
      </trkpt>
      <trkpt lat="44.41664" lon="5.73206">
        <ele>738.91</ele>
        <time>2011-05-05T12:20:45Z</time>
      </trkpt>
      <trkpt lat="44.4168" lon="5.73206">
        <ele>738.43</ele>
        <time>2011-05-05T12:21:04Z</time>
      </trkpt>
      <trkpt lat="44.41691" lon="5.73203">
        <ele>738.91</ele>
        <time>2011-05-05T12:21:19Z</time>
      </trkpt>
      <trkpt lat="44.41691" lon="5.73203">
        <ele>738.91</ele>
        <time>2011-05-05T12:21:27Z</time>
      </trkpt>
      <trkpt lat="44.41699" lon="5.73203">
        <ele>739.39</ele>
        <time>2011-05-05T12:21:35Z</time>
      </trkpt>
      <trkpt lat="44.41704" lon="5.73202">
        <ele>739.39</ele>
        <time>2011-05-05T12:21:38Z</time>
      </trkpt>
      <trkpt lat="44.41714" lon="5.73185">
        <ele>740.35</ele>
        <time>2011-05-05T12:21:52Z</time>
      </trkpt>
      <trkpt lat="44.41724" lon="5.7317">
        <ele>738.43</ele>
        <time>2011-05-05T12:22:06Z</time>
      </trkpt>
      <trkpt lat="44.41734" lon="5.73161">
        <ele>738.91</ele>
        <time>2011-05-05T12:22:22Z</time>
      </trkpt>
      <trkpt lat="44.41737" lon="5.7316">
        <ele>740.35</ele>
        <time>2011-05-05T12:22:25Z</time>
      </trkpt>
      <trkpt lat="44.41751" lon="5.73141">
        <ele>739.39</ele>
        <time>2011-05-05T12:22:42Z</time>
      </trkpt>
      <trkpt lat="44.41761" lon="5.73136">
        <ele>738.91</ele>
        <time>2011-05-05T12:22:57Z</time>
      </trkpt>
      <trkpt lat="44.41774" lon="5.73124">
        <ele>739.39</ele>
        <time>2011-05-05T12:23:13Z</time>
      </trkpt>
      <trkpt lat="44.41779" lon="5.73117">
        <ele>738.91</ele>
        <time>2011-05-05T12:23:19Z</time>
      </trkpt>
      <trkpt lat="44.41791" lon="5.73095">
        <ele>738.91</ele>
        <time>2011-05-05T12:23:37Z</time>
      </trkpt>
      <trkpt lat="44.41802" lon="5.73081">
        <ele>738.91</ele>
        <time>2011-05-05T12:23:52Z</time>
      </trkpt>
      <trkpt lat="44.41813" lon="5.73069">
        <ele>739.39</ele>
        <time>2011-05-05T12:24:07Z</time>
      </trkpt>
      <trkpt lat="44.41815" lon="5.73068">
        <ele>739.39</ele>
        <time>2011-05-05T12:24:13Z</time>
      </trkpt>
      <trkpt lat="44.41819" lon="5.73064">
        <ele>739.39</ele>
        <time>2011-05-05T12:24:18Z</time>
      </trkpt>
      <trkpt lat="44.4182" lon="5.73063">
        <ele>738.91</ele>
        <time>2011-05-05T12:24:20Z</time>
      </trkpt>
      <trkpt lat="44.41836" lon="5.73051">
        <ele>738.91</ele>
        <time>2011-05-05T12:24:37Z</time>
      </trkpt>
      <trkpt lat="44.41842" lon="5.73044">
        <ele>738.43</ele>
        <time>2011-05-05T12:24:47Z</time>
      </trkpt>
      <trkpt lat="44.41851" lon="5.73023">
        <ele>739.39</ele>
        <time>2011-05-05T12:25:06Z</time>
      </trkpt>
      <trkpt lat="44.41857" lon="5.73017">
        <ele>739.39</ele>
        <time>2011-05-05T12:25:13Z</time>
      </trkpt>
      <trkpt lat="44.41875" lon="5.73003">
        <ele>740.35</ele>
        <time>2011-05-05T12:25:32Z</time>
      </trkpt>
      <trkpt lat="44.41886" lon="5.72992">
        <ele>740.83</ele>
        <time>2011-05-05T12:25:46Z</time>
      </trkpt>
      <trkpt lat="44.41888" lon="5.72991">
        <ele>741.31</ele>
        <time>2011-05-05T12:25:48Z</time>
      </trkpt>
      <trkpt lat="44.4189" lon="5.72989">
        <ele>742.28</ele>
        <time>2011-05-05T12:25:50Z</time>
      </trkpt>
      <trkpt lat="44.41903" lon="5.72973">
        <ele>743.24</ele>
        <time>2011-05-05T12:26:07Z</time>
      </trkpt>
      <trkpt lat="44.41915" lon="5.72958">
        <ele>744.2</ele>
        <time>2011-05-05T12:26:22Z</time>
      </trkpt>
      <trkpt lat="44.41925" lon="5.72942">
        <ele>745.64</ele>
        <time>2011-05-05T12:26:38Z</time>
      </trkpt>
      <trkpt lat="44.41933" lon="5.72923">
        <ele>747.08</ele>
        <time>2011-05-05T12:26:55Z</time>
      </trkpt>
      <trkpt lat="44.41944" lon="5.729">
        <ele>748.52</ele>
        <time>2011-05-05T12:27:15Z</time>
      </trkpt>
      <trkpt lat="44.41949" lon="5.72884">
        <ele>749</ele>
        <time>2011-05-05T12:27:31Z</time>
      </trkpt>
      <trkpt lat="44.41956" lon="5.72876">
        <ele>750.45</ele>
        <time>2011-05-05T12:27:40Z</time>
      </trkpt>
      <trkpt lat="44.41962" lon="5.72871">
        <ele>751.89</ele>
        <time>2011-05-05T12:27:46Z</time>
      </trkpt>
      <trkpt lat="44.41967" lon="5.72863">
        <ele>751.89</ele>
        <time>2011-05-05T12:27:56Z</time>
      </trkpt>
      <trkpt lat="44.41975" lon="5.72853">
        <ele>752.85</ele>
        <time>2011-05-05T12:28:06Z</time>
      </trkpt>
      <trkpt lat="44.41988" lon="5.72834">
        <ele>753.81</ele>
        <time>2011-05-05T12:28:22Z</time>
      </trkpt>
      <trkpt lat="44.41995" lon="5.72823">
        <ele>755.25</ele>
        <time>2011-05-05T12:28:33Z</time>
      </trkpt>
      <trkpt lat="44.42" lon="5.7281">
        <ele>755.73</ele>
        <time>2011-05-05T12:28:46Z</time>
      </trkpt>
      <trkpt lat="44.42008" lon="5.7279">
        <ele>757.18</ele>
        <time>2011-05-05T12:29:03Z</time>
      </trkpt>
      <trkpt lat="44.42014" lon="5.7278">
        <ele>758.14</ele>
        <time>2011-05-05T12:29:11Z</time>
      </trkpt>
      <trkpt lat="44.42016" lon="5.72763">
        <ele>759.58</ele>
        <time>2011-05-05T12:29:24Z</time>
      </trkpt>
      <trkpt lat="44.42028" lon="5.7275">
        <ele>760.06</ele>
        <time>2011-05-05T12:29:40Z</time>
      </trkpt>
      <trkpt lat="44.42032" lon="5.72744">
        <ele>759.1</ele>
        <time>2011-05-05T12:29:47Z</time>
      </trkpt>
      <trkpt lat="44.42037" lon="5.72735">
        <ele>759.1</ele>
        <time>2011-05-05T12:30:04Z</time>
      </trkpt>
      <trkpt lat="44.42042" lon="5.72717">
        <ele>757.18</ele>
        <time>2011-05-05T12:30:19Z</time>
      </trkpt>
      <trkpt lat="44.42045" lon="5.72699">
        <ele>756.21</ele>
        <time>2011-05-05T12:30:35Z</time>
      </trkpt>
      <trkpt lat="44.42054" lon="5.72685">
        <ele>755.73</ele>
        <time>2011-05-05T12:30:49Z</time>
      </trkpt>
      <trkpt lat="44.42056" lon="5.72677">
        <ele>755.73</ele>
        <time>2011-05-05T12:30:54Z</time>
      </trkpt>
      <trkpt lat="44.42057" lon="5.72674">
        <ele>754.77</ele>
        <time>2011-05-05T12:30:59Z</time>
      </trkpt>
      <trkpt lat="44.42057" lon="5.72667">
        <ele>754.29</ele>
        <time>2011-05-05T12:31:03Z</time>
      </trkpt>
      <trkpt lat="44.42061" lon="5.72646">
        <ele>752.85</ele>
        <time>2011-05-05T12:31:20Z</time>
      </trkpt>
      <trkpt lat="44.42062" lon="5.72639">
        <ele>751.89</ele>
        <time>2011-05-05T12:31:25Z</time>
      </trkpt>
      <trkpt lat="44.42062" lon="5.72636">
        <ele>751.41</ele>
        <time>2011-05-05T12:31:29Z</time>
      </trkpt>
      <trkpt lat="44.42064" lon="5.72627">
        <ele>751.89</ele>
        <time>2011-05-05T12:31:34Z</time>
      </trkpt>
      <trkpt lat="44.42065" lon="5.72622">
        <ele>751.41</ele>
        <time>2011-05-05T12:31:38Z</time>
      </trkpt>
      <trkpt lat="44.42066" lon="5.72617">
        <ele>751.41</ele>
        <time>2011-05-05T12:31:42Z</time>
      </trkpt>
      <trkpt lat="44.42061" lon="5.72593">
        <ele>749.97</ele>
        <time>2011-05-05T12:31:58Z</time>
      </trkpt>
      <trkpt lat="44.42052" lon="5.7257">
        <ele>748.04</ele>
        <time>2011-05-05T12:32:15Z</time>
      </trkpt>
      <trkpt lat="44.42048" lon="5.72552">
        <ele>746.12</ele>
        <time>2011-05-05T12:32:30Z</time>
      </trkpt>
      <trkpt lat="44.42046" lon="5.72546">
        <ele>745.64</ele>
        <time>2011-05-05T12:32:34Z</time>
      </trkpt>
      <trkpt lat="44.42046" lon="5.72539">
        <ele>745.64</ele>
        <time>2011-05-05T12:32:39Z</time>
      </trkpt>
      <trkpt lat="44.42044" lon="5.72536">
        <ele>745.64</ele>
        <time>2011-05-05T12:32:41Z</time>
      </trkpt>
      <trkpt lat="44.42052" lon="5.72519">
        <ele>744.68</ele>
        <time>2011-05-05T12:32:54Z</time>
      </trkpt>
      <trkpt lat="44.42052" lon="5.72517">
        <ele>744.2</ele>
        <time>2011-05-05T12:32:58Z</time>
      </trkpt>
      <trkpt lat="44.42053" lon="5.72506">
        <ele>744.2</ele>
        <time>2011-05-05T12:33:09Z</time>
      </trkpt>
      <trkpt lat="44.42053" lon="5.72493">
        <ele>742.76</ele>
        <time>2011-05-05T12:33:21Z</time>
      </trkpt>
      <trkpt lat="44.42051" lon="5.72463">
        <ele>741.31</ele>
        <time>2011-05-05T12:33:38Z</time>
      </trkpt>
      <trkpt lat="44.42052" lon="5.72454">
        <ele>740.83</ele>
        <time>2011-05-05T12:33:53Z</time>
      </trkpt>
      <trkpt lat="44.42052" lon="5.72454">
        <ele>739.87</ele>
        <time>2011-05-05T12:34:12Z</time>
      </trkpt>
      <trkpt lat="44.42051" lon="5.72445">
        <ele>739.87</ele>
        <time>2011-05-05T12:34:48Z</time>
      </trkpt>
      <trkpt lat="44.42051" lon="5.72444">
        <ele>738.91</ele>
        <time>2011-05-05T12:34:51Z</time>
      </trkpt>
      <trkpt lat="44.42053" lon="5.72436">
        <ele>738.43</ele>
        <time>2011-05-05T12:35:11Z</time>
      </trkpt>
      <trkpt lat="44.42053" lon="5.72437">
        <ele>737.47</ele>
        <time>2011-05-05T12:35:14Z</time>
      </trkpt>
      <trkpt lat="44.42062" lon="5.72438">
        <ele>734.58</ele>
        <time>2011-05-05T12:35:24Z</time>
      </trkpt>
      <trkpt lat="44.42072" lon="5.7243">
        <ele>732.18</ele>
        <time>2011-05-05T12:35:38Z</time>
      </trkpt>
      <trkpt lat="44.4207" lon="5.72417">
        <ele>729.78</ele>
        <time>2011-05-05T12:35:57Z</time>
      </trkpt>
      <trkpt lat="44.4207" lon="5.72416">
        <ele>730.26</ele>
        <time>2011-05-05T12:35:58Z</time>
      </trkpt>
      <trkpt lat="44.42069" lon="5.72414">
        <ele>730.74</ele>
        <time>2011-05-05T12:36:00Z</time>
      </trkpt>
      <trkpt lat="44.42076" lon="5.72419">
        <ele>729.78</ele>
        <time>2011-05-05T12:36:14Z</time>
      </trkpt>
      <trkpt lat="44.42078" lon="5.72423">
        <ele>730.26</ele>
        <time>2011-05-05T12:36:32Z</time>
      </trkpt>
      <trkpt lat="44.42079" lon="5.72439">
        <ele>729.3</ele>
        <time>2011-05-05T12:36:47Z</time>
      </trkpt>
      <trkpt lat="44.42079" lon="5.72439">
        <ele>729.78</ele>
        <time>2011-05-05T12:36:52Z</time>
      </trkpt>
      <trkpt lat="44.42079" lon="5.72443">
        <ele>729.3</ele>
        <time>2011-05-05T12:36:54Z</time>
      </trkpt>
      <trkpt lat="44.42079" lon="5.72461">
        <ele>729.78</ele>
        <time>2011-05-05T12:37:04Z</time>
      </trkpt>
      <trkpt lat="44.42084" lon="5.72491">
        <ele>728.34</ele>
        <time>2011-05-05T12:37:19Z</time>
      </trkpt>
      <trkpt lat="44.42086" lon="5.72495">
        <ele>728.82</ele>
        <time>2011-05-05T12:37:21Z</time>
      </trkpt>
      <trkpt lat="44.42091" lon="5.72503">
        <ele>727.86</ele>
        <time>2011-05-05T12:37:27Z</time>
      </trkpt>
      <trkpt lat="44.42092" lon="5.72498">
        <ele>728.34</ele>
        <time>2011-05-05T12:37:29Z</time>
      </trkpt>
      <trkpt lat="44.42095" lon="5.7249">
        <ele>726.89</ele>
        <time>2011-05-05T12:37:34Z</time>
      </trkpt>
      <trkpt lat="44.42095" lon="5.72478">
        <ele>726.41</ele>
        <time>2011-05-05T12:37:41Z</time>
      </trkpt>
      <trkpt lat="44.42094" lon="5.72454">
        <ele>723.53</ele>
        <time>2011-05-05T12:37:59Z</time>
      </trkpt>
      <trkpt lat="44.42095" lon="5.72452">
        <ele>724.01</ele>
        <time>2011-05-05T12:38:01Z</time>
      </trkpt>
      <trkpt lat="44.42097" lon="5.7243">
        <ele>722.09</ele>
        <time>2011-05-05T12:38:18Z</time>
      </trkpt>
      <trkpt lat="44.42098" lon="5.72417">
        <ele>720.65</ele>
        <time>2011-05-05T12:38:28Z</time>
      </trkpt>
      <trkpt lat="44.42103" lon="5.72402">
        <ele>719.2</ele>
        <time>2011-05-05T12:38:43Z</time>
      </trkpt>
      <trkpt lat="44.42112" lon="5.72383">
        <ele>718.24</ele>
        <time>2011-05-05T12:38:59Z</time>
      </trkpt>
      <trkpt lat="44.42118" lon="5.7236">
        <ele>715.36</ele>
        <time>2011-05-05T12:39:18Z</time>
      </trkpt>
      <trkpt lat="44.4212" lon="5.72346">
        <ele>715.36</ele>
        <time>2011-05-05T12:39:27Z</time>
      </trkpt>
      <trkpt lat="44.42117" lon="5.72321">
        <ele>711.51</ele>
        <time>2011-05-05T12:39:45Z</time>
      </trkpt>
      <trkpt lat="44.42115" lon="5.72294">
        <ele>711.03</ele>
        <time>2011-05-05T12:40:04Z</time>
      </trkpt>
      <trkpt lat="44.42116" lon="5.72278">
        <ele>710.07</ele>
        <time>2011-05-05T12:40:20Z</time>
      </trkpt>
      <trkpt lat="44.42115" lon="5.72272">
        <ele>709.11</ele>
        <time>2011-05-05T12:40:27Z</time>
      </trkpt>
      <trkpt lat="44.42112" lon="5.72261">
        <ele>708.15</ele>
        <time>2011-05-05T12:40:37Z</time>
      </trkpt>
      <trkpt lat="44.4211" lon="5.72251">
        <ele>707.67</ele>
        <time>2011-05-05T12:40:46Z</time>
      </trkpt>
      <trkpt lat="44.42116" lon="5.72224">
        <ele>705.75</ele>
        <time>2011-05-05T12:41:04Z</time>
      </trkpt>
      <trkpt lat="44.42117" lon="5.72201">
        <ele>702.86</ele>
        <time>2011-05-05T12:41:23Z</time>
      </trkpt>
      <trkpt lat="44.42111" lon="5.72177">
        <ele>700.94</ele>
        <time>2011-05-05T12:41:43Z</time>
      </trkpt>
      <trkpt lat="44.42112" lon="5.72166">
        <ele>700.46</ele>
        <time>2011-05-05T12:41:50Z</time>
      </trkpt>
      <trkpt lat="44.42125" lon="5.7215">
        <ele>698.53</ele>
        <time>2011-05-05T12:42:07Z</time>
      </trkpt>
      <trkpt lat="44.42138" lon="5.72146">
        <ele>697.57</ele>
        <time>2011-05-05T12:42:20Z</time>
      </trkpt>
      <trkpt lat="44.42148" lon="5.72141">
        <ele>695.65</ele>
        <time>2011-05-05T12:42:30Z</time>
      </trkpt>
      <trkpt lat="44.42161" lon="5.72124">
        <ele>695.17</ele>
        <time>2011-05-05T12:42:45Z</time>
      </trkpt>
      <trkpt lat="44.42167" lon="5.72113">
        <ele>693.73</ele>
        <time>2011-05-05T12:42:57Z</time>
      </trkpt>
      <trkpt lat="44.42177" lon="5.72114">
        <ele>693.73</ele>
        <time>2011-05-05T12:43:06Z</time>
      </trkpt>
      <trkpt lat="44.42183" lon="5.72114">
        <ele>693.73</ele>
        <time>2011-05-05T12:43:12Z</time>
      </trkpt>
      <trkpt lat="44.42202" lon="5.72113">
        <ele>694.69</ele>
        <time>2011-05-05T12:43:25Z</time>
      </trkpt>
      <trkpt lat="44.42223" lon="5.7211">
        <ele>694.21</ele>
        <time>2011-05-05T12:43:42Z</time>
      </trkpt>
      <trkpt lat="44.42228" lon="5.72105">
        <ele>693.73</ele>
        <time>2011-05-05T12:43:47Z</time>
      </trkpt>
      <trkpt lat="44.42243" lon="5.72089">
        <ele>694.21</ele>
        <time>2011-05-05T12:44:05Z</time>
      </trkpt>
      <trkpt lat="44.42257" lon="5.72073">
        <ele>693.73</ele>
        <time>2011-05-05T12:44:21Z</time>
      </trkpt>
      <trkpt lat="44.4227" lon="5.72061">
        <ele>692.29</ele>
        <time>2011-05-05T12:44:36Z</time>
      </trkpt>
      <trkpt lat="44.42282" lon="5.72047">
        <ele>690.84</ele>
        <time>2011-05-05T12:44:52Z</time>
      </trkpt>
      <trkpt lat="44.42295" lon="5.72035">
        <ele>689.88</ele>
        <time>2011-05-05T12:45:06Z</time>
      </trkpt>
      <trkpt lat="44.42305" lon="5.72023">
        <ele>688.44</ele>
        <time>2011-05-05T12:45:18Z</time>
      </trkpt>
      <trkpt lat="44.42315" lon="5.72011">
        <ele>687.96</ele>
        <time>2011-05-05T12:45:33Z</time>
      </trkpt>
      <trkpt lat="44.42328" lon="5.71996">
        <ele>686.04</ele>
        <time>2011-05-05T12:45:49Z</time>
      </trkpt>
      <trkpt lat="44.42338" lon="5.71987">
        <ele>685.08</ele>
        <time>2011-05-05T12:46:04Z</time>
      </trkpt>
      <trkpt lat="44.42349" lon="5.71973">
        <ele>684.6</ele>
        <time>2011-05-05T12:46:19Z</time>
      </trkpt>
      <trkpt lat="44.42352" lon="5.71969">
        <ele>683.15</ele>
        <time>2011-05-05T12:46:23Z</time>
      </trkpt>
      <trkpt lat="44.42361" lon="5.71958">
        <ele>684.12</ele>
        <time>2011-05-05T12:46:35Z</time>
      </trkpt>
      <trkpt lat="44.42362" lon="5.71956">
        <ele>682.19</ele>
        <time>2011-05-05T12:46:37Z</time>
      </trkpt>
      <trkpt lat="44.42371" lon="5.71948">
        <ele>681.71</ele>
        <time>2011-05-05T12:46:46Z</time>
      </trkpt>
      <trkpt lat="44.42384" lon="5.71932">
        <ele>680.75</ele>
        <time>2011-05-05T12:47:02Z</time>
      </trkpt>
      <trkpt lat="44.42385" lon="5.71925">
        <ele>680.27</ele>
        <time>2011-05-05T12:47:08Z</time>
      </trkpt>
      <trkpt lat="44.42391" lon="5.71915">
        <ele>679.31</ele>
        <time>2011-05-05T12:47:18Z</time>
      </trkpt>
      <trkpt lat="44.42399" lon="5.71912">
        <ele>679.79</ele>
        <time>2011-05-05T12:47:25Z</time>
      </trkpt>
      <trkpt lat="44.4242" lon="5.71909">
        <ele>680.75</ele>
        <time>2011-05-05T12:47:46Z</time>
      </trkpt>
      <trkpt lat="44.42441" lon="5.71905">
        <ele>680.75</ele>
        <time>2011-05-05T12:48:03Z</time>
      </trkpt>
      <trkpt lat="44.42451" lon="5.71903">
        <ele>680.27</ele>
        <time>2011-05-05T12:48:11Z</time>
      </trkpt>
      <trkpt lat="44.42464" lon="5.71897">
        <ele>680.75</ele>
        <time>2011-05-05T12:48:28Z</time>
      </trkpt>
      <trkpt lat="44.4247" lon="5.71895">
        <ele>680.27</ele>
        <time>2011-05-05T12:48:34Z</time>
      </trkpt>
      <trkpt lat="44.42482" lon="5.71892">
        <ele>680.75</ele>
        <time>2011-05-05T12:48:44Z</time>
      </trkpt>
      <trkpt lat="44.42497" lon="5.71889">
        <ele>682.19</ele>
        <time>2011-05-05T12:49:02Z</time>
      </trkpt>
      <trkpt lat="44.42514" lon="5.71894">
        <ele>681.23</ele>
        <time>2011-05-05T12:49:16Z</time>
      </trkpt>
      <trkpt lat="44.42531" lon="5.71881">
        <ele>681.23</ele>
        <time>2011-05-05T12:49:32Z</time>
      </trkpt>
      <trkpt lat="44.42547" lon="5.71876">
        <ele>679.79</ele>
        <time>2011-05-05T12:49:49Z</time>
      </trkpt>
      <trkpt lat="44.42561" lon="5.71872">
        <ele>678.83</ele>
        <time>2011-05-05T12:50:04Z</time>
      </trkpt>
      <trkpt lat="44.42577" lon="5.71867">
        <ele>677.39</ele>
        <time>2011-05-05T12:50:22Z</time>
      </trkpt>
      <trkpt lat="44.42581" lon="5.71866">
        <ele>677.39</ele>
        <time>2011-05-05T12:50:28Z</time>
      </trkpt>
      <trkpt lat="44.42583" lon="5.71866">
        <ele>677.39</ele>
        <time>2011-05-05T12:50:30Z</time>
      </trkpt>
      <trkpt lat="44.42607" lon="5.7186">
        <ele>676.91</ele>
        <time>2011-05-05T12:50:50Z</time>
      </trkpt>
      <trkpt lat="44.42628" lon="5.71856">
        <ele>675.46</ele>
        <time>2011-05-05T12:51:08Z</time>
      </trkpt>
      <trkpt lat="44.42646" lon="5.7185">
        <ele>674.5</ele>
        <time>2011-05-05T12:51:26Z</time>
      </trkpt>
      <trkpt lat="44.42658" lon="5.71841">
        <ele>673.54</ele>
        <time>2011-05-05T12:51:44Z</time>
      </trkpt>
      <trkpt lat="44.42662" lon="5.71837">
        <ele>674.5</ele>
        <time>2011-05-05T12:51:49Z</time>
      </trkpt>
      <trkpt lat="44.42674" lon="5.71827">
        <ele>672.58</ele>
        <time>2011-05-05T12:52:02Z</time>
      </trkpt>
      <trkpt lat="44.42681" lon="5.71828">
        <ele>673.06</ele>
        <time>2011-05-05T12:52:07Z</time>
      </trkpt>
      <trkpt lat="44.42699" lon="5.71824">
        <ele>672.58</ele>
        <time>2011-05-05T12:52:25Z</time>
      </trkpt>
      <trkpt lat="44.42715" lon="5.7183">
        <ele>672.1</ele>
        <time>2011-05-05T12:52:41Z</time>
      </trkpt>
      <trkpt lat="44.42723" lon="5.71831">
        <ele>671.14</ele>
        <time>2011-05-05T12:52:50Z</time>
      </trkpt>
      <trkpt lat="44.42725" lon="5.71831">
        <ele>670.66</ele>
        <time>2011-05-05T12:52:53Z</time>
      </trkpt>
      <trkpt lat="44.42742" lon="5.7183">
        <ele>670.66</ele>
        <time>2011-05-05T12:53:06Z</time>
      </trkpt>
      <trkpt lat="44.42743" lon="5.7183">
        <ele>670.66</ele>
        <time>2011-05-05T12:53:09Z</time>
      </trkpt>
      <trkpt lat="44.4275" lon="5.71814">
        <ele>669.22</ele>
        <time>2011-05-05T12:53:22Z</time>
      </trkpt>
      <trkpt lat="44.42753" lon="5.71814">
        <ele>669.22</ele>
        <time>2011-05-05T12:53:24Z</time>
      </trkpt>
      <trkpt lat="44.42756" lon="5.71813">
        <ele>669.7</ele>
        <time>2011-05-05T12:53:27Z</time>
      </trkpt>
      <trkpt lat="44.42767" lon="5.71806">
        <ele>667.77</ele>
        <time>2011-05-05T12:53:44Z</time>
      </trkpt>
      <trkpt lat="44.42776" lon="5.71802">
        <ele>667.77</ele>
        <time>2011-05-05T12:53:48Z</time>
      </trkpt>
      <trkpt lat="44.42782" lon="5.71799">
        <ele>668.25</ele>
        <time>2011-05-05T12:53:51Z</time>
      </trkpt>
      <trkpt lat="44.42801" lon="5.71798">
        <ele>667.77</ele>
        <time>2011-05-05T12:54:09Z</time>
      </trkpt>
      <trkpt lat="44.42803" lon="5.71798">
        <ele>666.33</ele>
        <time>2011-05-05T12:54:12Z</time>
      </trkpt>
      <trkpt lat="44.42818" lon="5.71802">
        <ele>665.85</ele>
        <time>2011-05-05T12:54:30Z</time>
      </trkpt>
      <trkpt lat="44.4282" lon="5.71803">
        <ele>665.85</ele>
        <time>2011-05-05T12:54:33Z</time>
      </trkpt>
      <trkpt lat="44.42834" lon="5.71807">
        <ele>665.85</ele>
        <time>2011-05-05T12:54:44Z</time>
      </trkpt>
      <trkpt lat="44.42844" lon="5.71813">
        <ele>666.33</ele>
        <time>2011-05-05T12:54:50Z</time>
      </trkpt>
      <trkpt lat="44.42851" lon="5.71817">
        <ele>665.37</ele>
        <time>2011-05-05T12:54:53Z</time>
      </trkpt>
      <trkpt lat="44.42855" lon="5.71821">
        <ele>666.81</ele>
        <time>2011-05-05T12:55:08Z</time>
      </trkpt>
      <trkpt lat="44.42855" lon="5.71821">
        <ele>665.37</ele>
        <time>2011-05-05T12:55:11Z</time>
      </trkpt>
      <trkpt lat="44.42856" lon="5.71817">
        <ele>665.85</ele>
        <time>2011-05-05T12:55:28Z</time>
      </trkpt>
      <trkpt lat="44.42855" lon="5.71817">
        <ele>662.97</ele>
        <time>2011-05-05T12:56:29Z</time>
      </trkpt>
      <trkpt lat="44.42855" lon="5.71817">
        <ele>665.37</ele>
        <time>2011-05-05T12:56:30Z</time>
      </trkpt>
      <trkpt lat="44.42855" lon="5.71817">
        <ele>665.37</ele>
        <time>2011-05-05T12:56:36Z</time>
      </trkpt>
      <trkpt lat="44.42855" lon="5.71816">
        <ele>665.85</ele>
        <time>2011-05-05T12:57:27Z</time>
      </trkpt>
    </trkseg>
  </trk>
</gpx>